AFR995 FAOR-LFPG
Flight info
| Callsign | AFR995 |
|---|---|
| Flight time | N/A |
| Altitude | 35000 |
| Route | NESAN1A NESAN UQ40 EVIPI DCT ETMIT UM214 OKLAP/N0503F340 UM214 UTROV/N0501F360 UM214 IBOSO/N0493F380 UM214 GARIN M214 SEB M999 BURHA/N0485F400 M999 IMN UR985 RIMEL UA605 CSO UM998 KAMER DCT EDINO DCT ROTIS DCT LOGNI/N0479F380 DCT MOKIP DCT ARFOZ DCT TINIL |
| Aircraft | A359/H-SDE2E3GHIJ3J4J5LM1ORWXY/LB1D1 |
Departure
| Time | 2026-05-04 17:00 |
|---|---|
| Airport | O.R. Tambo International Airport (FAOR) |
Arrival
| Time | N/A |
|---|---|
| Airport | Charles de Gaulle International Airport (LFPG) |
| Time | Latitude | Longitude | Altitude | Speed | Heading |
|---|---|---|---|---|---|
| 2026-05-04 16:03 | -26.12907 | 28.23489 | 5556 ft | 0 kts | 186° |
| 2026-05-04 16:48 | -26.12851 | 28.23496 | 5554 ft | 2 kts | 186° |
| 2026-05-04 16:48 | -26.12827 | 28.23495 | 5553 ft | 4 kts | 152° |
| 2026-05-04 16:49 | -26.12805 | 28.23448 | 5554 ft | 4 kts | 96° |
| 2026-05-04 16:49 | -26.12802 | 28.23421 | 5556 ft | 0 kts | 96° |
| 2026-05-04 16:52 | -26.12803 | 28.23434 | 5556 ft | 5 kts | 96° |
| 2026-05-04 16:52 | -26.12809 | 28.23491 | 5553 ft | 10 kts | 96° |
| 2026-05-04 16:53 | -26.12829 | 28.23697 | 5555 ft | 14 kts | 96° |
| 2026-05-04 16:53 | -26.13013 | 28.23738 | 5555 ft | 11 kts | 195° |
| 2026-05-04 16:54 | -26.13089 | 28.23714 | 5556 ft | 11 kts | 196° |
| 2026-05-04 16:55 | -26.13476 | 28.23594 | 5558 ft | 16 kts | 195° |
| 2026-05-04 16:55 | -26.13728 | 28.23515 | 5565 ft | 20 kts | 195° |
| 2026-05-04 16:56 | -26.14010 | 28.23428 | 5566 ft | 22 kts | 195° |
| 2026-05-04 16:56 | -26.14425 | 28.23298 | 5569 ft | 14 kts | 195° |
| 2026-05-04 16:57 | -26.14476 | 28.23312 | 5569 ft | 0 kts | 138° |
| 2026-05-04 16:57 | -26.14477 | 28.23315 | 5570 ft | 3 kts | 131° |
| 2026-05-04 16:58 | -26.14404 | 28.23510 | 5571 ft | 8 kts | 14° |
| 2026-05-04 16:58 | -26.14229 | 28.23563 | 5573 ft | 54 kts | 15° |
| 2026-05-04 16:59 | -26.12716 | 28.24032 | 5552 ft | 167 kts | 15° |
| 2026-05-04 17:00 | -26.07758 | 28.25751 | 7447 ft | 197 kts | 14° |
| 2026-05-04 17:00 | -26.03604 | 28.27130 | 8467 ft | 217 kts | 9° |
| 2026-05-04 17:01 | -26.00445 | 28.26954 | 8879 ft | 244 kts | 347° |
| 2026-05-04 17:01 | -25.96887 | 28.26187 | 9412 ft | 274 kts | 346° |
| 2026-05-04 17:02 | -25.93126 | 28.25306 | 10459 ft | 283 kts | 345° |
| 2026-05-04 17:02 | -25.89082 | 28.24341 | 10965 ft | 311 kts | 345° |
| 2026-05-04 17:03 | -25.86916 | 28.23824 | 11195 ft | 325 kts | 346° |
| 2026-05-04 17:03 | -25.84659 | 28.23290 | 11434 ft | 338 kts | 346° |
| 2026-05-04 17:03 | -25.79895 | 28.22175 | 11879 ft | 361 kts | 346° |
| 2026-05-04 17:04 | -25.74922 | 28.21019 | 12719 ft | 368 kts | 346° |
| 2026-05-04 17:04 | -25.69921 | 28.19854 | 13483 ft | 373 kts | 346° |
| 2026-05-04 17:05 | -25.64802 | 28.18658 | 14358 ft | 377 kts | 346° |
| 2026-05-04 17:05 | -25.59651 | 28.17454 | 15184 ft | 379 kts | 346° |
| 2026-05-04 17:06 | -25.54468 | 28.16243 | 15999 ft | 382 kts | 346° |
| 2026-05-04 17:06 | -25.51897 | 28.15643 | 16399 ft | 383 kts | 346° |
| 2026-05-04 17:07 | -25.46661 | 28.14421 | 17186 ft | 386 kts | 346° |
| 2026-05-04 17:07 | -25.44878 | 28.14006 | 17447 ft | 387 kts | 345° |
| 2026-05-04 17:07 | -25.41380 | 28.13191 | 17950 ft | 389 kts | 345° |
| 2026-05-04 17:07 | -25.38722 | 28.12571 | 18330 ft | 391 kts | 345° |
| 2026-05-04 17:08 | -25.36058 | 28.11951 | 18672 ft | 392 kts | 345° |
| 2026-05-04 17:08 | -25.30724 | 28.10710 | 19263 ft | 396 kts | 345° |
| 2026-05-04 17:08 | -25.28023 | 28.10082 | 19580 ft | 398 kts | 345° |
| 2026-05-04 17:09 | -25.25305 | 28.09451 | 19890 ft | 400 kts | 345° |
| 2026-05-04 17:09 | -25.22577 | 28.08818 | 20210 ft | 402 kts | 345° |
| 2026-05-04 17:09 | -25.19837 | 28.08181 | 20521 ft | 404 kts | 345° |
| 2026-05-04 17:10 | -25.17639 | 28.07671 | 20784 ft | 405 kts | 345° |
| 2026-05-04 17:10 | -25.15567 | 28.07191 | 21035 ft | 406 kts | 345° |
| 2026-05-04 17:11 | -25.14404 | 28.06921 | 21166 ft | 407 kts | 345° |
| 2026-05-04 17:11 | -25.11623 | 28.06276 | 21482 ft | 409 kts | 345° |
| 2026-05-04 17:11 | -25.06028 | 28.04980 | 22144 ft | 413 kts | 345° |
| 2026-05-04 17:12 | -25.03208 | 28.04328 | 22452 ft | 415 kts | 345° |
| 2026-05-04 17:12 | -24.97532 | 28.03014 | 23093 ft | 419 kts | 345° |
| 2026-05-04 17:13 | -24.88932 | 28.01026 | 23910 ft | 427 kts | 345° |
| 2026-05-04 17:14 | -24.80161 | 27.99003 | 24680 ft | 433 kts | 345° |
| 2026-05-04 17:14 | -24.79333 | 27.98813 | 24760 ft | 433 kts | 345° |
| 2026-05-04 17:14 | -24.73409 | 27.97448 | 25339 ft | 437 kts | 345° |
| 2026-05-04 17:15 | -24.70428 | 27.96761 | 25611 ft | 439 kts | 345° |
| 2026-05-04 17:15 | -24.64453 | 27.95386 | 26172 ft | 444 kts | 345° |
| 2026-05-04 17:16 | -24.58372 | 27.93988 | 26752 ft | 449 kts | 345° |
| 2026-05-04 17:16 | -24.49135 | 27.91868 | 27592 ft | 456 kts | 344° |
| 2026-05-04 17:17 | -24.46024 | 27.91154 | 27866 ft | 458 kts | 344° |
| 2026-05-04 17:17 | -24.36636 | 27.89000 | 28611 ft | 466 kts | 344° |
| 2026-05-04 17:18 | -24.33454 | 27.88270 | 28865 ft | 468 kts | 344° |
| 2026-05-04 17:18 | -24.27050 | 27.86808 | 29352 ft | 472 kts | 344° |
| 2026-05-04 17:19 | -24.20592 | 27.85335 | 29831 ft | 476 kts | 344° |
| 2026-05-04 17:19 | -24.14087 | 27.83851 | 30264 ft | 480 kts | 344° |
| 2026-05-04 17:20 | -24.07534 | 27.82356 | 30480 ft | 486 kts | 344° |
| 2026-05-04 17:20 | -24.00907 | 27.80850 | 30968 ft | 486 kts | 344° |
| 2026-05-04 17:20 | -23.97602 | 27.80101 | 31291 ft | 484 kts | 343° |
| 2026-05-04 17:21 | -23.91031 | 27.78608 | 31861 ft | 481 kts | 343° |
| 2026-05-04 17:21 | -23.84488 | 27.77121 | 32345 ft | 480 kts | 343° |
| 2026-05-04 17:22 | -23.81257 | 27.76386 | 32532 ft | 481 kts | 343° |
| 2026-05-04 17:22 | -23.77986 | 27.75643 | 32766 ft | 480 kts | 343° |
| 2026-05-04 17:23 | -23.68219 | 27.73431 | 33574 ft | 475 kts | 343° |
| 2026-05-04 17:23 | -23.64985 | 27.72700 | 33811 ft | 475 kts | 343° |
| 2026-05-04 17:23 | -23.58528 | 27.71239 | 34219 ft | 473 kts | 343° |
| 2026-05-04 17:24 | -23.55310 | 27.70511 | 34358 ft | 473 kts | 343° |
| 2026-05-04 17:24 | -23.45693 | 27.68339 | 34867 ft | 471 kts | 343° |
| 2026-05-04 17:25 | -23.42491 | 27.67617 | 35035 ft | 471 kts | 343° |
| 2026-05-04 17:25 | -23.36081 | 27.66172 | 35351 ft | 469 kts | 343° |
| 2026-05-04 17:26 | -23.29691 | 27.64733 | 35609 ft | 469 kts | 343° |
| 2026-05-04 17:26 | -23.20092 | 27.62782 | 35958 ft | 472 kts | 348° |
| 2026-05-04 17:27 | -23.13544 | 27.62048 | 36113 ft | 475 kts | 349° |
| 2026-05-04 17:28 | -23.00282 | 27.60762 | 36111 ft | 479 kts | 350° |
| 2026-05-04 17:29 | -22.80385 | 27.58812 | 36092 ft | 480 kts | 350° |
| 2026-05-04 17:31 | -22.63765 | 27.57177 | 36100 ft | 480 kts | 350° |
| 2026-05-04 17:32 | -22.47197 | 27.55553 | 36071 ft | 480 kts | 351° |
| 2026-05-04 17:33 | -22.33889 | 27.54252 | 36092 ft | 480 kts | 351° |
| 2026-05-04 17:34 | -22.20624 | 27.52957 | 36092 ft | 480 kts | 351° |
| 2026-05-04 17:35 | -22.04011 | 27.51338 | 36094 ft | 481 kts | 351° |
| 2026-05-04 17:36 | -21.97345 | 27.50690 | 36095 ft | 481 kts | 351° |
| 2026-05-04 17:36 | -21.90657 | 27.50200 | 36094 ft | 483 kts | 354° |
| 2026-05-04 17:37 | -21.83928 | 27.49995 | 36100 ft | 484 kts | 354° |
| 2026-05-04 17:37 | -21.77200 | 27.49798 | 36097 ft | 484 kts | 354° |
| 2026-05-04 17:38 | -21.70513 | 27.49555 | 36098 ft | 484 kts | 354° |
| 2026-05-04 17:38 | -21.63789 | 27.49287 | 36101 ft | 484 kts | 354° |
| 2026-05-04 17:39 | -21.53692 | 27.48879 | 36110 ft | 484 kts | 354° |
| 2026-05-04 17:39 | -21.46959 | 27.48609 | 36109 ft | 484 kts | 354° |
| 2026-05-04 17:40 | -21.40272 | 27.48343 | 36110 ft | 484 kts | 354° |
| 2026-05-04 17:40 | -21.33540 | 27.48076 | 36114 ft | 484 kts | 354° |
| 2026-05-04 17:41 | -21.26801 | 27.47807 | 36113 ft | 485 kts | 354° |
| 2026-05-04 17:41 | -21.20064 | 27.47539 | 36124 ft | 485 kts | 354° |
| 2026-05-04 17:42 | -21.13468 | 27.46597 | 36122 ft | 479 kts | 344° |
| 2026-05-04 17:42 | -21.06995 | 27.44966 | 36129 ft | 478 kts | 343° |
| 2026-05-04 17:43 | -21.00543 | 27.43221 | 36131 ft | 479 kts | 342° |
| 2026-05-04 17:43 | -20.94076 | 27.41468 | 36141 ft | 480 kts | 343° |
| 2026-05-04 17:44 | -20.88704 | 27.40027 | 36136 ft | 480 kts | 343° |
| 2026-05-04 17:44 | -20.81164 | 27.38017 | 36151 ft | 480 kts | 343° |
| 2026-05-04 17:45 | -20.74690 | 27.36295 | 36144 ft | 480 kts | 343° |
| 2026-05-04 17:45 | -20.68198 | 27.34567 | 36144 ft | 481 kts | 343° |
| 2026-05-04 17:46 | -20.61705 | 27.32842 | 36152 ft | 481 kts | 343° |
| 2026-05-04 17:46 | -20.55251 | 27.31128 | 36149 ft | 481 kts | 343° |
| 2026-05-04 17:47 | -20.48760 | 27.29406 | 36145 ft | 481 kts | 343° |
| 2026-05-04 17:47 | -20.42259 | 27.27683 | 36150 ft | 481 kts | 343° |
| 2026-05-04 17:48 | -20.36861 | 27.26253 | 36146 ft | 481 kts | 343° |
| 2026-05-04 17:48 | -20.29299 | 27.24251 | 36144 ft | 482 kts | 343° |
| 2026-05-04 17:49 | -20.22795 | 27.22532 | 36138 ft | 482 kts | 343° |
| 2026-05-04 17:49 | -20.17395 | 27.21106 | 36128 ft | 482 kts | 343° |
| 2026-05-04 17:50 | -20.10881 | 27.19386 | 36135 ft | 482 kts | 343° |
| 2026-05-04 17:50 | -20.04364 | 27.17672 | 36132 ft | 482 kts | 343° |
| 2026-05-04 17:51 | -19.96793 | 27.15685 | 36134 ft | 482 kts | 343° |
| 2026-05-04 17:51 | -19.90285 | 27.13973 | 36136 ft | 482 kts | 343° |
| 2026-05-04 17:52 | -19.84880 | 27.12544 | 36132 ft | 482 kts | 343° |
| 2026-05-04 17:52 | -19.78371 | 27.10828 | 36124 ft | 482 kts | 343° |
| 2026-05-04 17:53 | -19.71868 | 27.09117 | 36126 ft | 482 kts | 343° |
| 2026-05-04 17:53 | -19.65399 | 27.07417 | 36129 ft | 482 kts | 343° |
| 2026-05-04 17:54 | -19.58893 | 27.05708 | 36122 ft | 482 kts | 343° |
| 2026-05-04 17:54 | -19.52380 | 27.03999 | 36127 ft | 482 kts | 343° |
| 2026-05-04 17:55 | -19.45866 | 27.02292 | 36130 ft | 482 kts | 343° |
| 2026-05-04 17:55 | -19.39352 | 27.00590 | 36129 ft | 482 kts | 343° |
| 2026-05-04 17:56 | -19.32883 | 26.98900 | 36129 ft | 482 kts | 343° |
| 2026-05-04 17:56 | -19.26364 | 26.97195 | 36130 ft | 483 kts | 344° |
| 2026-05-04 17:57 | -19.19841 | 26.95492 | 36135 ft | 483 kts | 344° |
| 2026-05-04 17:57 | -19.13321 | 26.93793 | 36143 ft | 483 kts | 344° |
| 2026-05-04 17:58 | -19.06840 | 26.92106 | 36146 ft | 483 kts | 344° |
| 2026-05-04 17:58 | -19.00318 | 26.90409 | 36151 ft | 483 kts | 344° |
| 2026-05-04 17:59 | -18.93788 | 26.88709 | 36153 ft | 484 kts | 344° |
| 2026-05-04 18:00 | -18.83974 | 26.86159 | 36157 ft | 483 kts | 344° |
| 2026-05-04 18:00 | -18.77446 | 26.84465 | 36160 ft | 483 kts | 344° |
| 2026-05-04 18:01 | -18.70971 | 26.82785 | 36157 ft | 483 kts | 344° |
| 2026-05-04 18:01 | -18.64435 | 26.81090 | 36148 ft | 484 kts | 344° |
| 2026-05-04 18:02 | -18.54624 | 26.78554 | 36133 ft | 484 kts | 344° |
| 2026-05-04 18:02 | -18.48081 | 26.76860 | 36135 ft | 484 kts | 344° |
| 2026-05-04 18:03 | -18.41588 | 26.75179 | 36115 ft | 484 kts | 344° |
| 2026-05-04 18:03 | -18.35038 | 26.73485 | 36116 ft | 485 kts | 344° |
| 2026-05-04 18:04 | -18.28488 | 26.71794 | 36097 ft | 485 kts | 344° |
| 2026-05-04 18:05 | -18.18702 | 26.69270 | 36084 ft | 485 kts | 344° |
| 2026-05-04 18:05 | -18.12150 | 26.67581 | 36082 ft | 485 kts | 344° |
| 2026-05-04 18:06 | -18.02311 | 26.65052 | 36083 ft | 485 kts | 344° |
| 2026-05-04 18:06 | -17.95749 | 26.63366 | 36086 ft | 485 kts | 344° |
| 2026-05-04 18:07 | -17.89187 | 26.61678 | 36086 ft | 485 kts | 344° |
| 2026-05-04 18:07 | -17.82668 | 26.60002 | 36087 ft | 486 kts | 344° |
| 2026-05-04 18:08 | -17.76108 | 26.58317 | 36092 ft | 486 kts | 344° |
| 2026-05-04 18:08 | -17.69544 | 26.56634 | 36095 ft | 485 kts | 344° |
| 2026-05-04 18:09 | -17.56469 | 26.53287 | 36105 ft | 485 kts | 344° |
| 2026-05-04 18:10 | -17.49909 | 26.51609 | 36108 ft | 485 kts | 344° |
| 2026-05-04 18:10 | -17.43345 | 26.49931 | 36108 ft | 486 kts | 344° |
| 2026-05-04 18:11 | -17.36780 | 26.48254 | 36105 ft | 486 kts | 344° |
| 2026-05-04 18:11 | -17.30218 | 26.46579 | 36105 ft | 486 kts | 344° |
| 2026-05-04 18:12 | -17.23698 | 26.44916 | 36098 ft | 486 kts | 344° |
| 2026-05-04 18:12 | -17.17142 | 26.43198 | 36105 ft | 486 kts | 343° |
| 2026-05-04 18:13 | -17.10604 | 26.41413 | 36100 ft | 486 kts | 343° |
| 2026-05-04 18:14 | -17.00838 | 26.38757 | 36100 ft | 486 kts | 343° |
| 2026-05-04 18:14 | -16.94298 | 26.36994 | 36089 ft | 486 kts | 343° |
| 2026-05-04 18:15 | -16.81213 | 26.33476 | 36086 ft | 486 kts | 343° |
| 2026-05-04 18:16 | -16.74667 | 26.31717 | 36085 ft | 486 kts | 343° |
| 2026-05-04 18:16 | -16.68174 | 26.29953 | 36085 ft | 485 kts | 343° |
| 2026-05-04 18:17 | -16.58367 | 26.27286 | 36078 ft | 485 kts | 343° |
| 2026-05-04 18:18 | -16.48563 | 26.24630 | 36065 ft | 485 kts | 343° |
| 2026-05-04 18:18 | -16.42025 | 26.22861 | 36067 ft | 485 kts | 343° |
| 2026-05-04 18:19 | -16.32272 | 26.20224 | 36056 ft | 485 kts | 343° |
| 2026-05-04 18:19 | -16.25736 | 26.18459 | 36054 ft | 485 kts | 343° |
| 2026-05-04 18:20 | -16.19200 | 26.16695 | 36053 ft | 485 kts | 343° |
| 2026-05-04 18:20 | -16.12663 | 26.14932 | 36048 ft | 485 kts | 343° |
| 2026-05-04 18:21 | -16.06175 | 26.13183 | 36048 ft | 485 kts | 343° |
| 2026-05-04 18:21 | -15.99638 | 26.11422 | 36040 ft | 485 kts | 343° |
| 2026-05-04 18:22 | -15.93111 | 26.09665 | 36042 ft | 485 kts | 343° |
| 2026-05-04 18:22 | -15.86580 | 26.07908 | 36042 ft | 485 kts | 343° |
| 2026-05-04 18:23 | -15.80095 | 26.06164 | 36043 ft | 485 kts | 343° |
| 2026-05-04 18:23 | -15.73567 | 26.04410 | 36043 ft | 485 kts | 343° |
| 2026-05-04 18:24 | -15.67040 | 26.02658 | 36045 ft | 484 kts | 343° |
| 2026-05-04 18:24 | -15.60516 | 26.00907 | 36045 ft | 484 kts | 343° |
| 2026-05-04 18:25 | -15.54039 | 25.99171 | 36045 ft | 484 kts | 344° |
| 2026-05-04 18:25 | -15.47521 | 25.97425 | 36045 ft | 484 kts | 344° |
| 2026-05-04 18:26 | -15.41001 | 25.95679 | 36042 ft | 484 kts | 344° |
| 2026-05-04 18:26 | -15.34478 | 25.93936 | 36043 ft | 484 kts | 344° |
| 2026-05-04 18:27 | -15.27949 | 25.92195 | 36045 ft | 484 kts | 344° |
| 2026-05-04 18:27 | -15.21466 | 25.90465 | 36043 ft | 484 kts | 344° |
| 2026-05-04 18:28 | -15.14938 | 25.88725 | 36043 ft | 484 kts | 344° |
| 2026-05-04 18:28 | -15.08414 | 25.86987 | 36040 ft | 484 kts | 344° |
| 2026-05-04 18:29 | -15.01891 | 25.85251 | 36036 ft | 484 kts | 344° |
| 2026-05-04 18:29 | -14.95417 | 25.83529 | 36035 ft | 484 kts | 344° |
| 2026-05-04 18:30 | -14.85639 | 25.80930 | 36036 ft | 484 kts | 344° |
| 2026-05-04 18:31 | -14.79121 | 25.79199 | 36028 ft | 484 kts | 344° |
| 2026-05-04 18:31 | -14.72606 | 25.77470 | 36034 ft | 483 kts | 344° |
| 2026-05-04 18:32 | -14.66141 | 25.75755 | 36032 ft | 483 kts | 344° |
| 2026-05-04 18:32 | -14.59628 | 25.74029 | 36034 ft | 483 kts | 344° |
| 2026-05-04 18:33 | -14.53119 | 25.72304 | 36034 ft | 483 kts | 344° |
| 2026-05-04 18:33 | -14.46609 | 25.70581 | 36025 ft | 483 kts | 344° |
| 2026-05-04 18:34 | -14.40136 | 25.68868 | 36035 ft | 483 kts | 344° |
| 2026-05-04 18:34 | -14.33624 | 25.67147 | 36037 ft | 483 kts | 344° |
| 2026-05-04 18:35 | -14.27111 | 25.65425 | 36032 ft | 483 kts | 344° |
| 2026-05-04 18:35 | -14.20593 | 25.63704 | 36032 ft | 483 kts | 344° |
| 2026-05-04 18:36 | -14.14080 | 25.61985 | 36034 ft | 483 kts | 344° |
| 2026-05-04 18:36 | -14.07615 | 25.60279 | 36035 ft | 483 kts | 344° |
| 2026-05-04 18:37 | -14.01105 | 25.58563 | 36040 ft | 483 kts | 344° |
| 2026-05-04 18:37 | -13.94591 | 25.56846 | 36036 ft | 483 kts | 344° |
| 2026-05-04 18:38 | -13.88085 | 25.55133 | 36032 ft | 483 kts | 344° |
| 2026-05-04 18:38 | -13.81570 | 25.53418 | 36031 ft | 483 kts | 344° |
| 2026-05-04 18:39 | -13.75107 | 25.51718 | 36036 ft | 483 kts | 344° |
| 2026-05-04 18:39 | -13.68590 | 25.50005 | 36031 ft | 483 kts | 344° |
| 2026-05-04 18:40 | -13.62081 | 25.48295 | 36033 ft | 483 kts | 344° |
| 2026-05-04 18:40 | -13.55569 | 25.46585 | 36032 ft | 483 kts | 344° |
| 2026-05-04 18:41 | -13.49101 | 25.44888 | 36039 ft | 483 kts | 344° |
| 2026-05-04 18:41 | -13.42585 | 25.43179 | 36036 ft | 483 kts | 344° |
| 2026-05-04 18:42 | -13.36068 | 25.41472 | 36035 ft | 483 kts | 345° |
| 2026-05-04 18:42 | -13.29555 | 25.39767 | 36032 ft | 483 kts | 345° |
| 2026-05-04 18:43 | -13.23081 | 25.38073 | 36029 ft | 483 kts | 345° |
| 2026-05-04 18:43 | -13.16560 | 25.36368 | 36022 ft | 484 kts | 345° |
| 2026-05-04 18:44 | -13.10031 | 25.34662 | 36040 ft | 484 kts | 345° |
| 2026-05-04 18:44 | -13.03499 | 25.32956 | 36025 ft | 484 kts | 345° |
| 2026-05-04 18:45 | -12.97019 | 25.31265 | 36023 ft | 484 kts | 345° |
| 2026-05-04 18:45 | -12.90498 | 25.29564 | 36037 ft | 483 kts | 345° |
| 2026-05-04 18:46 | -12.83979 | 25.27864 | 36020 ft | 484 kts | 345° |
| 2026-05-04 18:46 | -12.77446 | 25.26161 | 36019 ft | 484 kts | 345° |
| 2026-05-04 18:47 | -12.70915 | 25.24460 | 36032 ft | 484 kts | 345° |
| 2026-05-04 18:47 | -12.64427 | 25.22771 | 36031 ft | 484 kts | 345° |
| 2026-05-04 18:48 | -12.57896 | 25.21072 | 36019 ft | 484 kts | 345° |
| 2026-05-04 18:48 | -12.51358 | 25.19371 | 36033 ft | 485 kts | 345° |
| 2026-05-04 18:49 | -12.44821 | 25.17672 | 36032 ft | 485 kts | 345° |
| 2026-05-04 18:49 | -12.38277 | 25.15973 | 36032 ft | 485 kts | 345° |
| 2026-05-04 18:50 | -12.31779 | 25.14285 | 36017 ft | 485 kts | 345° |
| 2026-05-04 18:50 | -12.25239 | 25.12588 | 36031 ft | 485 kts | 345° |
| 2026-05-04 18:51 | -12.18695 | 25.10890 | 36033 ft | 486 kts | 345° |
| 2026-05-04 18:51 | -12.12143 | 25.09196 | 36034 ft | 486 kts | 345° |
| 2026-05-04 18:52 | -12.05589 | 25.07496 | 36034 ft | 486 kts | 345° |
| 2026-05-04 18:52 | -11.99038 | 25.05797 | 36045 ft | 486 kts | 345° |
| 2026-05-04 18:53 | -11.92530 | 25.04112 | 36048 ft | 486 kts | 345° |
| 2026-05-04 18:53 | -11.85974 | 25.02415 | 36052 ft | 486 kts | 345° |
| 2026-05-04 18:54 | -11.79413 | 25.00718 | 36039 ft | 487 kts | 345° |
| 2026-05-04 18:54 | -11.72892 | 24.99033 | 36054 ft | 486 kts | 345° |
| 2026-05-04 18:55 | -11.66332 | 24.97338 | 36053 ft | 486 kts | 345° |
| 2026-05-04 18:55 | -11.56489 | 24.94796 | 36052 ft | 487 kts | 345° |
| 2026-05-04 18:56 | -11.49921 | 24.93102 | 36051 ft | 487 kts | 345° |
| 2026-05-04 18:56 | -11.43353 | 24.91406 | 36049 ft | 487 kts | 345° |
| 2026-05-04 18:57 | -11.36818 | 24.89718 | 36049 ft | 487 kts | 345° |
| 2026-05-04 18:57 | -11.30246 | 24.88021 | 36039 ft | 487 kts | 345° |
| 2026-05-04 18:58 | -11.23674 | 24.86326 | 36045 ft | 488 kts | 345° |
| 2026-05-04 18:58 | -11.17091 | 24.84630 | 36032 ft | 488 kts | 345° |
| 2026-05-04 18:59 | -11.10552 | 24.82945 | 36033 ft | 488 kts | 345° |
| 2026-05-04 18:59 | -11.03971 | 24.81250 | 36024 ft | 488 kts | 345° |
| 2026-05-04 19:00 | -10.97383 | 24.79555 | 36028 ft | 488 kts | 345° |
| 2026-05-04 19:00 | -10.90800 | 24.77861 | 36018 ft | 488 kts | 345° |
| 2026-05-04 19:01 | -10.84255 | 24.76178 | 36016 ft | 489 kts | 345° |
| 2026-05-04 19:01 | -10.77663 | 24.74484 | 36006 ft | 489 kts | 345° |
| 2026-05-04 19:02 | -10.71070 | 24.72790 | 36008 ft | 489 kts | 345° |
| 2026-05-04 19:02 | -10.64472 | 24.71095 | 35995 ft | 489 kts | 345° |
| 2026-05-04 19:03 | -10.57876 | 24.69402 | 35995 ft | 489 kts | 345° |
| 2026-05-04 19:03 | -10.51321 | 24.67720 | 35988 ft | 489 kts | 345° |
| 2026-05-04 19:04 | -10.44727 | 24.66029 | 35978 ft | 489 kts | 345° |
| 2026-05-04 19:04 | -10.38128 | 24.64337 | 35990 ft | 489 kts | 345° |
| 2026-05-04 19:05 | -10.31534 | 24.62647 | 35997 ft | 489 kts | 345° |
| 2026-05-04 19:05 | -10.24932 | 24.60956 | 35987 ft | 490 kts | 345° |
| 2026-05-04 19:06 | -10.18367 | 24.59276 | 35977 ft | 490 kts | 345° |
| 2026-05-04 19:06 | -10.11756 | 24.57584 | 35976 ft | 490 kts | 345° |
| 2026-05-04 19:07 | -10.05145 | 24.55893 | 35974 ft | 490 kts | 345° |
| 2026-05-04 19:07 | -9.98531 | 24.54203 | 35967 ft | 490 kts | 345° |
| 2026-05-04 19:08 | -9.91960 | 24.52525 | 35965 ft | 490 kts | 345° |
| 2026-05-04 19:08 | -9.85341 | 24.50837 | 35964 ft | 490 kts | 345° |
| 2026-05-04 19:09 | -9.82037 | 24.49994 | 36110 ft | 488 kts | 345° |
| 2026-05-04 19:09 | -9.78753 | 24.49157 | 36370 ft | 486 kts | 346° |
| 2026-05-04 19:09 | -9.75483 | 24.48324 | 36548 ft | 484 kts | 346° |
| 2026-05-04 19:09 | -9.72217 | 24.47491 | 36708 ft | 483 kts | 346° |
| 2026-05-04 19:10 | -9.68961 | 24.46662 | 36854 ft | 483 kts | 346° |
| 2026-05-04 19:10 | -9.65705 | 24.45832 | 36971 ft | 483 kts | 346° |
| 2026-05-04 19:10 | -9.62489 | 24.45013 | 37105 ft | 483 kts | 346° |
| 2026-05-04 19:10 | -9.59227 | 24.44182 | 37192 ft | 483 kts | 346° |
| 2026-05-04 19:11 | -9.55972 | 24.43353 | 37301 ft | 483 kts | 346° |
| 2026-05-04 19:11 | -9.52714 | 24.42524 | 37417 ft | 482 kts | 346° |
| 2026-05-04 19:11 | -9.49459 | 24.41695 | 37537 ft | 482 kts | 346° |
| 2026-05-04 19:11 | -9.46207 | 24.40868 | 37624 ft | 482 kts | 346° |
| 2026-05-04 19:12 | -9.42957 | 24.40041 | 37734 ft | 482 kts | 346° |
| 2026-05-04 19:12 | -9.36450 | 24.38386 | 37926 ft | 482 kts | 345° |
| 2026-05-04 19:13 | -9.29977 | 24.36740 | 37972 ft | 484 kts | 346° |
| 2026-05-04 19:13 | -9.23424 | 24.35074 | 37975 ft | 488 kts | 346° |
| 2026-05-04 19:14 | -9.16835 | 24.33393 | 37972 ft | 488 kts | 345° |
| 2026-05-04 19:14 | -9.10274 | 24.31626 | 37973 ft | 488 kts | 345° |
| 2026-05-04 19:15 | -9.03765 | 24.29848 | 37977 ft | 488 kts | 345° |
| 2026-05-04 19:15 | -8.97209 | 24.28071 | 37974 ft | 488 kts | 345° |
| 2026-05-04 19:16 | -8.90651 | 24.26304 | 37976 ft | 488 kts | 345° |
| 2026-05-04 19:16 | -8.84080 | 24.24537 | 37971 ft | 489 kts | 345° |
| 2026-05-04 19:17 | -8.77556 | 24.22783 | 37977 ft | 489 kts | 345° |
| 2026-05-04 19:17 | -8.70989 | 24.21019 | 37975 ft | 489 kts | 345° |
| 2026-05-04 19:18 | -8.64413 | 24.19252 | 37975 ft | 489 kts | 345° |
| 2026-05-04 19:18 | -8.57844 | 24.17487 | 37976 ft | 489 kts | 345° |
| 2026-05-04 19:19 | -8.51269 | 24.15722 | 37973 ft | 489 kts | 345° |
| 2026-05-04 19:19 | -8.44742 | 24.13970 | 37977 ft | 489 kts | 345° |
| 2026-05-04 19:20 | -8.38176 | 24.12208 | 37968 ft | 489 kts | 345° |
| 2026-05-04 19:20 | -8.31597 | 24.10444 | 37971 ft | 489 kts | 345° |
| 2026-05-04 19:21 | -8.25027 | 24.08682 | 37969 ft | 489 kts | 345° |
| 2026-05-04 19:21 | -8.18501 | 24.06932 | 37971 ft | 489 kts | 345° |
| 2026-05-04 19:22 | -8.11939 | 24.05175 | 37967 ft | 487 kts | 345° |
| 2026-05-04 19:22 | -8.05386 | 24.03419 | 37969 ft | 487 kts | 345° |
| 2026-05-04 19:23 | -7.98814 | 24.01745 | 37964 ft | 487 kts | 347° |
| 2026-05-04 19:23 | -7.92196 | 24.00261 | 37971 ft | 487 kts | 347° |
| 2026-05-04 19:24 | -7.85619 | 23.98797 | 37965 ft | 487 kts | 347° |
| 2026-05-04 19:24 | -7.79006 | 23.97295 | 37964 ft | 487 kts | 347° |
| 2026-05-04 19:25 | -7.72400 | 23.95778 | 37965 ft | 487 kts | 347° |
| 2026-05-04 19:25 | -7.65785 | 23.94256 | 37964 ft | 487 kts | 347° |
| 2026-05-04 19:26 | -7.59219 | 23.92746 | 37955 ft | 487 kts | 347° |
| 2026-05-04 19:26 | -7.52607 | 23.91228 | 37954 ft | 487 kts | 347° |
| 2026-05-04 19:27 | -7.46001 | 23.89712 | 37955 ft | 487 kts | 347° |
| 2026-05-04 19:27 | -7.39385 | 23.88194 | 37955 ft | 487 kts | 347° |
| 2026-05-04 19:28 | -7.32774 | 23.86677 | 37952 ft | 487 kts | 347° |
| 2026-05-04 19:28 | -7.26208 | 23.85172 | 37948 ft | 487 kts | 347° |
| 2026-05-04 19:29 | -7.19613 | 23.83595 | 37942 ft | 487 kts | 346° |
| 2026-05-04 19:29 | -7.13039 | 23.81916 | 37946 ft | 487 kts | 346° |
| 2026-05-04 19:30 | -7.06467 | 23.80240 | 37950 ft | 487 kts | 346° |
| 2026-05-04 19:30 | -6.99889 | 23.78581 | 37950 ft | 487 kts | 346° |
| 2026-05-04 19:31 | -6.93353 | 23.76943 | 37944 ft | 487 kts | 346° |
| 2026-05-04 19:31 | -6.86775 | 23.75296 | 37944 ft | 487 kts | 346° |
| 2026-05-04 19:32 | -6.80195 | 23.73648 | 37943 ft | 487 kts | 346° |
| 2026-05-04 19:32 | -6.73623 | 23.72002 | 37947 ft | 487 kts | 346° |
| 2026-05-04 19:33 | -6.67096 | 23.70368 | 37942 ft | 487 kts | 346° |
| 2026-05-04 19:33 | -6.60522 | 23.68722 | 37939 ft | 487 kts | 346° |
| 2026-05-04 19:34 | -6.53948 | 23.67077 | 37941 ft | 487 kts | 346° |
| 2026-05-04 19:34 | -6.47378 | 23.65433 | 37942 ft | 487 kts | 346° |
| 2026-05-04 19:35 | -6.40846 | 23.63800 | 37937 ft | 487 kts | 346° |
| 2026-05-04 19:35 | -6.34277 | 23.62157 | 37936 ft | 487 kts | 346° |
| 2026-05-04 19:36 | -6.27707 | 23.60515 | 37935 ft | 487 kts | 346° |
| 2026-05-04 19:36 | -6.21140 | 23.58874 | 37936 ft | 486 kts | 346° |
| 2026-05-04 19:37 | -6.14588 | 23.57237 | 37930 ft | 485 kts | 346° |
| 2026-05-04 19:37 | -6.08012 | 23.55691 | 37933 ft | 485 kts | 349° |
| 2026-05-04 19:38 | -6.01399 | 23.54581 | 37941 ft | 485 kts | 351° |
| 2026-05-04 19:38 | -5.94733 | 23.53534 | 37938 ft | 485 kts | 351° |
| 2026-05-04 19:39 | -5.88075 | 23.52426 | 37940 ft | 484 kts | 350° |
| 2026-05-04 19:39 | -5.81439 | 23.51282 | 37942 ft | 484 kts | 350° |
| 2026-05-04 19:40 | -5.74809 | 23.50130 | 37937 ft | 484 kts | 350° |
| 2026-05-04 19:40 | -5.68224 | 23.48987 | 37943 ft | 484 kts | 350° |
| 2026-05-04 19:41 | -5.61587 | 23.47837 | 37941 ft | 484 kts | 350° |
| 2026-05-04 19:41 | -5.54953 | 23.46689 | 37942 ft | 484 kts | 350° |
| 2026-05-04 19:42 | -5.48310 | 23.45552 | 37940 ft | 485 kts | 351° |
| 2026-05-04 19:42 | -5.41705 | 23.44425 | 37939 ft | 485 kts | 351° |
| 2026-05-04 19:43 | -5.35053 | 23.43289 | 37943 ft | 485 kts | 351° |
| 2026-05-04 19:43 | -5.28405 | 23.42154 | 37937 ft | 485 kts | 350° |
| 2026-05-04 19:44 | -5.21748 | 23.41017 | 37938 ft | 486 kts | 351° |
| 2026-05-04 19:44 | -5.15109 | 23.39883 | 37940 ft | 488 kts | 351° |
| 2026-05-04 19:45 | -5.08415 | 23.38744 | 37936 ft | 488 kts | 351° |
| 2026-05-04 19:45 | -5.01719 | 23.37601 | 37937 ft | 488 kts | 351° |
| 2026-05-04 19:46 | -4.95027 | 23.36457 | 37934 ft | 488 kts | 351° |
| 2026-05-04 19:46 | -4.88331 | 23.35313 | 37934 ft | 488 kts | 351° |
| 2026-05-04 19:47 | -4.81687 | 23.34180 | 37933 ft | 487 kts | 351° |
| 2026-05-04 19:47 | -4.75001 | 23.33040 | 37934 ft | 487 kts | 351° |
| 2026-05-04 19:48 | -4.68316 | 23.31900 | 37932 ft | 487 kts | 351° |
| 2026-05-04 19:48 | -4.61627 | 23.30760 | 37933 ft | 487 kts | 351° |
| 2026-05-04 19:49 | -4.54989 | 23.29628 | 37933 ft | 487 kts | 351° |
| 2026-05-04 19:49 | -4.48311 | 23.28490 | 37933 ft | 486 kts | 351° |
| 2026-05-04 19:50 | -4.41645 | 23.27355 | 37934 ft | 486 kts | 351° |
| 2026-05-04 19:50 | -4.34976 | 23.26219 | 37933 ft | 486 kts | 351° |
| 2026-05-04 19:51 | -4.28311 | 23.25084 | 37932 ft | 486 kts | 351° |
| 2026-05-04 19:51 | -4.21685 | 23.23956 | 37933 ft | 486 kts | 351° |
| 2026-05-04 19:52 | -4.15012 | 23.22820 | 37935 ft | 488 kts | 350° |
| 2026-05-04 19:52 | -4.08312 | 23.21679 | 37934 ft | 489 kts | 350° |
| 2026-05-04 19:53 | -4.01607 | 23.20528 | 37935 ft | 489 kts | 350° |
| 2026-05-04 19:53 | -3.94931 | 23.19242 | 37936 ft | 489 kts | 349° |
| 2026-05-04 19:54 | -3.88305 | 23.17923 | 37936 ft | 489 kts | 349° |
| 2026-05-04 19:54 | -3.81630 | 23.16614 | 37936 ft | 489 kts | 349° |
| 2026-05-04 19:55 | -3.74955 | 23.15320 | 37937 ft | 489 kts | 349° |
| 2026-05-04 19:55 | -3.68279 | 23.14031 | 37936 ft | 489 kts | 349° |
| 2026-05-04 19:56 | -3.61647 | 23.12751 | 37935 ft | 489 kts | 349° |
| 2026-05-04 19:56 | -3.54967 | 23.11461 | 37936 ft | 489 kts | 349° |
| 2026-05-04 19:57 | -3.48281 | 23.10169 | 37937 ft | 489 kts | 349° |
| 2026-05-04 19:57 | -3.41594 | 23.08878 | 37938 ft | 490 kts | 349° |
| 2026-05-04 19:58 | -3.34947 | 23.07595 | 37936 ft | 490 kts | 349° |
| 2026-05-04 19:58 | -3.28247 | 23.06305 | 37936 ft | 490 kts | 349° |
| 2026-05-04 19:59 | -3.21552 | 23.05012 | 37936 ft | 490 kts | 349° |
| 2026-05-04 19:59 | -3.14859 | 23.03718 | 37935 ft | 490 kts | 349° |
| 2026-05-04 20:00 | -3.08204 | 23.02433 | 37937 ft | 491 kts | 349° |
| 2026-05-04 20:00 | -3.01492 | 23.01138 | 37939 ft | 491 kts | 349° |
| 2026-05-04 20:01 | -2.94789 | 22.99845 | 37938 ft | 491 kts | 349° |
| 2026-05-04 20:01 | -2.88083 | 22.98551 | 37935 ft | 491 kts | 349° |
| 2026-05-04 20:02 | -2.81373 | 22.97256 | 37935 ft | 491 kts | 349° |
| 2026-05-04 20:02 | -2.74699 | 22.95969 | 37934 ft | 493 kts | 349° |
| 2026-05-04 20:03 | -2.67961 | 22.94670 | 37933 ft | 494 kts | 349° |
| 2026-05-04 20:03 | -2.61215 | 22.93369 | 37933 ft | 493 kts | 349° |
| 2026-05-04 20:04 | -2.54474 | 22.92069 | 37933 ft | 493 kts | 349° |
| 2026-05-04 20:04 | -2.47775 | 22.90777 | 37928 ft | 493 kts | 349° |
| 2026-05-04 20:05 | -2.41030 | 22.89477 | 37928 ft | 495 kts | 349° |
| 2026-05-04 20:05 | -2.34261 | 22.88173 | 37925 ft | 495 kts | 349° |
| 2026-05-04 20:06 | -2.27492 | 22.86868 | 37925 ft | 495 kts | 349° |
| 2026-05-04 20:06 | -2.20725 | 22.85564 | 37922 ft | 495 kts | 349° |
| 2026-05-04 20:07 | -2.14002 | 22.84269 | 37923 ft | 495 kts | 349° |
| 2026-05-04 20:07 | -2.07237 | 22.82965 | 37916 ft | 495 kts | 350° |
| 2026-05-04 20:08 | -2.00479 | 22.81663 | 37915 ft | 494 kts | 350° |
| 2026-05-04 20:08 | -1.93725 | 22.80362 | 37914 ft | 494 kts | 350° |
| 2026-05-04 20:09 | -1.87022 | 22.79071 | 37913 ft | 494 kts | 350° |
| 2026-05-04 20:09 | -1.80265 | 22.77770 | 37910 ft | 495 kts | 349° |
| 2026-05-04 20:10 | -1.73492 | 22.76465 | 37913 ft | 497 kts | 350° |
| 2026-05-04 20:10 | -1.66706 | 22.75159 | 37915 ft | 497 kts | 350° |
| 2026-05-04 20:11 | -1.59920 | 22.73852 | 37915 ft | 497 kts | 350° |
| 2026-05-04 20:11 | -1.53182 | 22.72555 | 37914 ft | 497 kts | 350° |
| 2026-05-04 20:12 | -1.46392 | 22.71247 | 37909 ft | 497 kts | 350° |
| 2026-05-04 20:12 | -1.39609 | 22.69942 | 37909 ft | 496 kts | 349° |
| 2026-05-04 20:13 | -1.33976 | 22.68857 | 37905 ft | 496 kts | 349° |
| 2026-05-04 20:13 | -1.26106 | 22.67342 | 37909 ft | 495 kts | 349° |
| 2026-05-04 20:14 | -1.19337 | 22.66038 | 37911 ft | 495 kts | 349° |
| 2026-05-04 20:14 | -1.13708 | 22.64955 | 37911 ft | 495 kts | 349° |
| 2026-05-04 20:15 | -1.06936 | 22.63651 | 37911 ft | 495 kts | 349° |
| 2026-05-04 20:15 | -0.99074 | 22.62139 | 37911 ft | 494 kts | 349° |
| 2026-05-04 20:16 | -0.93417 | 22.61050 | 37914 ft | 494 kts | 349° |
| 2026-05-04 20:16 | -0.86712 | 22.59759 | 37911 ft | 494 kts | 349° |
| 2026-05-04 20:17 | -0.79963 | 22.58461 | 37911 ft | 494 kts | 349° |
| 2026-05-04 20:17 | -0.73213 | 22.57162 | 37911 ft | 494 kts | 349° |
| 2026-05-04 20:18 | -0.66462 | 22.55862 | 37914 ft | 495 kts | 349° |
| 2026-05-04 20:18 | -0.59740 | 22.54568 | 37911 ft | 495 kts | 349° |
| 2026-05-04 20:19 | -0.52971 | 22.53266 | 37911 ft | 496 kts | 349° |
| 2026-05-04 20:19 | -0.46196 | 22.51962 | 37914 ft | 495 kts | 349° |
| 2026-05-04 20:20 | -0.39427 | 22.50659 | 37913 ft | 495 kts | 349° |
| 2026-05-04 20:20 | -0.32703 | 22.49366 | 37911 ft | 495 kts | 349° |
| 2026-05-04 20:21 | -0.25929 | 22.48062 | 37911 ft | 495 kts | 349° |
| 2026-05-04 20:21 | -0.15777 | 22.46109 | 37914 ft | 495 kts | 349° |
| 2026-05-04 20:22 | -0.09004 | 22.44805 | 37914 ft | 496 kts | 349° |
| 2026-05-04 20:22 | -0.02275 | 22.43510 | 37914 ft | 496 kts | 349° |
| 2026-05-04 20:23 | 0.04491 | 22.42210 | 37911 ft | 494 kts | 349° |
| 2026-05-04 20:23 | 0.11237 | 22.40912 | 37911 ft | 494 kts | 349° |
| 2026-05-04 20:24 | 0.17986 | 22.39606 | 37911 ft | 494 kts | 349° |
| 2026-05-04 20:24 | 0.24686 | 22.38312 | 37911 ft | 494 kts | 349° |
| 2026-05-04 20:25 | 0.31431 | 22.37010 | 37914 ft | 494 kts | 349° |
| 2026-05-04 20:25 | 0.38178 | 22.35717 | 37914 ft | 494 kts | 349° |
| 2026-05-04 20:26 | 0.44928 | 22.34422 | 37911 ft | 494 kts | 349° |
| 2026-05-04 20:26 | 0.51643 | 22.33134 | 37911 ft | 494 kts | 349° |
| 2026-05-04 20:27 | 0.58400 | 22.31837 | 37911 ft | 494 kts | 349° |
| 2026-05-04 20:27 | 0.65160 | 22.30541 | 37911 ft | 494 kts | 349° |
| 2026-05-04 20:28 | 0.71913 | 22.29246 | 37916 ft | 494 kts | 349° |
| 2026-05-04 20:28 | 0.78628 | 22.27950 | 37914 ft | 495 kts | 349° |
| 2026-05-04 20:29 | 0.85382 | 22.26647 | 37911 ft | 495 kts | 349° |
| 2026-05-04 20:29 | 0.92142 | 22.25345 | 37911 ft | 495 kts | 349° |
| 2026-05-04 20:30 | 0.98897 | 22.24044 | 37911 ft | 495 kts | 349° |
| 2026-05-04 20:30 | 1.05613 | 22.22751 | 37911 ft | 495 kts | 349° |
| 2026-05-04 20:31 | 1.12372 | 22.21449 | 37912 ft | 495 kts | 349° |
| 2026-05-04 20:31 | 1.19136 | 22.20147 | 37908 ft | 495 kts | 349° |
| 2026-05-04 20:32 | 1.25900 | 22.18845 | 37911 ft | 495 kts | 349° |
| 2026-05-04 20:32 | 1.32661 | 22.17546 | 37908 ft | 495 kts | 349° |
| 2026-05-04 20:33 | 1.39380 | 22.16252 | 37911 ft | 495 kts | 349° |
| 2026-05-04 20:33 | 1.46145 | 22.14947 | 37911 ft | 495 kts | 349° |
| 2026-05-04 20:34 | 1.52915 | 22.13643 | 37908 ft | 496 kts | 349° |
| 2026-05-04 20:34 | 1.59695 | 22.12338 | 37908 ft | 496 kts | 349° |
| 2026-05-04 20:35 | 1.66427 | 22.11041 | 37906 ft | 497 kts | 349° |
| 2026-05-04 20:35 | 1.73212 | 22.09735 | 37906 ft | 497 kts | 349° |
| 2026-05-04 20:36 | 1.79998 | 22.08428 | 37904 ft | 496 kts | 349° |
| 2026-05-04 20:36 | 1.86776 | 22.07122 | 37901 ft | 496 kts | 349° |
| 2026-05-04 20:37 | 1.93549 | 22.05818 | 37903 ft | 496 kts | 349° |
| 2026-05-04 20:37 | 2.00277 | 22.04522 | 37901 ft | 496 kts | 349° |
| 2026-05-04 20:38 | 2.07052 | 22.03216 | 37897 ft | 496 kts | 349° |
| 2026-05-04 20:38 | 2.13822 | 22.01913 | 37901 ft | 495 kts | 350° |
| 2026-05-04 20:39 | 2.20575 | 22.00625 | 37896 ft | 493 kts | 350° |
| 2026-05-04 20:39 | 2.27262 | 21.99338 | 37901 ft | 493 kts | 349° |
| 2026-05-04 20:40 | 2.34001 | 21.98034 | 37901 ft | 493 kts | 349° |
| 2026-05-04 20:40 | 2.40729 | 21.96734 | 37901 ft | 493 kts | 349° |
| 2026-05-04 20:41 | 2.47464 | 21.95435 | 37903 ft | 493 kts | 349° |
| 2026-05-04 20:41 | 2.54151 | 21.94146 | 37903 ft | 493 kts | 349° |
| 2026-05-04 20:42 | 2.60884 | 21.92847 | 37903 ft | 493 kts | 349° |
| 2026-05-04 20:42 | 2.67620 | 21.91548 | 37903 ft | 493 kts | 349° |
| 2026-05-04 20:43 | 2.74351 | 21.90250 | 37906 ft | 493 kts | 349° |
| 2026-05-04 20:43 | 2.81042 | 21.88959 | 37906 ft | 493 kts | 349° |
| 2026-05-04 20:44 | 2.87768 | 21.87661 | 37905 ft | 491 kts | 349° |
| 2026-05-04 20:44 | 2.94480 | 21.86365 | 37906 ft | 491 kts | 349° |
| 2026-05-04 20:45 | 3.01181 | 21.85072 | 37908 ft | 491 kts | 349° |
| 2026-05-04 20:45 | 3.07837 | 21.83787 | 37909 ft | 491 kts | 349° |
| 2026-05-04 20:46 | 3.14543 | 21.82493 | 37908 ft | 491 kts | 349° |
| 2026-05-04 20:46 | 3.21245 | 21.81199 | 37908 ft | 490 kts | 349° |
| 2026-05-04 20:47 | 3.27947 | 21.79905 | 37909 ft | 490 kts | 349° |
| 2026-05-04 20:47 | 3.34605 | 21.78619 | 37905 ft | 491 kts | 349° |
| 2026-05-04 20:48 | 3.41313 | 21.77323 | 37908 ft | 491 kts | 349° |
| 2026-05-04 20:48 | 3.48023 | 21.76027 | 37909 ft | 491 kts | 349° |
| 2026-05-04 20:49 | 3.54732 | 21.74730 | 37901 ft | 491 kts | 349° |
| 2026-05-04 20:49 | 3.61388 | 21.73412 | 37906 ft | 491 kts | 348° |
| 2026-05-04 20:50 | 3.68025 | 21.71768 | 37906 ft | 491 kts | 346° |
| 2026-05-04 20:50 | 3.74643 | 21.70037 | 37906 ft | 491 kts | 346° |
| 2026-05-04 20:51 | 3.81263 | 21.68350 | 37908 ft | 491 kts | 346° |
| 2026-05-04 20:51 | 3.87856 | 21.66704 | 37906 ft | 491 kts | 347° |
| 2026-05-04 20:52 | 3.94486 | 21.65060 | 37905 ft | 490 kts | 347° |
| 2026-05-04 20:52 | 4.01099 | 21.63419 | 37906 ft | 489 kts | 347° |
| 2026-05-04 20:53 | 4.07709 | 21.61777 | 37906 ft | 489 kts | 347° |
| 2026-05-04 20:53 | 4.14314 | 21.60134 | 37908 ft | 489 kts | 347° |
| 2026-05-04 20:54 | 4.20883 | 21.58501 | 37906 ft | 489 kts | 347° |
| 2026-05-04 20:54 | 4.27492 | 21.56858 | 37909 ft | 489 kts | 347° |
| 2026-05-04 20:55 | 4.34104 | 21.55215 | 37910 ft | 488 kts | 347° |
| 2026-05-04 20:55 | 4.40705 | 21.53570 | 37916 ft | 489 kts | 347° |
| 2026-05-04 20:56 | 4.47299 | 21.51928 | 37918 ft | 488 kts | 347° |
| 2026-05-04 20:56 | 4.53897 | 21.50285 | 37920 ft | 489 kts | 347° |
| 2026-05-04 20:57 | 4.60498 | 21.48642 | 37925 ft | 489 kts | 347° |
| 2026-05-04 20:57 | 4.67081 | 21.47004 | 37926 ft | 492 kts | 347° |
| 2026-05-04 20:58 | 4.73753 | 21.45342 | 37928 ft | 495 kts | 347° |
| 2026-05-04 20:58 | 4.80449 | 21.43674 | 37927 ft | 495 kts | 347° |
| 2026-05-04 20:59 | 4.87133 | 21.42008 | 37927 ft | 495 kts | 347° |
| 2026-05-04 20:59 | 4.93814 | 21.40343 | 37925 ft | 495 kts | 347° |
| 2026-05-04 21:00 | 5.00495 | 21.38678 | 37927 ft | 495 kts | 347° |
| 2026-05-04 21:00 | 5.07136 | 21.37022 | 37928 ft | 495 kts | 346° |
| 2026-05-04 21:01 | 5.13820 | 21.35357 | 37925 ft | 495 kts | 346° |
| 2026-05-04 21:01 | 5.20509 | 21.33688 | 37925 ft | 495 kts | 346° |
| 2026-05-04 21:02 | 5.27191 | 21.32021 | 37927 ft | 495 kts | 347° |
| 2026-05-04 21:02 | 5.33875 | 21.30352 | 37923 ft | 495 kts | 347° |
| 2026-05-04 21:03 | 5.40573 | 21.28681 | 37925 ft | 496 kts | 347° |
| 2026-05-04 21:03 | 5.47239 | 21.27017 | 37922 ft | 496 kts | 347° |
| 2026-05-04 21:04 | 5.53943 | 21.25343 | 37922 ft | 496 kts | 347° |
| 2026-05-04 21:04 | 5.60653 | 21.23667 | 37922 ft | 496 kts | 347° |
| 2026-05-04 21:05 | 5.67361 | 21.21992 | 37922 ft | 496 kts | 347° |
| 2026-05-04 21:05 | 5.74064 | 21.20316 | 37922 ft | 496 kts | 347° |
| 2026-05-04 21:06 | 5.80757 | 21.18643 | 37919 ft | 496 kts | 347° |
| 2026-05-04 21:06 | 5.87454 | 21.16969 | 37916 ft | 496 kts | 347° |
| 2026-05-04 21:07 | 5.94155 | 21.15294 | 37917 ft | 496 kts | 347° |
| 2026-05-04 21:07 | 6.00812 | 21.13629 | 37914 ft | 496 kts | 347° |
| 2026-05-04 21:08 | 6.07518 | 21.11951 | 37917 ft | 497 kts | 346° |
| 2026-05-04 21:08 | 6.14224 | 21.10273 | 37911 ft | 497 kts | 346° |
| 2026-05-04 21:09 | 6.20949 | 21.08589 | 37911 ft | 497 kts | 346° |
| 2026-05-04 21:09 | 6.27662 | 21.06909 | 37911 ft | 497 kts | 346° |
| 2026-05-04 21:10 | 6.34376 | 21.05227 | 37911 ft | 497 kts | 346° |
| 2026-05-04 21:10 | 6.41093 | 21.03545 | 37911 ft | 497 kts | 346° |
| 2026-05-04 21:11 | 6.47776 | 21.01870 | 37912 ft | 498 kts | 346° |
| 2026-05-04 21:11 | 6.54507 | 21.00183 | 37908 ft | 498 kts | 346° |
| 2026-05-04 21:12 | 6.61244 | 20.98540 | 37905 ft | 499 kts | 347° |
| 2026-05-04 21:12 | 6.68006 | 20.96950 | 37905 ft | 498 kts | 347° |
| 2026-05-04 21:13 | 6.74768 | 20.95360 | 37902 ft | 498 kts | 347° |
| 2026-05-04 21:13 | 6.81485 | 20.93769 | 37903 ft | 499 kts | 347° |
| 2026-05-04 21:14 | 6.88241 | 20.92164 | 37900 ft | 498 kts | 347° |
| 2026-05-04 21:14 | 6.94998 | 20.90558 | 37900 ft | 498 kts | 347° |
| 2026-05-04 21:15 | 7.01755 | 20.88951 | 37903 ft | 499 kts | 347° |
| 2026-05-04 21:15 | 7.08507 | 20.87346 | 37903 ft | 498 kts | 347° |
| 2026-05-04 21:16 | 7.15262 | 20.85739 | 37898 ft | 499 kts | 346° |
| 2026-05-04 21:16 | 7.22027 | 20.84130 | 37898 ft | 500 kts | 346° |
| 2026-05-04 21:17 | 7.28801 | 20.82526 | 37894 ft | 500 kts | 346° |
| 2026-05-04 21:17 | 7.35530 | 20.80929 | 37895 ft | 499 kts | 346° |
| 2026-05-04 21:18 | 7.42300 | 20.79322 | 37895 ft | 500 kts | 347° |
| 2026-05-04 21:18 | 7.49076 | 20.77715 | 37894 ft | 500 kts | 347° |
| 2026-05-04 21:19 | 7.55854 | 20.76106 | 37895 ft | 500 kts | 347° |
| 2026-05-04 21:19 | 7.62618 | 20.74500 | 37896 ft | 500 kts | 347° |
| 2026-05-04 21:20 | 7.69396 | 20.72890 | 37887 ft | 500 kts | 347° |
| 2026-05-04 21:20 | 7.76118 | 20.71293 | 37887 ft | 500 kts | 347° |
| 2026-05-04 21:21 | 7.82887 | 20.69684 | 37883 ft | 500 kts | 347° |
| 2026-05-04 21:21 | 7.89655 | 20.68075 | 37884 ft | 500 kts | 347° |
| 2026-05-04 21:22 | 7.96424 | 20.66465 | 37881 ft | 499 kts | 347° |
| 2026-05-04 21:22 | 8.03190 | 20.64858 | 37881 ft | 499 kts | 347° |
| 2026-05-04 21:23 | 8.09958 | 20.63244 | 37878 ft | 499 kts | 346° |
| 2026-05-04 21:23 | 8.16725 | 20.61626 | 37875 ft | 499 kts | 346° |
| 2026-05-04 21:24 | 8.23444 | 20.60021 | 37870 ft | 498 kts | 346° |
| 2026-05-04 21:24 | 8.30189 | 20.58410 | 37870 ft | 497 kts | 346° |
| 2026-05-04 21:25 | 8.36928 | 20.56800 | 37870 ft | 497 kts | 346° |
| 2026-05-04 21:25 | 8.43672 | 20.55189 | 37864 ft | 497 kts | 346° |
| 2026-05-04 21:26 | 8.50402 | 20.53580 | 37865 ft | 497 kts | 346° |
| 2026-05-04 21:26 | 8.57100 | 20.51979 | 37862 ft | 497 kts | 346° |
| 2026-05-04 21:27 | 8.63840 | 20.50367 | 37862 ft | 497 kts | 346° |
| 2026-05-04 21:27 | 8.70578 | 20.48754 | 37853 ft | 497 kts | 346° |
| 2026-05-04 21:28 | 8.77324 | 20.47139 | 37853 ft | 497 kts | 346° |
| 2026-05-04 21:28 | 8.84067 | 20.45524 | 37843 ft | 498 kts | 346° |
| 2026-05-04 21:29 | 8.90816 | 20.43908 | 37843 ft | 498 kts | 346° |
| 2026-05-04 21:29 | 8.97568 | 20.42290 | 37837 ft | 499 kts | 346° |
| 2026-05-04 21:30 | 9.04327 | 20.40669 | 37837 ft | 499 kts | 346° |
| 2026-05-04 21:30 | 9.11051 | 20.39057 | 37832 ft | 499 kts | 346° |
| 2026-05-04 21:31 | 9.21185 | 20.36625 | 37831 ft | 499 kts | 346° |
| 2026-05-04 21:32 | 9.27948 | 20.35002 | 37826 ft | 499 kts | 345° |
| 2026-05-04 21:32 | 9.34703 | 20.33380 | 37826 ft | 499 kts | 345° |
| 2026-05-04 21:33 | 9.40324 | 20.32029 | 37824 ft | 499 kts | 345° |
| 2026-05-04 21:33 | 9.47084 | 20.30404 | 37823 ft | 499 kts | 345° |
| 2026-05-04 21:34 | 9.53835 | 20.28783 | 37823 ft | 499 kts | 346° |
| 2026-05-04 21:34 | 9.60594 | 20.27159 | 37823 ft | 499 kts | 345° |
| 2026-05-04 21:35 | 9.67356 | 20.25529 | 37821 ft | 499 kts | 345° |
| 2026-05-04 21:35 | 9.74119 | 20.23900 | 37821 ft | 499 kts | 345° |
| 2026-05-04 21:36 | 9.80881 | 20.22271 | 37824 ft | 499 kts | 345° |
| 2026-05-04 21:36 | 9.87640 | 20.20642 | 37820 ft | 499 kts | 345° |
| 2026-05-04 21:37 | 9.94398 | 20.19013 | 37821 ft | 499 kts | 345° |
| 2026-05-04 21:37 | 10.01111 | 20.17394 | 37820 ft | 499 kts | 345° |
| 2026-05-04 21:38 | 10.07857 | 20.15767 | 37815 ft | 498 kts | 345° |
| 2026-05-04 21:38 | 10.14606 | 20.14137 | 37815 ft | 498 kts | 345° |
| 2026-05-04 21:39 | 10.21348 | 20.12509 | 37815 ft | 497 kts | 345° |
| 2026-05-04 21:39 | 10.28076 | 20.10884 | 37815 ft | 496 kts | 345° |
| 2026-05-04 21:40 | 10.34793 | 20.09261 | 37816 ft | 496 kts | 345° |
| 2026-05-04 21:40 | 10.41507 | 20.07637 | 37815 ft | 496 kts | 345° |
| 2026-05-04 21:41 | 10.48232 | 20.06011 | 37815 ft | 496 kts | 345° |
| 2026-05-04 21:41 | 10.54942 | 20.04387 | 37815 ft | 496 kts | 345° |
| 2026-05-04 21:42 | 10.61623 | 20.02769 | 37815 ft | 496 kts | 345° |
| 2026-05-04 21:42 | 10.68335 | 20.01143 | 37815 ft | 496 kts | 345° |
| 2026-05-04 21:43 | 10.75050 | 19.99516 | 37818 ft | 496 kts | 345° |
| 2026-05-04 21:43 | 10.81758 | 19.97890 | 37816 ft | 496 kts | 345° |
| 2026-05-04 21:44 | 10.88474 | 19.96261 | 37815 ft | 496 kts | 345° |
| 2026-05-04 21:44 | 10.95183 | 19.94633 | 37815 ft | 496 kts | 345° |
| 2026-05-04 21:45 | 11.01892 | 19.93004 | 37823 ft | 495 kts | 345° |
| 2026-05-04 21:45 | 11.08588 | 19.91377 | 37813 ft | 494 kts | 345° |
| 2026-05-04 21:46 | 11.15278 | 19.89752 | 37815 ft | 494 kts | 345° |
| 2026-05-04 21:46 | 11.21969 | 19.88125 | 37816 ft | 494 kts | 345° |
| 2026-05-04 21:47 | 11.28654 | 19.86499 | 37814 ft | 494 kts | 345° |
| 2026-05-04 21:47 | 11.35347 | 19.84870 | 37815 ft | 494 kts | 345° |
| 2026-05-04 21:48 | 11.41983 | 19.83254 | 37814 ft | 493 kts | 345° |
| 2026-05-04 21:48 | 11.48662 | 19.81627 | 37814 ft | 493 kts | 345° |
| 2026-05-04 21:49 | 11.55337 | 19.80000 | 37817 ft | 493 kts | 345° |
| 2026-05-04 21:49 | 11.62014 | 19.78372 | 37818 ft | 493 kts | 345° |
| 2026-05-04 21:50 | 11.68708 | 19.76833 | 37816 ft | 494 kts | 347° |
| 2026-05-04 21:50 | 11.75470 | 19.75534 | 37816 ft | 493 kts | 348° |
| 2026-05-04 21:51 | 11.82217 | 19.74258 | 37814 ft | 492 kts | 347° |
| 2026-05-04 21:51 | 11.88948 | 19.72944 | 37815 ft | 492 kts | 347° |
| 2026-05-04 21:52 | 11.95635 | 19.71618 | 37815 ft | 492 kts | 347° |
| 2026-05-04 21:52 | 12.02360 | 19.70279 | 37815 ft | 492 kts | 347° |
| 2026-05-04 21:53 | 12.09088 | 19.68941 | 37821 ft | 491 kts | 347° |
| 2026-05-04 21:53 | 12.15797 | 19.67606 | 37815 ft | 491 kts | 347° |
| 2026-05-04 21:54 | 12.22493 | 19.66273 | 37813 ft | 490 kts | 347° |
| 2026-05-04 21:54 | 12.29194 | 19.64938 | 37815 ft | 490 kts | 347° |
| 2026-05-04 21:55 | 12.35894 | 19.63603 | 37809 ft | 490 kts | 346° |
| 2026-05-04 21:55 | 12.42595 | 19.62268 | 37812 ft | 490 kts | 346° |
| 2026-05-04 21:56 | 12.49294 | 19.60933 | 37810 ft | 490 kts | 346° |
| 2026-05-04 21:56 | 12.55986 | 19.59597 | 37809 ft | 490 kts | 346° |
| 2026-05-04 21:57 | 12.62645 | 19.58267 | 37805 ft | 490 kts | 346° |
| 2026-05-04 21:57 | 12.69348 | 19.56928 | 37807 ft | 490 kts | 346° |
| 2026-05-04 21:58 | 12.76050 | 19.55589 | 37812 ft | 490 kts | 346° |
| 2026-05-04 21:58 | 12.82756 | 19.54248 | 37807 ft | 492 kts | 346° |
| 2026-05-04 21:59 | 12.89479 | 19.52903 | 37807 ft | 492 kts | 346° |
| 2026-05-04 21:59 | 12.96197 | 19.51558 | 37802 ft | 492 kts | 346° |
| 2026-05-04 22:00 | 13.02909 | 19.50215 | 37804 ft | 492 kts | 346° |
| 2026-05-04 22:00 | 13.09630 | 19.48868 | 37811 ft | 492 kts | 345° |
| 2026-05-04 22:01 | 13.16354 | 19.47519 | 37812 ft | 492 kts | 345° |
| 2026-05-04 22:01 | 13.23070 | 19.46171 | 37810 ft | 492 kts | 345° |
| 2026-05-04 22:02 | 13.29755 | 19.44829 | 37808 ft | 493 kts | 345° |
| 2026-05-04 22:02 | 13.36489 | 19.43476 | 37807 ft | 493 kts | 345° |
| 2026-05-04 22:03 | 13.43220 | 19.42123 | 37808 ft | 493 kts | 345° |
| 2026-05-04 22:03 | 13.49952 | 19.40770 | 37807 ft | 493 kts | 345° |
| 2026-05-04 22:04 | 13.56688 | 19.39414 | 37809 ft | 493 kts | 345° |
| 2026-05-04 22:04 | 13.63436 | 19.38056 | 37808 ft | 493 kts | 345° |
| 2026-05-04 22:05 | 13.70175 | 19.36698 | 37812 ft | 493 kts | 345° |
| 2026-05-04 22:05 | 13.76915 | 19.35340 | 37812 ft | 493 kts | 345° |
| 2026-05-04 22:06 | 13.83664 | 19.33979 | 37808 ft | 493 kts | 345° |
| 2026-05-04 22:06 | 13.90402 | 19.32619 | 37810 ft | 493 kts | 345° |
| 2026-05-04 22:07 | 13.97139 | 19.31262 | 37803 ft | 493 kts | 345° |
| 2026-05-04 22:07 | 14.03875 | 19.29901 | 37808 ft | 493 kts | 345° |
| 2026-05-04 22:08 | 14.10571 | 19.28547 | 37811 ft | 493 kts | 345° |
| 2026-05-04 22:08 | 14.17302 | 19.27186 | 37811 ft | 493 kts | 345° |
| 2026-05-04 22:09 | 14.24030 | 19.25826 | 37812 ft | 492 kts | 345° |
| 2026-05-04 22:09 | 14.30754 | 19.24464 | 37809 ft | 492 kts | 345° |
| 2026-05-04 22:10 | 14.37477 | 19.23103 | 37805 ft | 492 kts | 345° |
| 2026-05-04 22:10 | 14.44201 | 19.21740 | 37812 ft | 492 kts | 345° |
| 2026-05-04 22:11 | 14.50922 | 19.20378 | 37819 ft | 491 kts | 345° |
| 2026-05-04 22:11 | 14.57624 | 19.19018 | 37808 ft | 490 kts | 345° |
| 2026-05-04 22:12 | 14.64322 | 19.17658 | 37809 ft | 490 kts | 345° |
| 2026-05-04 22:12 | 14.71019 | 19.16297 | 37820 ft | 490 kts | 345° |
| 2026-05-04 22:13 | 14.77717 | 19.14935 | 37823 ft | 490 kts | 345° |
| 2026-05-04 22:13 | 14.84408 | 19.13575 | 37817 ft | 490 kts | 344° |
| 2026-05-04 22:14 | 14.91046 | 19.12225 | 37820 ft | 489 kts | 344° |
| 2026-05-04 22:14 | 14.97720 | 19.10864 | 37821 ft | 488 kts | 344° |
| 2026-05-04 22:15 | 15.04387 | 19.09503 | 37826 ft | 488 kts | 344° |
| 2026-05-04 22:15 | 15.11054 | 19.08142 | 37825 ft | 488 kts | 344° |
| 2026-05-04 22:16 | 15.17717 | 19.06781 | 37832 ft | 488 kts | 344° |
| 2026-05-04 22:16 | 15.24375 | 19.05421 | 37831 ft | 487 kts | 344° |
| 2026-05-04 22:17 | 15.31023 | 19.04061 | 37828 ft | 487 kts | 344° |
| 2026-05-04 22:17 | 15.37677 | 19.02699 | 37834 ft | 487 kts | 344° |
| 2026-05-04 22:18 | 15.44294 | 19.01344 | 37830 ft | 487 kts | 344° |
| 2026-05-04 22:18 | 15.50943 | 18.99982 | 37850 ft | 487 kts | 343° |
| 2026-05-04 22:19 | 15.57585 | 18.98621 | 37834 ft | 486 kts | 343° |
| 2026-05-04 22:19 | 15.64219 | 18.97260 | 37837 ft | 486 kts | 343° |
| 2026-05-04 22:20 | 15.69774 | 18.96119 | 37838 ft | 486 kts | 343° |
| 2026-05-04 22:20 | 15.76358 | 18.94767 | 37837 ft | 486 kts | 343° |
| 2026-05-04 22:21 | 15.82990 | 18.93403 | 37837 ft | 486 kts | 343° |
| 2026-05-04 22:21 | 15.89620 | 18.92041 | 37838 ft | 485 kts | 343° |
| 2026-05-04 22:22 | 15.96250 | 18.90676 | 37841 ft | 485 kts | 343° |
| 2026-05-04 22:22 | 16.02868 | 18.89313 | 37840 ft | 485 kts | 343° |
| 2026-05-04 22:23 | 16.09492 | 18.87947 | 37841 ft | 485 kts | 343° |
| 2026-05-04 22:23 | 16.16106 | 18.86583 | 37843 ft | 485 kts | 343° |
| 2026-05-04 22:24 | 16.22721 | 18.85219 | 37852 ft | 482 kts | 342° |
| 2026-05-04 22:24 | 16.29237 | 18.83876 | 37848 ft | 480 kts | 342° |
| 2026-05-04 22:25 | 16.35783 | 18.82522 | 37849 ft | 480 kts | 342° |
| 2026-05-04 22:25 | 16.42327 | 18.81167 | 37851 ft | 480 kts | 342° |
| 2026-05-04 22:26 | 16.48880 | 18.79810 | 37853 ft | 480 kts | 342° |
| 2026-05-04 22:26 | 16.55425 | 18.78455 | 37852 ft | 478 kts | 342° |
| 2026-05-04 22:27 | 16.61944 | 18.77105 | 37847 ft | 477 kts | 342° |
| 2026-05-04 22:27 | 16.68450 | 18.75756 | 37846 ft | 477 kts | 342° |
| 2026-05-04 22:28 | 16.74957 | 18.74405 | 37866 ft | 476 kts | 342° |
| 2026-05-04 22:28 | 16.81465 | 18.73053 | 37850 ft | 476 kts | 342° |
| 2026-05-04 22:29 | 16.87971 | 18.71701 | 37862 ft | 477 kts | 342° |
| 2026-05-04 22:29 | 16.94445 | 18.70354 | 37856 ft | 478 kts | 342° |
| 2026-05-04 22:30 | 17.00973 | 18.68996 | 37860 ft | 478 kts | 342° |
| 2026-05-04 22:30 | 17.07507 | 18.67636 | 37860 ft | 478 kts | 342° |
| 2026-05-04 22:31 | 17.14038 | 18.66276 | 37865 ft | 478 kts | 342° |
| 2026-05-04 22:31 | 17.20570 | 18.64914 | 37864 ft | 478 kts | 342° |
| 2026-05-04 22:32 | 17.27099 | 18.63551 | 37872 ft | 478 kts | 342° |
| 2026-05-04 22:32 | 17.33621 | 18.62189 | 37872 ft | 478 kts | 342° |
| 2026-05-04 22:33 | 17.40117 | 18.60831 | 37873 ft | 478 kts | 342° |
| 2026-05-04 22:33 | 17.46646 | 18.59466 | 37872 ft | 478 kts | 342° |
| 2026-05-04 22:34 | 17.53174 | 18.58100 | 37887 ft | 478 kts | 342° |
| 2026-05-04 22:34 | 17.59721 | 18.56727 | 37884 ft | 482 kts | 342° |
| 2026-05-04 22:35 | 17.66317 | 18.55344 | 37881 ft | 483 kts | 342° |
| 2026-05-04 22:35 | 17.72908 | 18.53963 | 37890 ft | 483 kts | 342° |
| 2026-05-04 22:36 | 17.79503 | 18.52579 | 37886 ft | 483 kts | 342° |
| 2026-05-04 22:36 | 17.86095 | 18.51195 | 37892 ft | 483 kts | 342° |
| 2026-05-04 22:37 | 17.92686 | 18.49809 | 37895 ft | 483 kts | 342° |
| 2026-05-04 22:37 | 17.99234 | 18.48431 | 37902 ft | 483 kts | 342° |
| 2026-05-04 22:38 | 18.05834 | 18.47042 | 37899 ft | 483 kts | 342° |
| 2026-05-04 22:38 | 18.12429 | 18.45652 | 37906 ft | 483 kts | 342° |
| 2026-05-04 22:39 | 18.19021 | 18.44262 | 37908 ft | 483 kts | 342° |
| 2026-05-04 22:39 | 18.25610 | 18.42872 | 37916 ft | 482 kts | 341° |
| 2026-05-04 22:40 | 18.32178 | 18.41485 | 37914 ft | 482 kts | 341° |
| 2026-05-04 22:40 | 18.38757 | 18.40093 | 37925 ft | 482 kts | 341° |
| 2026-05-04 22:41 | 18.45297 | 18.38709 | 37922 ft | 482 kts | 341° |
| 2026-05-04 22:41 | 18.51868 | 18.37318 | 37927 ft | 482 kts | 341° |
| 2026-05-04 22:42 | 18.58444 | 18.35926 | 37929 ft | 481 kts | 341° |
| 2026-05-04 22:42 | 18.65001 | 18.34536 | 37928 ft | 481 kts | 341° |
| 2026-05-04 22:43 | 18.71572 | 18.33140 | 37924 ft | 481 kts | 341° |
| 2026-05-04 22:43 | 18.78086 | 18.31757 | 37927 ft | 480 kts | 341° |
| 2026-05-04 22:44 | 18.84641 | 18.30364 | 37930 ft | 480 kts | 341° |
| 2026-05-04 22:44 | 18.91204 | 18.28969 | 37930 ft | 480 kts | 341° |
| 2026-05-04 22:45 | 18.97756 | 18.27574 | 37938 ft | 480 kts | 341° |
| 2026-05-04 22:45 | 19.07599 | 18.25476 | 37933 ft | 481 kts | 341° |
| 2026-05-04 22:46 | 19.14161 | 18.24076 | 37945 ft | 481 kts | 341° |
| 2026-05-04 22:46 | 19.20722 | 18.22676 | 37963 ft | 481 kts | 341° |
| 2026-05-04 22:47 | 19.27237 | 18.21284 | 37947 ft | 481 kts | 341° |
| 2026-05-04 22:47 | 19.33801 | 18.19880 | 37948 ft | 481 kts | 341° |
| 2026-05-04 22:48 | 19.40368 | 18.18475 | 37962 ft | 481 kts | 341° |
| 2026-05-04 22:48 | 19.46931 | 18.17069 | 37964 ft | 481 kts | 341° |
| 2026-05-04 22:49 | 19.53487 | 18.15664 | 37993 ft | 481 kts | 341° |
| 2026-05-04 22:49 | 19.60030 | 18.14263 | 37964 ft | 478 kts | 340° |
| 2026-05-04 22:50 | 19.66539 | 18.12866 | 37986 ft | 477 kts | 340° |
| 2026-05-04 22:50 | 19.72975 | 18.11482 | 37986 ft | 476 kts | 340° |
| 2026-05-04 22:51 | 19.79541 | 18.10069 | 37985 ft | 476 kts | 340° |
| 2026-05-04 22:51 | 19.86000 | 18.08679 | 37994 ft | 476 kts | 340° |
| 2026-05-04 22:52 | 19.92488 | 18.07280 | 37996 ft | 475 kts | 341° |
| 2026-05-04 22:52 | 19.98962 | 18.05885 | 38005 ft | 474 kts | 341° |
| 2026-05-04 22:53 | 20.05437 | 18.04487 | 38003 ft | 474 kts | 341° |
| 2026-05-04 22:53 | 20.11907 | 18.03090 | 38019 ft | 474 kts | 341° |
| 2026-05-04 22:54 | 20.18137 | 18.01091 | 37996 ft | 462 kts | 330° |
| 2026-05-04 22:54 | 20.24037 | 17.98337 | 38007 ft | 463 kts | 329° |
| 2026-05-04 22:55 | 20.29880 | 17.95459 | 38005 ft | 463 kts | 328° |
| 2026-05-04 22:55 | 20.35689 | 17.92583 | 38022 ft | 464 kts | 328° |
| 2026-05-04 22:56 | 20.41546 | 17.89700 | 38025 ft | 464 kts | 328° |
| 2026-05-04 22:56 | 20.47404 | 17.86823 | 38052 ft | 463 kts | 328° |
| 2026-05-04 22:57 | 20.53260 | 17.83946 | 38048 ft | 463 kts | 328° |
| 2026-05-04 22:57 | 20.59121 | 17.81064 | 38048 ft | 463 kts | 328° |
| 2026-05-04 22:58 | 20.64980 | 17.78180 | 38068 ft | 463 kts | 328° |
| 2026-05-04 22:58 | 20.70831 | 17.75295 | 38068 ft | 464 kts | 328° |
| 2026-05-04 22:59 | 20.76696 | 17.72401 | 38080 ft | 466 kts | 329° |
| 2026-05-04 22:59 | 20.82597 | 17.69486 | 38082 ft | 468 kts | 329° |
| 2026-05-04 23:00 | 20.88502 | 17.66572 | 38103 ft | 467 kts | 329° |
| 2026-05-04 23:00 | 20.94360 | 17.63680 | 38096 ft | 466 kts | 329° |
| 2026-05-04 23:01 | 21.00256 | 17.60766 | 38086 ft | 466 kts | 329° |
| 2026-05-04 23:01 | 21.06150 | 17.57846 | 38106 ft | 466 kts | 329° |
| 2026-05-04 23:02 | 21.12042 | 17.54922 | 38102 ft | 466 kts | 329° |
| 2026-05-04 23:02 | 21.17932 | 17.51998 | 38091 ft | 466 kts | 329° |
| 2026-05-04 23:03 | 21.23815 | 17.49077 | 38095 ft | 464 kts | 329° |
| 2026-05-04 23:03 | 21.29674 | 17.46166 | 38083 ft | 463 kts | 329° |
| 2026-05-04 23:04 | 21.35522 | 17.43256 | 38092 ft | 463 kts | 329° |
| 2026-05-04 23:04 | 21.41362 | 17.40345 | 38075 ft | 463 kts | 329° |
| 2026-05-04 23:05 | 21.47198 | 17.37437 | 38089 ft | 460 kts | 328° |
| 2026-05-04 23:05 | 21.52958 | 17.34566 | 38063 ft | 459 kts | 329° |
| 2026-05-04 23:06 | 21.58728 | 17.31691 | 38062 ft | 455 kts | 329° |
| 2026-05-04 23:06 | 21.64463 | 17.28826 | 38060 ft | 453 kts | 329° |
| 2026-05-04 23:07 | 21.69217 | 17.26445 | 38060 ft | 454 kts | 329° |
| 2026-05-04 23:07 | 21.74945 | 17.23575 | 38057 ft | 454 kts | 329° |
| 2026-05-04 23:08 | 21.80673 | 17.20705 | 38058 ft | 454 kts | 329° |
| 2026-05-04 23:08 | 21.86405 | 17.17833 | 38083 ft | 454 kts | 329° |
| 2026-05-04 23:09 | 21.92109 | 17.14972 | 38043 ft | 451 kts | 329° |
| 2026-05-04 23:09 | 21.97793 | 17.12118 | 38042 ft | 450 kts | 329° |
| 2026-05-04 23:10 | 22.03462 | 17.09258 | 38043 ft | 449 kts | 328° |
| 2026-05-04 23:10 | 22.09075 | 17.06390 | 38044 ft | 449 kts | 328° |
| 2026-05-04 23:11 | 22.14720 | 17.03499 | 38037 ft | 449 kts | 328° |
| 2026-05-04 23:11 | 22.20368 | 17.00609 | 38070 ft | 448 kts | 328° |
| 2026-05-04 23:12 | 22.25984 | 16.97736 | 38039 ft | 446 kts | 328° |
| 2026-05-04 23:12 | 22.31591 | 16.94865 | 38039 ft | 445 kts | 328° |
| 2026-05-04 23:13 | 22.37188 | 16.91995 | 38040 ft | 445 kts | 328° |
| 2026-05-04 23:13 | 22.42794 | 16.89119 | 38039 ft | 445 kts | 328° |
| 2026-05-04 23:14 | 22.48351 | 16.86266 | 38039 ft | 445 kts | 328° |
| 2026-05-04 23:14 | 22.53953 | 16.83388 | 38050 ft | 445 kts | 328° |
| 2026-05-04 23:15 | 22.59549 | 16.80509 | 38039 ft | 445 kts | 328° |
| 2026-05-04 23:15 | 22.65144 | 16.77629 | 38040 ft | 445 kts | 328° |
| 2026-05-04 23:16 | 22.70742 | 16.74745 | 38041 ft | 445 kts | 328° |
| 2026-05-04 23:16 | 22.76341 | 16.71858 | 38045 ft | 445 kts | 328° |
| 2026-05-04 23:17 | 22.81897 | 16.68990 | 38044 ft | 445 kts | 328° |
| 2026-05-04 23:17 | 22.87503 | 16.66093 | 38044 ft | 446 kts | 328° |
| 2026-05-04 23:18 | 22.93105 | 16.63196 | 38042 ft | 446 kts | 328° |
| 2026-05-04 23:18 | 22.98714 | 16.60294 | 38043 ft | 446 kts | 328° |
| 2026-05-04 23:19 | 23.04320 | 16.57390 | 38045 ft | 446 kts | 328° |
| 2026-05-04 23:19 | 23.09932 | 16.54480 | 38045 ft | 446 kts | 328° |
| 2026-05-04 23:20 | 23.15501 | 16.51590 | 38049 ft | 446 kts | 328° |
| 2026-05-04 23:20 | 23.21106 | 16.48678 | 38050 ft | 447 kts | 328° |
| 2026-05-04 23:21 | 23.26719 | 16.45759 | 38050 ft | 447 kts | 328° |
| 2026-05-04 23:21 | 23.32326 | 16.42840 | 38051 ft | 447 kts | 328° |
| 2026-05-04 23:22 | 23.37945 | 16.39912 | 38050 ft | 447 kts | 328° |
| 2026-05-04 23:22 | 23.43555 | 16.36987 | 38056 ft | 447 kts | 328° |
| 2026-05-04 23:23 | 23.49165 | 16.34059 | 38052 ft | 447 kts | 328° |
| 2026-05-04 23:23 | 23.54780 | 16.31125 | 38053 ft | 448 kts | 328° |
| 2026-05-04 23:24 | 23.60403 | 16.28184 | 38069 ft | 448 kts | 328° |
| 2026-05-04 23:24 | 23.65993 | 16.25257 | 38070 ft | 448 kts | 328° |
| 2026-05-04 23:25 | 23.71613 | 16.22313 | 38053 ft | 448 kts | 328° |
| 2026-05-04 23:25 | 23.77231 | 16.19366 | 38054 ft | 448 kts | 328° |
| 2026-05-04 23:26 | 23.82851 | 16.16416 | 38075 ft | 448 kts | 328° |
| 2026-05-04 23:26 | 23.88469 | 16.13463 | 38058 ft | 448 kts | 328° |
| 2026-05-04 23:27 | 23.94090 | 16.10507 | 38072 ft | 448 kts | 328° |
| 2026-05-04 23:27 | 23.99701 | 16.07553 | 38079 ft | 448 kts | 328° |
| 2026-05-04 23:28 | 24.05319 | 16.04592 | 38053 ft | 448 kts | 328° |
| 2026-05-04 23:28 | 24.10897 | 16.01649 | 38048 ft | 448 kts | 328° |
| 2026-05-04 23:29 | 24.16519 | 15.98681 | 38071 ft | 448 kts | 328° |
| 2026-05-04 23:29 | 24.22140 | 15.95709 | 38059 ft | 448 kts | 328° |
| 2026-05-04 23:30 | 24.27758 | 15.92737 | 38066 ft | 448 kts | 328° |
| 2026-05-04 23:30 | 24.33377 | 15.89761 | 38057 ft | 448 kts | 328° |
| 2026-05-04 23:31 | 24.38998 | 15.86781 | 38057 ft | 448 kts | 328° |
| 2026-05-04 23:31 | 24.44611 | 15.83803 | 38057 ft | 448 kts | 328° |
| 2026-05-04 23:32 | 24.50223 | 15.80821 | 38077 ft | 448 kts | 328° |
| 2026-05-04 23:32 | 24.55833 | 15.77839 | 38055 ft | 448 kts | 328° |
| 2026-05-04 23:33 | 24.61435 | 15.74857 | 38056 ft | 448 kts | 328° |
| 2026-05-04 23:33 | 24.67002 | 15.71891 | 38055 ft | 447 kts | 328° |
| 2026-05-04 23:34 | 24.72612 | 15.68899 | 38062 ft | 447 kts | 328° |
| 2026-05-04 23:34 | 24.78208 | 15.65912 | 38061 ft | 447 kts | 328° |
| 2026-05-04 23:35 | 24.83810 | 15.62919 | 38063 ft | 447 kts | 328° |
| 2026-05-04 23:35 | 24.89410 | 15.59937 | 38058 ft | 447 kts | 328° |
| 2026-05-04 23:36 | 24.95008 | 15.56963 | 38059 ft | 447 kts | 328° |
| 2026-05-04 23:36 | 25.00612 | 15.53981 | 38061 ft | 447 kts | 328° |
| 2026-05-04 23:37 | 25.06173 | 15.51018 | 38060 ft | 447 kts | 328° |
| 2026-05-04 23:37 | 25.11770 | 15.48031 | 38054 ft | 447 kts | 328° |
| 2026-05-04 23:38 | 25.17368 | 15.45041 | 38048 ft | 446 kts | 328° |
| 2026-05-04 23:38 | 25.22950 | 15.42056 | 38064 ft | 446 kts | 328° |
| 2026-05-04 23:39 | 25.28538 | 15.39065 | 38052 ft | 446 kts | 328° |
| 2026-05-04 23:39 | 25.34121 | 15.36074 | 38052 ft | 446 kts | 328° |
| 2026-05-04 23:40 | 25.39704 | 15.33079 | 38045 ft | 446 kts | 328° |
| 2026-05-04 23:40 | 25.45250 | 15.30101 | 38073 ft | 446 kts | 328° |
| 2026-05-04 23:41 | 25.50829 | 15.27103 | 38048 ft | 446 kts | 328° |
| 2026-05-04 23:41 | 25.56406 | 15.24103 | 38047 ft | 446 kts | 328° |
| 2026-05-04 23:42 | 25.61984 | 15.21098 | 38045 ft | 446 kts | 328° |
| 2026-05-04 23:42 | 25.67520 | 15.18113 | 38043 ft | 446 kts | 328° |
| 2026-05-04 23:43 | 25.73094 | 15.15105 | 38048 ft | 445 kts | 328° |
| 2026-05-04 23:43 | 25.78668 | 15.12094 | 38056 ft | 445 kts | 328° |
| 2026-05-04 23:44 | 25.84242 | 15.09079 | 38045 ft | 446 kts | 328° |
| 2026-05-04 23:44 | 25.89818 | 15.06060 | 38044 ft | 446 kts | 328° |
| 2026-05-04 23:45 | 25.95353 | 15.03061 | 38046 ft | 446 kts | 328° |
| 2026-05-04 23:45 | 26.00930 | 15.00035 | 38047 ft | 446 kts | 328° |
| 2026-05-04 23:46 | 26.06501 | 14.97009 | 38052 ft | 446 kts | 328° |
| 2026-05-04 23:46 | 26.12079 | 14.93976 | 38048 ft | 446 kts | 328° |
| 2026-05-04 23:47 | 26.17622 | 14.90958 | 38042 ft | 447 kts | 328° |
| 2026-05-04 23:47 | 26.23202 | 14.87919 | 38048 ft | 446 kts | 328° |
| 2026-05-04 23:48 | 26.28781 | 14.84876 | 38045 ft | 446 kts | 328° |
| 2026-05-04 23:48 | 26.34357 | 14.81831 | 38051 ft | 446 kts | 328° |
| 2026-05-04 23:49 | 26.39937 | 14.78781 | 38075 ft | 446 kts | 328° |
| 2026-05-04 23:49 | 26.45480 | 14.75747 | 38048 ft | 447 kts | 328° |
| 2026-05-04 23:50 | 26.51065 | 14.72687 | 38050 ft | 447 kts | 328° |
| 2026-05-04 23:50 | 26.56652 | 14.69624 | 38050 ft | 447 kts | 328° |
| 2026-05-04 23:51 | 26.62239 | 14.66557 | 38053 ft | 447 kts | 328° |
| 2026-05-04 23:51 | 26.67783 | 14.63510 | 38050 ft | 447 kts | 328° |
| 2026-05-04 23:52 | 26.73367 | 14.60437 | 38063 ft | 448 kts | 328° |
| 2026-05-04 23:52 | 26.78966 | 14.57352 | 38050 ft | 449 kts | 328° |
| 2026-05-04 23:53 | 26.84570 | 14.54263 | 38052 ft | 449 kts | 328° |
| 2026-05-04 23:53 | 26.90171 | 14.51171 | 38050 ft | 449 kts | 328° |
| 2026-05-04 23:54 | 26.95325 | 14.47463 | 38049 ft | 439 kts | 315° |
| 2026-05-04 23:54 | 26.99329 | 14.42402 | 38050 ft | 432 kts | 300° |
| 2026-05-04 23:55 | 27.01805 | 14.36319 | 38047 ft | 429 kts | 286° |
| 2026-05-04 23:56 | 27.04111 | 14.26613 | 38042 ft | 430 kts | 284° |
| 2026-05-04 23:56 | 27.05548 | 14.20148 | 38035 ft | 430 kts | 284° |
| 2026-05-04 23:57 | 27.07018 | 14.13650 | 38039 ft | 430 kts | 284° |
| 2026-05-04 23:57 | 27.08503 | 14.07152 | 38040 ft | 430 kts | 284° |
| 2026-05-04 23:58 | 27.09991 | 14.00651 | 38043 ft | 430 kts | 284° |
| 2026-05-04 23:58 | 27.11465 | 13.94194 | 38041 ft | 430 kts | 284° |
| 2026-05-04 23:59 | 27.12944 | 13.87693 | 38036 ft | 430 kts | 284° |
| 2026-05-04 23:59 | 27.14420 | 13.81193 | 38030 ft | 429 kts | 284° |
| 2026-05-05 00:00 | 27.15890 | 13.74701 | 38035 ft | 429 kts | 284° |
| 2026-05-05 00:00 | 27.17357 | 13.68209 | 38035 ft | 429 kts | 284° |
| 2026-05-05 00:01 | 27.18810 | 13.61762 | 38028 ft | 429 kts | 284° |
| 2026-05-05 00:01 | 27.20270 | 13.55271 | 38030 ft | 429 kts | 284° |
| 2026-05-05 00:02 | 27.21728 | 13.48774 | 38027 ft | 429 kts | 284° |
| 2026-05-05 00:02 | 27.23182 | 13.42279 | 38028 ft | 428 kts | 284° |
| 2026-05-05 00:03 | 27.24623 | 13.35827 | 38023 ft | 428 kts | 284° |
| 2026-05-05 00:03 | 27.26071 | 13.29331 | 38025 ft | 428 kts | 284° |
| 2026-05-05 00:04 | 27.27514 | 13.22836 | 38026 ft | 428 kts | 284° |
| 2026-05-05 00:04 | 27.28957 | 13.16336 | 38014 ft | 428 kts | 284° |
| 2026-05-05 00:05 | 27.30384 | 13.09883 | 38018 ft | 428 kts | 284° |
| 2026-05-05 00:05 | 27.31818 | 13.03387 | 38020 ft | 428 kts | 284° |
| 2026-05-05 00:06 | 27.33247 | 12.96900 | 38019 ft | 428 kts | 284° |
| 2026-05-05 00:06 | 27.34674 | 12.90407 | 38013 ft | 428 kts | 284° |
| 2026-05-05 00:07 | 27.36097 | 12.83915 | 38008 ft | 428 kts | 284° |
| 2026-05-05 00:07 | 27.37512 | 12.77459 | 38010 ft | 428 kts | 284° |
| 2026-05-05 00:08 | 27.39014 | 12.70990 | 38006 ft | 427 kts | 285° |
| 2026-05-05 00:08 | 27.40544 | 12.64541 | 38008 ft | 426 kts | 285° |
| 2026-05-05 00:09 | 27.42061 | 12.58094 | 38008 ft | 426 kts | 285° |
| 2026-05-05 00:09 | 27.43555 | 12.51687 | 38007 ft | 426 kts | 285° |
| 2026-05-05 00:10 | 27.45054 | 12.45229 | 38002 ft | 426 kts | 285° |
| 2026-05-05 00:10 | 27.46550 | 12.38772 | 38000 ft | 426 kts | 285° |
| 2026-05-05 00:11 | 27.48041 | 12.32324 | 37996 ft | 425 kts | 285° |
| 2026-05-05 00:11 | 27.49528 | 12.25878 | 37995 ft | 425 kts | 285° |
| 2026-05-05 00:12 | 27.51004 | 12.19469 | 37996 ft | 426 kts | 285° |
| 2026-05-05 00:12 | 27.52485 | 12.13017 | 37993 ft | 425 kts | 285° |
| 2026-05-05 00:13 | 27.53963 | 12.06566 | 38001 ft | 425 kts | 284° |
| 2026-05-05 00:13 | 27.55439 | 12.00111 | 37989 ft | 425 kts | 284° |
| 2026-05-05 00:14 | 27.56900 | 11.93703 | 37988 ft | 425 kts | 284° |
| 2026-05-05 00:14 | 27.58369 | 11.87248 | 37988 ft | 425 kts | 284° |
| 2026-05-05 00:15 | 27.59835 | 11.80794 | 37982 ft | 425 kts | 284° |
| 2026-05-05 00:15 | 27.61297 | 11.74336 | 37979 ft | 425 kts | 284° |
| 2026-05-05 00:16 | 27.62747 | 11.67922 | 37982 ft | 425 kts | 284° |
| 2026-05-05 00:16 | 27.64204 | 11.61462 | 37983 ft | 425 kts | 284° |
| 2026-05-05 00:17 | 27.65657 | 11.54999 | 37980 ft | 425 kts | 284° |
| 2026-05-05 00:17 | 27.67107 | 11.48539 | 37976 ft | 425 kts | 284° |
| 2026-05-05 00:18 | 27.68554 | 11.42078 | 37969 ft | 425 kts | 284° |
| 2026-05-05 00:18 | 27.69987 | 11.35661 | 37972 ft | 425 kts | 284° |
| 2026-05-05 00:19 | 27.71429 | 11.29193 | 37963 ft | 425 kts | 284° |
| 2026-05-05 00:19 | 27.72868 | 11.22721 | 37967 ft | 425 kts | 284° |
| 2026-05-05 00:20 | 27.74304 | 11.16250 | 37973 ft | 425 kts | 284° |
| 2026-05-05 00:20 | 27.75725 | 11.09826 | 37969 ft | 425 kts | 284° |
| 2026-05-05 00:21 | 27.77154 | 11.03353 | 37978 ft | 425 kts | 284° |
| 2026-05-05 00:21 | 27.78581 | 10.96872 | 37964 ft | 425 kts | 284° |
| 2026-05-05 00:22 | 27.80004 | 10.90400 | 37973 ft | 425 kts | 284° |
| 2026-05-05 00:22 | 27.81424 | 10.83922 | 37960 ft | 425 kts | 284° |
| 2026-05-05 00:23 | 27.82832 | 10.77479 | 37959 ft | 425 kts | 284° |
| 2026-05-05 00:23 | 27.84247 | 10.70994 | 37958 ft | 425 kts | 284° |
| 2026-05-05 00:24 | 27.85657 | 10.64515 | 37960 ft | 425 kts | 284° |
| 2026-05-05 00:24 | 27.87066 | 10.58027 | 37957 ft | 425 kts | 284° |
| 2026-05-05 00:25 | 27.88462 | 10.51581 | 37951 ft | 425 kts | 284° |
| 2026-05-05 00:25 | 27.89863 | 10.45100 | 37950 ft | 425 kts | 284° |
| 2026-05-05 00:26 | 27.91261 | 10.38612 | 37945 ft | 424 kts | 284° |
| 2026-05-05 00:26 | 27.92655 | 10.32129 | 37949 ft | 424 kts | 284° |
| 2026-05-05 00:27 | 27.94046 | 10.25644 | 37943 ft | 424 kts | 284° |
| 2026-05-05 00:27 | 27.95424 | 10.19201 | 37945 ft | 424 kts | 283° |
| 2026-05-05 00:28 | 27.96807 | 10.12722 | 37943 ft | 423 kts | 283° |
| 2026-05-05 00:28 | 27.98186 | 10.06246 | 37945 ft | 423 kts | 283° |
| 2026-05-05 00:29 | 27.99330 | 10.00861 | 37950 ft | 423 kts | 283° |
| 2026-05-05 00:29 | 28.00926 | 9.93331 | 37982 ft | 423 kts | 283° |
| 2026-05-05 00:30 | 28.02062 | 9.87956 | 37973 ft | 423 kts | 284° |
| 2026-05-05 00:30 | 28.03426 | 9.81490 | 37983 ft | 422 kts | 283° |
| 2026-05-05 00:31 | 28.04930 | 9.75083 | 37988 ft | 421 kts | 289° |
| 2026-05-05 00:31 | 28.07590 | 9.69174 | 37992 ft | 424 kts | 302° |
| 2026-05-05 00:32 | 28.11627 | 9.64318 | 37995 ft | 432 kts | 317° |
| 2026-05-05 00:32 | 28.16864 | 9.60834 | 37932 ft | 442 kts | 328° |
| 2026-05-05 00:33 | 28.22481 | 9.57953 | 37936 ft | 444 kts | 330° |
| 2026-05-05 00:33 | 28.28132 | 9.55148 | 37940 ft | 444 kts | 330° |
| 2026-05-05 00:34 | 28.33773 | 9.52312 | 37964 ft | 443 kts | 330° |
| 2026-05-05 00:34 | 28.39366 | 9.49468 | 37941 ft | 443 kts | 329° |
| 2026-05-05 00:35 | 28.44989 | 9.46594 | 37940 ft | 443 kts | 329° |
| 2026-05-05 00:35 | 28.50608 | 9.43719 | 37954 ft | 443 kts | 329° |
| 2026-05-05 00:36 | 28.56232 | 9.40840 | 37954 ft | 443 kts | 329° |
| 2026-05-05 00:36 | 28.61820 | 9.37977 | 37930 ft | 443 kts | 329° |
| 2026-05-05 00:37 | 28.67438 | 9.35095 | 37947 ft | 443 kts | 329° |
| 2026-05-05 00:37 | 28.73050 | 9.32213 | 37944 ft | 442 kts | 329° |
| 2026-05-05 00:38 | 28.78663 | 9.29326 | 37944 ft | 442 kts | 329° |
| 2026-05-05 00:38 | 28.84271 | 9.26439 | 37947 ft | 442 kts | 329° |
| 2026-05-05 00:39 | 28.89844 | 9.23567 | 37936 ft | 442 kts | 329° |
| 2026-05-05 00:39 | 28.95453 | 9.20672 | 37945 ft | 442 kts | 329° |
| 2026-05-05 00:40 | 29.01056 | 9.17777 | 37941 ft | 442 kts | 329° |
| 2026-05-05 00:40 | 29.06659 | 9.14879 | 37942 ft | 442 kts | 329° |
| 2026-05-05 00:41 | 29.12224 | 9.11997 | 37938 ft | 442 kts | 329° |
| 2026-05-05 00:41 | 29.17824 | 9.09093 | 37943 ft | 442 kts | 329° |
| 2026-05-05 00:42 | 29.23419 | 9.06189 | 37954 ft | 441 kts | 329° |
| 2026-05-05 00:42 | 29.29000 | 9.03289 | 37930 ft | 441 kts | 329° |
| 2026-05-05 00:43 | 29.34543 | 9.00403 | 37939 ft | 441 kts | 329° |
| 2026-05-05 00:43 | 29.40121 | 8.97497 | 37935 ft | 441 kts | 329° |
| 2026-05-05 00:44 | 29.45702 | 8.94585 | 37931 ft | 441 kts | 329° |
| 2026-05-05 00:44 | 29.51282 | 8.91671 | 37928 ft | 441 kts | 329° |
| 2026-05-05 00:45 | 29.56819 | 8.88776 | 37924 ft | 440 kts | 329° |
| 2026-05-05 00:45 | 29.62384 | 8.85863 | 37922 ft | 439 kts | 329° |
| 2026-05-05 00:46 | 29.67943 | 8.82948 | 37946 ft | 439 kts | 329° |
| 2026-05-05 00:46 | 29.73507 | 8.80027 | 37925 ft | 439 kts | 329° |
| 2026-05-05 00:47 | 29.79063 | 8.77108 | 37929 ft | 439 kts | 329° |
| 2026-05-05 00:47 | 29.84583 | 8.74204 | 37941 ft | 439 kts | 329° |
| 2026-05-05 00:48 | 29.90131 | 8.71281 | 37922 ft | 438 kts | 329° |
| 2026-05-05 00:48 | 29.95688 | 8.68348 | 37933 ft | 440 kts | 329° |
| 2026-05-05 00:49 | 30.01253 | 8.65409 | 37937 ft | 440 kts | 329° |
| 2026-05-05 00:49 | 30.06821 | 8.62467 | 37931 ft | 441 kts | 329° |
| 2026-05-05 00:50 | 30.12355 | 8.59538 | 37945 ft | 441 kts | 328° |
| 2026-05-05 00:50 | 30.17931 | 8.56582 | 37932 ft | 441 kts | 329° |
| 2026-05-05 00:51 | 30.23506 | 8.53624 | 37935 ft | 441 kts | 329° |
| 2026-05-05 00:51 | 30.29079 | 8.50662 | 37934 ft | 441 kts | 329° |
| 2026-05-05 00:52 | 30.34618 | 8.47716 | 37934 ft | 441 kts | 329° |
| 2026-05-05 00:52 | 30.40189 | 8.44748 | 37935 ft | 441 kts | 329° |
| 2026-05-05 00:53 | 30.45772 | 8.41774 | 37931 ft | 441 kts | 329° |
| 2026-05-05 00:53 | 30.51354 | 8.38821 | 37929 ft | 441 kts | 329° |
| 2026-05-05 00:54 | 30.56956 | 8.35898 | 37934 ft | 442 kts | 329° |
| 2026-05-05 00:54 | 30.62519 | 8.32994 | 37921 ft | 442 kts | 329° |
| 2026-05-05 00:55 | 30.68140 | 8.30049 | 37929 ft | 443 kts | 329° |
| 2026-05-05 00:55 | 30.73761 | 8.27099 | 37935 ft | 444 kts | 329° |
| 2026-05-05 00:56 | 30.79388 | 8.24138 | 37933 ft | 444 kts | 329° |
| 2026-05-05 00:56 | 30.84977 | 8.21195 | 37940 ft | 444 kts | 329° |
| 2026-05-05 00:57 | 30.90609 | 8.18227 | 37935 ft | 444 kts | 329° |
| 2026-05-05 00:57 | 30.96236 | 8.15257 | 37936 ft | 444 kts | 329° |
| 2026-05-05 00:58 | 31.01862 | 8.12284 | 37940 ft | 444 kts | 329° |
| 2026-05-05 00:58 | 31.07483 | 8.09311 | 37938 ft | 443 kts | 329° |
| 2026-05-05 00:59 | 31.13063 | 8.06354 | 37939 ft | 443 kts | 329° |
| 2026-05-05 00:59 | 31.18678 | 8.03375 | 37944 ft | 443 kts | 329° |
| 2026-05-05 01:00 | 31.24297 | 8.00391 | 37943 ft | 443 kts | 329° |
| 2026-05-05 01:00 | 31.29907 | 7.97407 | 37950 ft | 443 kts | 329° |
| 2026-05-05 01:01 | 31.35485 | 7.94436 | 37950 ft | 444 kts | 329° |
| 2026-05-05 01:01 | 31.41102 | 7.91440 | 37949 ft | 444 kts | 329° |
| 2026-05-05 01:02 | 31.46719 | 7.88440 | 37945 ft | 444 kts | 328° |
| 2026-05-05 01:02 | 31.52334 | 7.85438 | 37953 ft | 444 kts | 328° |
| 2026-05-05 01:03 | 31.57913 | 7.82451 | 37958 ft | 444 kts | 329° |
| 2026-05-05 01:03 | 31.63531 | 7.79439 | 37952 ft | 444 kts | 328° |
| 2026-05-05 01:04 | 31.69153 | 7.76421 | 37953 ft | 444 kts | 328° |
| 2026-05-05 01:04 | 31.77827 | 7.72424 | 37954 ft | 455 kts | 339° |
| 2026-05-05 01:05 | 31.83977 | 7.70817 | 37950 ft | 457 kts | 341° |
| 2026-05-05 01:05 | 31.90229 | 7.69350 | 37959 ft | 459 kts | 341° |
| 2026-05-05 01:06 | 31.96485 | 7.67898 | 37963 ft | 458 kts | 341° |
| 2026-05-05 01:06 | 32.02742 | 7.66427 | 37963 ft | 458 kts | 341° |
| 2026-05-05 01:07 | 32.08956 | 7.64951 | 37962 ft | 458 kts | 341° |
| 2026-05-05 01:07 | 32.15203 | 7.63462 | 37962 ft | 458 kts | 341° |
| 2026-05-05 01:08 | 32.21460 | 7.61968 | 37960 ft | 459 kts | 341° |
| 2026-05-05 01:08 | 32.27716 | 7.60475 | 37960 ft | 459 kts | 341° |
| 2026-05-05 01:09 | 32.33977 | 7.58978 | 37964 ft | 459 kts | 341° |
| 2026-05-05 01:09 | 32.40201 | 7.57486 | 37974 ft | 461 kts | 341° |
| 2026-05-05 01:10 | 32.46491 | 7.55977 | 37964 ft | 462 kts | 341° |
| 2026-05-05 01:10 | 32.52790 | 7.54466 | 37967 ft | 462 kts | 341° |
| 2026-05-05 01:11 | 32.59085 | 7.52954 | 37966 ft | 462 kts | 341° |
| 2026-05-05 01:11 | 32.65336 | 7.51449 | 37969 ft | 462 kts | 341° |
| 2026-05-05 01:12 | 32.71631 | 7.49929 | 37969 ft | 462 kts | 341° |
| 2026-05-05 01:12 | 32.77945 | 7.48404 | 37971 ft | 463 kts | 341° |
| 2026-05-05 01:13 | 32.84256 | 7.46879 | 37973 ft | 463 kts | 341° |
| 2026-05-05 01:13 | 32.90527 | 7.45360 | 37974 ft | 463 kts | 341° |
| 2026-05-05 01:14 | 32.96839 | 7.43828 | 37974 ft | 463 kts | 341° |
| 2026-05-05 01:14 | 33.03161 | 7.42292 | 37982 ft | 464 kts | 341° |
| 2026-05-05 01:15 | 33.09485 | 7.40754 | 37979 ft | 464 kts | 341° |
| 2026-05-05 01:15 | 33.15762 | 7.39225 | 37977 ft | 464 kts | 341° |
| 2026-05-05 01:16 | 33.22087 | 7.37682 | 37975 ft | 464 kts | 341° |
| 2026-05-05 01:16 | 33.28405 | 7.36139 | 37970 ft | 464 kts | 341° |
| 2026-05-05 01:17 | 33.34721 | 7.34593 | 37980 ft | 464 kts | 341° |
| 2026-05-05 01:17 | 33.41042 | 7.33044 | 37988 ft | 464 kts | 341° |
| 2026-05-05 01:18 | 33.47321 | 7.31503 | 37998 ft | 464 kts | 342° |
| 2026-05-05 01:18 | 33.53647 | 7.29947 | 37982 ft | 464 kts | 342° |
| 2026-05-05 01:19 | 33.59978 | 7.28389 | 37979 ft | 464 kts | 342° |
| 2026-05-05 01:19 | 33.66314 | 7.26828 | 37980 ft | 465 kts | 342° |
| 2026-05-05 01:20 | 33.72603 | 7.25275 | 37986 ft | 465 kts | 342° |
| 2026-05-05 01:20 | 33.78933 | 7.23709 | 37985 ft | 465 kts | 342° |
| 2026-05-05 01:21 | 33.85267 | 7.22141 | 37983 ft | 465 kts | 342° |
| 2026-05-05 01:21 | 33.91596 | 7.20572 | 37989 ft | 465 kts | 342° |
| 2026-05-05 01:22 | 33.97890 | 7.19008 | 37986 ft | 465 kts | 342° |
| 2026-05-05 01:22 | 34.04220 | 7.17434 | 37991 ft | 465 kts | 342° |
| 2026-05-05 01:23 | 34.10556 | 7.15855 | 37990 ft | 465 kts | 342° |
| 2026-05-05 01:23 | 34.16894 | 7.14273 | 37990 ft | 465 kts | 342° |
| 2026-05-05 01:24 | 34.23188 | 7.12700 | 37990 ft | 465 kts | 342° |
| 2026-05-05 01:24 | 34.29525 | 7.11114 | 37997 ft | 465 kts | 342° |
| 2026-05-05 01:25 | 34.35868 | 7.09524 | 37993 ft | 466 kts | 342° |
| 2026-05-05 01:25 | 34.42217 | 7.07930 | 37993 ft | 466 kts | 342° |
| 2026-05-05 01:26 | 34.48569 | 7.06332 | 38002 ft | 466 kts | 342° |
| 2026-05-05 01:26 | 34.54878 | 7.04744 | 38007 ft | 466 kts | 341° |
| 2026-05-05 01:27 | 34.61231 | 7.03141 | 38008 ft | 467 kts | 341° |
| 2026-05-05 01:27 | 34.67591 | 7.01534 | 38026 ft | 467 kts | 341° |
| 2026-05-05 01:28 | 34.73949 | 6.99926 | 38021 ft | 467 kts | 341° |
| 2026-05-05 01:28 | 34.80271 | 6.98324 | 38056 ft | 467 kts | 342° |
| 2026-05-05 01:29 | 34.86636 | 6.96735 | 38050 ft | 467 kts | 342° |
| 2026-05-05 01:29 | 34.93012 | 6.95166 | 38052 ft | 468 kts | 342° |
| 2026-05-05 01:30 | 34.99393 | 6.93593 | 38065 ft | 468 kts | 342° |
| 2026-05-05 01:30 | 35.05767 | 6.92015 | 38105 ft | 468 kts | 342° |
| 2026-05-05 01:31 | 35.12106 | 6.90437 | 38067 ft | 469 kts | 342° |
| 2026-05-05 01:31 | 35.18500 | 6.88845 | 38076 ft | 469 kts | 342° |
| 2026-05-05 01:32 | 35.24887 | 6.87252 | 38069 ft | 469 kts | 342° |
| 2026-05-05 01:32 | 35.31284 | 6.85653 | 38091 ft | 469 kts | 342° |
| 2026-05-05 01:33 | 35.37683 | 6.84051 | 38069 ft | 470 kts | 342° |
| 2026-05-05 01:33 | 35.44043 | 6.82458 | 38064 ft | 469 kts | 342° |
| 2026-05-05 01:34 | 35.50436 | 6.80855 | 38056 ft | 469 kts | 342° |
| 2026-05-05 01:34 | 35.56833 | 6.79247 | 38086 ft | 469 kts | 342° |
| 2026-05-05 01:35 | 35.63231 | 6.77635 | 38053 ft | 470 kts | 342° |
| 2026-05-05 01:35 | 35.69609 | 6.76026 | 38044 ft | 471 kts | 342° |
| 2026-05-05 01:36 | 35.76029 | 6.74405 | 38047 ft | 471 kts | 342° |
| 2026-05-05 01:36 | 35.82445 | 6.72781 | 38049 ft | 471 kts | 342° |
| 2026-05-05 01:37 | 35.88867 | 6.71154 | 38047 ft | 471 kts | 342° |
| 2026-05-05 01:37 | 35.95285 | 6.69524 | 38048 ft | 471 kts | 342° |
| 2026-05-05 01:38 | 36.01659 | 6.67903 | 38070 ft | 471 kts | 342° |
| 2026-05-05 01:38 | 36.08079 | 6.66268 | 38081 ft | 471 kts | 342° |
| 2026-05-05 01:39 | 36.14494 | 6.64631 | 38092 ft | 471 kts | 342° |
| 2026-05-05 01:39 | 36.20904 | 6.62993 | 38104 ft | 471 kts | 342° |
| 2026-05-05 01:40 | 36.27279 | 6.61362 | 38106 ft | 471 kts | 342° |
| 2026-05-05 01:40 | 36.33721 | 6.59838 | 38113 ft | 473 kts | 345° |
| 2026-05-05 01:41 | 36.40229 | 6.58687 | 38112 ft | 472 kts | 346° |
| 2026-05-05 01:41 | 36.46739 | 6.57571 | 38074 ft | 472 kts | 345° |
| 2026-05-05 01:42 | 36.53229 | 6.56398 | 38060 ft | 472 kts | 345° |
| 2026-05-05 01:42 | 36.59676 | 6.55198 | 38032 ft | 471 kts | 345° |
| 2026-05-05 01:43 | 36.66157 | 6.53983 | 38026 ft | 470 kts | 345° |
| 2026-05-05 01:43 | 36.72627 | 6.52769 | 38018 ft | 471 kts | 345° |
| 2026-05-05 01:44 | 36.79105 | 6.51553 | 38019 ft | 471 kts | 345° |
| 2026-05-05 01:44 | 36.85538 | 6.50346 | 38017 ft | 470 kts | 345° |
| 2026-05-05 01:45 | 36.92007 | 6.49130 | 38025 ft | 470 kts | 345° |
| 2026-05-05 01:45 | 36.98481 | 6.47909 | 38017 ft | 471 kts | 345° |
| 2026-05-05 01:46 | 37.04958 | 6.46686 | 38010 ft | 470 kts | 345° |
| 2026-05-05 01:46 | 37.11438 | 6.45462 | 38017 ft | 472 kts | 344° |
| 2026-05-05 01:47 | 37.17885 | 6.44240 | 38018 ft | 472 kts | 344° |
| 2026-05-05 01:47 | 37.24380 | 6.43007 | 38018 ft | 472 kts | 344° |
| 2026-05-05 01:48 | 37.30875 | 6.41773 | 38047 ft | 472 kts | 344° |
| 2026-05-05 01:48 | 37.37366 | 6.40538 | 38017 ft | 472 kts | 344° |
| 2026-05-05 01:49 | 37.43814 | 6.39307 | 38018 ft | 472 kts | 344° |
| 2026-05-05 01:49 | 37.50305 | 6.38067 | 38020 ft | 472 kts | 344° |
| 2026-05-05 01:50 | 37.56797 | 6.36824 | 38027 ft | 471 kts | 343° |
| 2026-05-05 01:50 | 37.63277 | 6.35582 | 38021 ft | 471 kts | 343° |
| 2026-05-05 01:51 | 37.69715 | 6.34346 | 38024 ft | 471 kts | 343° |
| 2026-05-05 01:51 | 37.76194 | 6.33098 | 38025 ft | 471 kts | 343° |
| 2026-05-05 01:52 | 37.82668 | 6.31851 | 38020 ft | 471 kts | 343° |
| 2026-05-05 01:52 | 37.89152 | 6.30598 | 38021 ft | 471 kts | 343° |
| 2026-05-05 01:53 | 37.95626 | 6.29345 | 38034 ft | 471 kts | 343° |
| 2026-05-05 01:53 | 38.02058 | 6.28099 | 38016 ft | 471 kts | 343° |
| 2026-05-05 01:54 | 38.08547 | 6.26838 | 38023 ft | 473 kts | 343° |
| 2026-05-05 01:54 | 38.15055 | 6.25571 | 38022 ft | 473 kts | 343° |
| 2026-05-05 01:55 | 38.21570 | 6.24303 | 38020 ft | 473 kts | 343° |
| 2026-05-05 01:55 | 38.28040 | 6.23040 | 38020 ft | 473 kts | 343° |
| 2026-05-05 01:56 | 38.34549 | 6.21768 | 38018 ft | 473 kts | 343° |
| 2026-05-05 01:56 | 38.41060 | 6.20492 | 38018 ft | 473 kts | 343° |
| 2026-05-05 01:57 | 38.47568 | 6.19215 | 38021 ft | 473 kts | 343° |
| 2026-05-05 01:57 | 38.54085 | 6.17932 | 38021 ft | 474 kts | 343° |
| 2026-05-05 01:58 | 38.60569 | 6.16654 | 38020 ft | 475 kts | 343° |
| 2026-05-05 01:58 | 38.67100 | 6.15366 | 38020 ft | 475 kts | 343° |
| 2026-05-05 01:59 | 38.73637 | 6.14074 | 38045 ft | 475 kts | 343° |
| 2026-05-05 01:59 | 38.80175 | 6.12778 | 38024 ft | 476 kts | 343° |
| 2026-05-05 02:00 | 38.86713 | 6.11481 | 38021 ft | 476 kts | 343° |
| 2026-05-05 02:00 | 38.93216 | 6.10189 | 38032 ft | 476 kts | 343° |
| 2026-05-05 02:01 | 38.99755 | 6.08886 | 38021 ft | 476 kts | 343° |
| 2026-05-05 02:01 | 39.06328 | 6.07579 | 38019 ft | 480 kts | 343° |
| 2026-05-05 02:02 | 39.12936 | 6.06260 | 38018 ft | 481 kts | 343° |
| 2026-05-05 02:02 | 39.19500 | 6.04950 | 38031 ft | 481 kts | 343° |
| 2026-05-05 02:03 | 39.26118 | 6.03626 | 38019 ft | 482 kts | 343° |
| 2026-05-05 02:03 | 39.32751 | 6.02296 | 38016 ft | 483 kts | 343° |
| 2026-05-05 02:04 | 39.39391 | 6.00964 | 38018 ft | 483 kts | 343° |
| 2026-05-05 02:04 | 39.46028 | 5.99629 | 38018 ft | 483 kts | 343° |
| 2026-05-05 02:05 | 39.52637 | 5.98296 | 38015 ft | 484 kts | 343° |
| 2026-05-05 02:05 | 39.59294 | 5.96951 | 38015 ft | 484 kts | 343° |
| 2026-05-05 02:06 | 39.65951 | 5.95605 | 38037 ft | 484 kts | 343° |
| 2026-05-05 02:06 | 39.72663 | 5.94466 | 38012 ft | 489 kts | 346° |
| 2026-05-05 02:07 | 39.79408 | 5.93670 | 38004 ft | 490 kts | 347° |
| 2026-05-05 02:07 | 39.86192 | 5.92867 | 38004 ft | 489 kts | 347° |
| 2026-05-05 02:08 | 39.92968 | 5.92003 | 37998 ft | 490 kts | 346° |
| 2026-05-05 02:08 | 39.99753 | 5.91106 | 37997 ft | 490 kts | 346° |
| 2026-05-05 02:09 | 40.06488 | 5.90211 | 37997 ft | 490 kts | 346° |
| 2026-05-05 02:09 | 40.13270 | 5.89309 | 38010 ft | 490 kts | 346° |
| 2026-05-05 02:10 | 40.20061 | 5.88405 | 37992 ft | 491 kts | 346° |
| 2026-05-05 02:10 | 40.26854 | 5.87501 | 37989 ft | 491 kts | 346° |
| 2026-05-05 02:11 | 40.33648 | 5.86595 | 38006 ft | 491 kts | 347° |
| 2026-05-05 02:11 | 40.40405 | 5.85691 | 37986 ft | 492 kts | 347° |
| 2026-05-05 02:12 | 40.50612 | 5.84324 | 37978 ft | 491 kts | 347° |
| 2026-05-05 02:13 | 40.57419 | 5.83409 | 37975 ft | 491 kts | 347° |
| 2026-05-05 02:13 | 40.64217 | 5.82494 | 37976 ft | 491 kts | 347° |
| 2026-05-05 02:14 | 40.71024 | 5.81575 | 37979 ft | 491 kts | 347° |
| 2026-05-05 02:14 | 40.77776 | 5.80662 | 37989 ft | 492 kts | 347° |
| 2026-05-05 02:15 | 40.84590 | 5.79737 | 37971 ft | 493 kts | 347° |
| 2026-05-05 02:15 | 40.91413 | 5.78811 | 37966 ft | 493 kts | 347° |
| 2026-05-05 02:16 | 40.98233 | 5.77884 | 37963 ft | 493 kts | 347° |
| 2026-05-05 02:16 | 41.05013 | 5.76959 | 37956 ft | 494 kts | 347° |
| 2026-05-05 02:17 | 41.11858 | 5.76023 | 37961 ft | 494 kts | 347° |
| 2026-05-05 02:17 | 41.18697 | 5.75088 | 37961 ft | 494 kts | 347° |
| 2026-05-05 02:18 | 41.25548 | 5.74146 | 37957 ft | 496 kts | 347° |
| 2026-05-05 02:18 | 41.32372 | 5.73208 | 37955 ft | 497 kts | 347° |
| 2026-05-05 02:19 | 41.39251 | 5.72261 | 37949 ft | 497 kts | 347° |
| 2026-05-05 02:19 | 41.46122 | 5.71313 | 37951 ft | 497 kts | 348° |
| 2026-05-05 02:20 | 41.53014 | 5.70359 | 37952 ft | 498 kts | 348° |
| 2026-05-05 02:20 | 41.59915 | 5.69402 | 37946 ft | 499 kts | 348° |
| 2026-05-05 02:21 | 41.66772 | 5.68449 | 37950 ft | 499 kts | 348° |
| 2026-05-05 02:21 | 41.73691 | 5.67485 | 37943 ft | 500 kts | 348° |
| 2026-05-05 02:22 | 41.80610 | 5.66520 | 37944 ft | 500 kts | 348° |
| 2026-05-05 02:22 | 41.87537 | 5.65552 | 37947 ft | 500 kts | 348° |
| 2026-05-05 02:23 | 41.94463 | 5.64581 | 37937 ft | 501 kts | 348° |
| 2026-05-05 02:23 | 42.01341 | 5.63615 | 37932 ft | 501 kts | 348° |
| 2026-05-05 02:24 | 42.08274 | 5.62638 | 37932 ft | 501 kts | 349° |
| 2026-05-05 02:24 | 42.15212 | 5.61659 | 37925 ft | 502 kts | 349° |
| 2026-05-05 02:25 | 42.22164 | 5.60676 | 37925 ft | 502 kts | 349° |
| 2026-05-05 02:25 | 42.29062 | 5.59699 | 37928 ft | 502 kts | 349° |
| 2026-05-05 02:26 | 42.36022 | 5.58710 | 37917 ft | 503 kts | 349° |
| 2026-05-05 02:26 | 42.42990 | 5.57718 | 37916 ft | 503 kts | 349° |
| 2026-05-05 02:27 | 42.49958 | 5.56724 | 37912 ft | 503 kts | 349° |
| 2026-05-05 02:27 | 42.56876 | 5.55735 | 37911 ft | 504 kts | 349° |
| 2026-05-05 02:28 | 42.63845 | 5.54737 | 37913 ft | 504 kts | 349° |
| 2026-05-05 02:28 | 42.70811 | 5.53737 | 37913 ft | 503 kts | 349° |
| 2026-05-05 02:29 | 42.77778 | 5.52734 | 37911 ft | 503 kts | 349° |
| 2026-05-05 02:29 | 42.84700 | 5.51735 | 37908 ft | 503 kts | 349° |
| 2026-05-05 02:30 | 42.91667 | 5.50727 | 37911 ft | 504 kts | 349° |
| 2026-05-05 02:30 | 42.98638 | 5.49722 | 37908 ft | 505 kts | 350° |
| 2026-05-05 02:31 | 43.05645 | 5.48874 | 37910 ft | 505 kts | 351° |
| 2026-05-05 02:31 | 43.12654 | 5.48092 | 37908 ft | 506 kts | 351° |
| 2026-05-05 02:32 | 43.19630 | 5.47291 | 37901 ft | 507 kts | 351° |
| 2026-05-05 02:32 | 43.26658 | 5.46464 | 37907 ft | 507 kts | 351° |
| 2026-05-05 02:33 | 43.33684 | 5.45629 | 37917 ft | 507 kts | 351° |
| 2026-05-05 02:33 | 43.40685 | 5.44793 | 37908 ft | 508 kts | 351° |
| 2026-05-05 02:34 | 43.47732 | 5.43952 | 37921 ft | 509 kts | 351° |
| 2026-05-05 02:34 | 43.54787 | 5.43107 | 37914 ft | 509 kts | 351° |
| 2026-05-05 02:35 | 43.61843 | 5.42262 | 37917 ft | 509 kts | 351° |
| 2026-05-05 02:35 | 43.68908 | 5.41412 | 37918 ft | 509 kts | 351° |
| 2026-05-05 02:36 | 43.75923 | 5.40567 | 37920 ft | 511 kts | 351° |
| 2026-05-05 02:36 | 43.83003 | 5.39712 | 37922 ft | 511 kts | 351° |
| 2026-05-05 02:37 | 43.90089 | 5.38855 | 37926 ft | 511 kts | 351° |
| 2026-05-05 02:37 | 43.97181 | 5.37993 | 37930 ft | 512 kts | 351° |
| 2026-05-05 02:38 | 44.04237 | 5.37135 | 37931 ft | 512 kts | 351° |
| 2026-05-05 02:38 | 44.11341 | 5.36269 | 37944 ft | 512 kts | 351° |
| 2026-05-05 02:39 | 44.18446 | 5.35399 | 37922 ft | 513 kts | 351° |
| 2026-05-05 02:39 | 44.25556 | 5.34528 | 37921 ft | 513 kts | 351° |
| 2026-05-05 02:40 | 44.32675 | 5.33654 | 37933 ft | 514 kts | 352° |
| 2026-05-05 02:40 | 44.39757 | 5.32783 | 37908 ft | 514 kts | 352° |
| 2026-05-05 02:41 | 44.46895 | 5.31896 | 37916 ft | 515 kts | 352° |
| 2026-05-05 02:41 | 44.54038 | 5.31015 | 37910 ft | 515 kts | 352° |
| 2026-05-05 02:42 | 44.61182 | 5.30134 | 37917 ft | 516 kts | 352° |
| 2026-05-05 02:42 | 44.68284 | 5.29251 | 37917 ft | 516 kts | 352° |
| 2026-05-05 02:43 | 44.75429 | 5.28360 | 37916 ft | 516 kts | 352° |
| 2026-05-05 02:43 | 44.82572 | 5.27467 | 37916 ft | 515 kts | 352° |
| 2026-05-05 02:44 | 44.89722 | 5.26571 | 37920 ft | 515 kts | 352° |
| 2026-05-05 02:44 | 44.96867 | 5.25673 | 37917 ft | 516 kts | 352° |
| 2026-05-05 02:45 | 45.03969 | 5.24779 | 37917 ft | 516 kts | 352° |
| 2026-05-05 02:45 | 45.11119 | 5.23877 | 37917 ft | 515 kts | 352° |
| 2026-05-05 02:46 | 45.18260 | 5.22975 | 37917 ft | 515 kts | 352° |
| 2026-05-05 02:46 | 45.25404 | 5.22069 | 37913 ft | 515 kts | 352° |
| 2026-05-05 02:47 | 45.32548 | 5.21160 | 37912 ft | 515 kts | 352° |
| 2026-05-05 02:47 | 45.39632 | 5.20258 | 37912 ft | 515 kts | 352° |
| 2026-05-05 02:48 | 45.46771 | 5.19346 | 37923 ft | 515 kts | 352° |
| 2026-05-05 02:48 | 45.53906 | 5.18433 | 37915 ft | 515 kts | 352° |
| 2026-05-05 02:49 | 45.61040 | 5.17517 | 37919 ft | 515 kts | 352° |
| 2026-05-05 02:49 | 45.68129 | 5.16604 | 37925 ft | 514 kts | 351° |
| 2026-05-05 02:50 | 45.75251 | 5.15684 | 37939 ft | 514 kts | 352° |
| 2026-05-05 02:50 | 45.82379 | 5.14761 | 37938 ft | 514 kts | 352° |
| 2026-05-05 02:51 | 45.89500 | 5.13838 | 37931 ft | 513 kts | 351° |
| 2026-05-05 02:51 | 45.96612 | 5.12911 | 37929 ft | 514 kts | 352° |
| 2026-05-05 02:52 | 46.03697 | 5.11985 | 37924 ft | 515 kts | 352° |
| 2026-05-05 02:52 | 46.10838 | 5.11052 | 37919 ft | 515 kts | 352° |
| 2026-05-05 02:53 | 46.17974 | 5.10117 | 37919 ft | 515 kts | 352° |
| 2026-05-05 02:53 | 46.25073 | 5.09372 | 37923 ft | 517 kts | 356° |
| 2026-05-05 02:54 | 46.32262 | 5.09286 | 37915 ft | 516 kts | 357° |
| 2026-05-05 02:54 | 46.39449 | 5.09313 | 37916 ft | 516 kts | 357° |
| 2026-05-05 02:55 | 46.46632 | 5.09359 | 37930 ft | 516 kts | 357° |
| 2026-05-05 02:55 | 46.53805 | 5.09400 | 37919 ft | 515 kts | 357° |
| 2026-05-05 02:56 | 46.60915 | 5.09428 | 37915 ft | 515 kts | 357° |
| 2026-05-05 02:56 | 46.68077 | 5.09456 | 37916 ft | 515 kts | 357° |
| 2026-05-05 02:57 | 46.75233 | 5.09485 | 37916 ft | 515 kts | 357° |
| 2026-05-05 02:57 | 46.82399 | 5.09515 | 37920 ft | 515 kts | 357° |
| 2026-05-05 02:58 | 46.88345 | 5.09542 | 37924 ft | 514 kts | 357° |
| 2026-05-05 02:58 | 46.96661 | 5.09579 | 37927 ft | 514 kts | 357° |
| 2026-05-05 02:59 | 47.03808 | 5.09612 | 37930 ft | 514 kts | 357° |
| 2026-05-05 02:59 | 47.10962 | 5.09644 | 37913 ft | 513 kts | 357° |
| 2026-05-05 03:00 | 47.16892 | 5.09671 | 37908 ft | 513 kts | 357° |
| 2026-05-05 03:00 | 47.25183 | 5.09707 | 37911 ft | 513 kts | 357° |
| 2026-05-05 03:01 | 47.32314 | 5.09739 | 37912 ft | 511 kts | 358° |
| 2026-05-05 03:01 | 47.38222 | 5.09766 | 37912 ft | 510 kts | 358° |
| 2026-05-05 03:02 | 47.45320 | 5.09798 | 37914 ft | 510 kts | 358° |
| 2026-05-05 03:02 | 47.52413 | 5.09830 | 37914 ft | 510 kts | 358° |
| 2026-05-05 03:03 | 47.59502 | 5.09863 | 37917 ft | 509 kts | 358° |
| 2026-05-05 03:03 | 47.66547 | 5.09895 | 37913 ft | 510 kts | 358° |
| 2026-05-05 03:04 | 47.73643 | 5.09904 | 37912 ft | 510 kts | 358° |
| 2026-05-05 03:04 | 47.80744 | 5.09873 | 37914 ft | 511 kts | 358° |
| 2026-05-05 03:05 | 47.87848 | 5.09841 | 37910 ft | 511 kts | 358° |
| 2026-05-05 03:05 | 47.94960 | 5.09798 | 37915 ft | 511 kts | 358° |
| 2026-05-05 03:06 | 48.02024 | 5.09743 | 37920 ft | 512 kts | 358° |
| 2026-05-05 03:06 | 48.09143 | 5.09697 | 37912 ft | 512 kts | 358° |
| 2026-05-05 03:07 | 48.16272 | 5.09641 | 37905 ft | 513 kts | 358° |
| 2026-05-05 03:07 | 48.23406 | 5.09569 | 37904 ft | 513 kts | 358° |
| 2026-05-05 03:08 | 48.30551 | 5.09496 | 37906 ft | 513 kts | 358° |
| 2026-05-05 03:08 | 48.37643 | 5.09425 | 37907 ft | 513 kts | 358° |
| 2026-05-05 03:09 | 48.44790 | 5.09356 | 37909 ft | 514 kts | 358° |
| 2026-05-05 03:09 | 48.51942 | 5.09287 | 37909 ft | 514 kts | 358° |
| 2026-05-05 03:10 | 48.59086 | 5.09229 | 37909 ft | 514 kts | 358° |
| 2026-05-05 03:10 | 48.66240 | 5.09180 | 37906 ft | 514 kts | 358° |
| 2026-05-05 03:11 | 48.73344 | 5.09132 | 37907 ft | 514 kts | 358° |
| 2026-05-05 03:11 | 48.80500 | 5.09083 | 37906 ft | 514 kts | 358° |
| 2026-05-05 03:12 | 48.87656 | 5.09033 | 37910 ft | 514 kts | 358° |
| 2026-05-05 03:12 | 48.94810 | 5.08983 | 37909 ft | 514 kts | 358° |
| 2026-05-05 03:13 | 49.01921 | 5.08942 | 37910 ft | 514 kts | 358° |
| 2026-05-05 03:13 | 49.09082 | 5.08909 | 37913 ft | 514 kts | 358° |
| 2026-05-05 03:14 | 49.16240 | 5.08875 | 37911 ft | 514 kts | 358° |
| 2026-05-05 03:14 | 49.23398 | 5.08856 | 37900 ft | 514 kts | 358° |
| 2026-05-05 03:15 | 49.30559 | 5.08859 | 37905 ft | 514 kts | 358° |
| 2026-05-05 03:15 | 49.37668 | 5.08866 | 37902 ft | 514 kts | 358° |
| 2026-05-05 03:16 | 49.44822 | 5.08881 | 37910 ft | 514 kts | 358° |
| 2026-05-05 03:16 | 49.51968 | 5.08915 | 37916 ft | 513 kts | 358° |
| 2026-05-05 03:17 | 49.59108 | 5.08950 | 37910 ft | 513 kts | 358° |
| 2026-05-05 03:17 | 49.66197 | 5.08989 | 37919 ft | 513 kts | 358° |
| 2026-05-05 03:18 | 49.73322 | 5.09048 | 37915 ft | 511 kts | 358° |
| 2026-05-05 03:18 | 49.80434 | 5.09113 | 37921 ft | 511 kts | 358° |
| 2026-05-05 03:19 | 49.91058 | 5.09217 | 37920 ft | 510 kts | 358° |
| 2026-05-05 03:19 | 49.98140 | 5.09299 | 37913 ft | 509 kts | 358° |
| 2026-05-05 03:20 | 50.05217 | 5.09381 | 37910 ft | 509 kts | 358° |
| 2026-05-05 03:20 | 50.12299 | 5.09464 | 37912 ft | 508 kts | 358° |
| 2026-05-05 03:21 | 50.19357 | 5.09548 | 37915 ft | 507 kts | 358° |
| 2026-05-05 03:21 | 50.26414 | 5.09633 | 37906 ft | 507 kts | 358° |
| 2026-05-05 03:22 | 50.33419 | 5.09712 | 37911 ft | 506 kts | 358° |
| 2026-05-05 03:22 | 50.40455 | 5.09764 | 37908 ft | 505 kts | 358° |
| 2026-05-05 03:23 | 50.47480 | 5.09815 | 37924 ft | 505 kts | 358° |
| 2026-05-05 03:23 | 50.54501 | 5.09867 | 37911 ft | 505 kts | 358° |
| 2026-05-05 03:24 | 50.61472 | 5.09911 | 37906 ft | 504 kts | 358° |
| 2026-05-05 03:24 | 50.68478 | 5.09955 | 37908 ft | 503 kts | 358° |
| 2026-05-05 03:25 | 50.75482 | 5.09998 | 37908 ft | 503 kts | 358° |
| 2026-05-05 03:25 | 50.82485 | 5.10037 | 37914 ft | 503 kts | 358° |
| 2026-05-05 03:26 | 50.89474 | 5.10071 | 37916 ft | 503 kts | 358° |
| 2026-05-05 03:26 | 50.96468 | 5.10103 | 37916 ft | 503 kts | 358° |
| 2026-05-05 03:27 | 51.03414 | 5.10135 | 37924 ft | 503 kts | 358° |
| 2026-05-05 03:27 | 51.10412 | 5.10169 | 37933 ft | 502 kts | 358° |
| 2026-05-05 03:28 | 51.17407 | 5.10202 | 37930 ft | 503 kts | 358° |
| 2026-05-05 03:28 | 51.24397 | 5.10233 | 37931 ft | 503 kts | 358° |
| 2026-05-05 03:29 | 51.31343 | 5.10267 | 37934 ft | 503 kts | 358° |
| 2026-05-05 03:29 | 51.38344 | 5.10302 | 37938 ft | 503 kts | 358° |
| 2026-05-05 03:30 | 51.45341 | 5.10340 | 37936 ft | 503 kts | 358° |
| 2026-05-05 03:30 | 51.52339 | 5.10372 | 37941 ft | 503 kts | 358° |
| 2026-05-05 03:31 | 51.59349 | 5.10401 | 37941 ft | 504 kts | 358° |
| 2026-05-05 03:31 | 51.66309 | 5.10431 | 37940 ft | 503 kts | 358° |
| 2026-05-05 03:32 | 51.73315 | 5.10462 | 37945 ft | 503 kts | 358° |
| 2026-05-05 03:32 | 51.80315 | 5.10493 | 37939 ft | 503 kts | 358° |
| 2026-05-05 03:33 | 51.87315 | 5.10524 | 37939 ft | 503 kts | 358° |
| 2026-05-05 03:33 | 51.94308 | 5.10556 | 37949 ft | 503 kts | 358° |
| 2026-05-05 03:34 | 52.01251 | 5.10598 | 37942 ft | 502 kts | 358° |
| 2026-05-05 03:34 | 52.08234 | 5.10641 | 37951 ft | 502 kts | 358° |
| 2026-05-05 03:35 | 52.15216 | 5.10686 | 37962 ft | 502 kts | 358° |
| 2026-05-05 03:35 | 52.22194 | 5.10734 | 37961 ft | 500 kts | 358° |
| 2026-05-05 03:36 | 52.29145 | 5.10782 | 37964 ft | 500 kts | 358° |
| 2026-05-05 03:36 | 52.36053 | 5.10829 | 37964 ft | 500 kts | 358° |
| 2026-05-05 03:37 | 52.43007 | 5.10877 | 37973 ft | 499 kts | 358° |
| 2026-05-05 03:37 | 52.49940 | 5.10920 | 37970 ft | 498 kts | 358° |
| 2026-05-05 03:38 | 52.56865 | 5.10963 | 37972 ft | 497 kts | 358° |
| 2026-05-05 03:38 | 52.63744 | 5.11005 | 37972 ft | 498 kts | 358° |
| 2026-05-05 03:39 | 52.70662 | 5.11029 | 37981 ft | 497 kts | 358° |
| 2026-05-05 03:39 | 52.77572 | 5.11034 | 37975 ft | 496 kts | 358° |
| 2026-05-05 03:40 | 52.84475 | 5.11038 | 37971 ft | 496 kts | 358° |
| 2026-05-05 03:40 | 52.91339 | 5.11042 | 37982 ft | 496 kts | 358° |
| 2026-05-05 03:41 | 52.98253 | 5.11045 | 37978 ft | 497 kts | 358° |
| 2026-05-05 03:41 | 53.05167 | 5.11046 | 37994 ft | 497 kts | 358° |
| 2026-05-05 03:42 | 53.12088 | 5.11048 | 37993 ft | 497 kts | 358° |
| 2026-05-05 03:42 | 53.18997 | 5.11064 | 37999 ft | 496 kts | 358° |
| 2026-05-05 03:43 | 53.25854 | 5.11085 | 37995 ft | 496 kts | 358° |
| 2026-05-05 03:43 | 53.32748 | 5.11088 | 37994 ft | 495 kts | 358° |
| 2026-05-05 03:44 | 53.39632 | 5.11088 | 37999 ft | 495 kts | 358° |
| 2026-05-05 03:44 | 53.46519 | 5.11089 | 38012 ft | 495 kts | 358° |
| 2026-05-05 03:45 | 53.53364 | 5.11088 | 38018 ft | 495 kts | 358° |
| 2026-05-05 03:45 | 53.60252 | 5.11085 | 38012 ft | 495 kts | 358° |
| 2026-05-05 03:46 | 53.67135 | 5.11076 | 38015 ft | 495 kts | 358° |
| 2026-05-05 03:46 | 53.74016 | 5.11055 | 38015 ft | 494 kts | 358° |
| 2026-05-05 03:47 | 53.80899 | 5.11034 | 38015 ft | 494 kts | 358° |
| 2026-05-05 03:47 | 53.87731 | 5.11012 | 38009 ft | 494 kts | 358° |
| 2026-05-05 03:48 | 53.94609 | 5.10986 | 38006 ft | 494 kts | 358° |
| 2026-05-05 03:48 | 54.01476 | 5.10955 | 38007 ft | 493 kts | 358° |
| 2026-05-05 03:49 | 54.08340 | 5.10926 | 38007 ft | 493 kts | 358° |
| 2026-05-05 03:49 | 54.15159 | 5.10902 | 38017 ft | 493 kts | 358° |
| 2026-05-05 03:50 | 54.22014 | 5.10918 | 38007 ft | 492 kts | 358° |
| 2026-05-05 03:50 | 54.28869 | 5.10937 | 38007 ft | 492 kts | 358° |
| 2026-05-05 03:51 | 54.35720 | 5.10957 | 38007 ft | 492 kts | 358° |
| 2026-05-05 03:51 | 54.42522 | 5.10995 | 38008 ft | 492 kts | 358° |
| 2026-05-05 03:52 | 54.49363 | 5.11084 | 38007 ft | 491 kts | 358° |
| 2026-05-05 03:52 | 54.56205 | 5.11175 | 38007 ft | 491 kts | 358° |
| 2026-05-05 03:53 | 54.63041 | 5.11267 | 38007 ft | 491 kts | 358° |
| 2026-05-05 03:53 | 54.69874 | 5.11376 | 38006 ft | 491 kts | 358° |
| 2026-05-05 03:54 | 54.76655 | 5.11500 | 38007 ft | 490 kts | 358° |
| 2026-05-05 03:54 | 54.83480 | 5.11625 | 38007 ft | 490 kts | 358° |
| 2026-05-05 03:55 | 54.90303 | 5.11751 | 38033 ft | 490 kts | 358° |
| 2026-05-05 03:55 | 54.97118 | 5.11924 | 38004 ft | 489 kts | 358° |
| 2026-05-05 03:56 | 55.03921 | 5.12112 | 38004 ft | 489 kts | 358° |
| 2026-05-05 03:56 | 55.10688 | 5.12298 | 38004 ft | 489 kts | 358° |
| 2026-05-05 03:57 | 55.17490 | 5.12489 | 38011 ft | 489 kts | 358° |
| 2026-05-05 03:57 | 55.24291 | 5.12734 | 38002 ft | 489 kts | 358° |
| 2026-05-05 03:58 | 55.31085 | 5.12986 | 38000 ft | 488 kts | 358° |
| 2026-05-05 03:58 | 55.37886 | 5.13239 | 38001 ft | 488 kts | 358° |
| 2026-05-05 03:59 | 55.44630 | 5.13506 | 37997 ft | 488 kts | 358° |
| 2026-05-05 03:59 | 55.51424 | 5.13831 | 37992 ft | 488 kts | 358° |
| 2026-05-05 04:00 | 55.58204 | 5.14163 | 37993 ft | 488 kts | 358° |
| 2026-05-05 04:00 | 55.64992 | 5.14499 | 37993 ft | 488 kts | 358° |
| 2026-05-05 04:01 | 55.71738 | 5.14866 | 37994 ft | 488 kts | 358° |
| 2026-05-05 04:01 | 55.78526 | 5.15307 | 37993 ft | 488 kts | 358° |
| 2026-05-05 04:02 | 55.85322 | 5.15754 | 37993 ft | 489 kts | 358° |
| 2026-05-05 04:02 | 55.92118 | 5.16202 | 37985 ft | 489 kts | 358° |
| 2026-05-05 04:03 | 55.98862 | 5.16647 | 37990 ft | 489 kts | 358° |
| 2026-05-05 04:03 | 56.05658 | 5.17096 | 37984 ft | 489 kts | 358° |
| 2026-05-05 04:04 | 56.12448 | 5.17545 | 37990 ft | 489 kts | 358° |
| 2026-05-05 04:04 | 56.19243 | 5.17996 | 37996 ft | 489 kts | 358° |
| 2026-05-05 04:05 | 56.26008 | 5.18501 | 37987 ft | 490 kts | 358° |
| 2026-05-05 04:05 | 56.32823 | 5.19039 | 37987 ft | 491 kts | 358° |
| 2026-05-05 04:06 | 56.39643 | 5.19579 | 37985 ft | 491 kts | 358° |
| 2026-05-05 04:06 | 56.46467 | 5.20121 | 37985 ft | 491 kts | 358° |
| 2026-05-05 04:07 | 56.53254 | 5.20703 | 37990 ft | 492 kts | 358° |
| 2026-05-05 04:07 | 56.60095 | 5.21307 | 37987 ft | 493 kts | 358° |
| 2026-05-05 04:08 | 56.66943 | 5.21913 | 37977 ft | 493 kts | 358° |
| 2026-05-05 04:08 | 56.73792 | 5.22521 | 38010 ft | 493 kts | 358° |
| 2026-05-05 04:09 | 56.80646 | 5.23130 | 37985 ft | 494 kts | 358° |
| 2026-05-05 04:09 | 56.87472 | 5.23736 | 37989 ft | 494 kts | 358° |
| 2026-05-05 04:10 | 56.94344 | 5.24348 | 37986 ft | 494 kts | 358° |
| 2026-05-05 04:10 | 57.01215 | 5.24963 | 38021 ft | 494 kts | 358° |
| 2026-05-05 04:11 | 57.08075 | 5.25594 | 37990 ft | 493 kts | 358° |
| 2026-05-05 04:11 | 57.14885 | 5.26226 | 37990 ft | 493 kts | 358° |
| 2026-05-05 04:12 | 57.21736 | 5.26863 | 37990 ft | 493 kts | 358° |
| 2026-05-05 04:12 | 57.28593 | 5.27505 | 38008 ft | 493 kts | 358° |
| 2026-05-05 04:13 | 57.35446 | 5.28177 | 37993 ft | 493 kts | 358° |
| 2026-05-05 04:13 | 57.42303 | 5.28856 | 37993 ft | 493 kts | 358° |
| 2026-05-05 04:14 | 57.49114 | 5.29533 | 37993 ft | 493 kts | 358° |
| 2026-05-05 04:14 | 57.55976 | 5.30219 | 38014 ft | 494 kts | 358° |
| 2026-05-05 04:15 | 57.62839 | 5.30942 | 37994 ft | 494 kts | 358° |
| 2026-05-05 04:15 | 57.69700 | 5.31671 | 37991 ft | 494 kts | 358° |
| 2026-05-05 04:16 | 57.76571 | 5.32402 | 38000 ft | 494 kts | 358° |
| 2026-05-05 04:16 | 57.83386 | 5.33133 | 38010 ft | 494 kts | 358° |
| 2026-05-05 04:17 | 57.90260 | 5.33906 | 37996 ft | 495 kts | 358° |
| 2026-05-05 04:17 | 57.97140 | 5.34685 | 37995 ft | 495 kts | 358° |
| 2026-05-05 04:18 | 58.04021 | 5.35466 | 37997 ft | 495 kts | 358° |
| 2026-05-05 04:18 | 58.10855 | 5.36247 | 38014 ft | 495 kts | 358° |
| 2026-05-05 04:19 | 58.17735 | 5.37058 | 37999 ft | 496 kts | 358° |
| 2026-05-05 04:19 | 58.24618 | 5.37874 | 37995 ft | 496 kts | 358° |
| 2026-05-05 04:20 | 58.31503 | 5.38694 | 37997 ft | 496 kts | 358° |
| 2026-05-05 04:20 | 58.38341 | 5.39509 | 38012 ft | 496 kts | 358° |
| 2026-05-05 04:21 | 58.45236 | 5.40335 | 37999 ft | 497 kts | 358° |
| 2026-05-05 04:21 | 58.52139 | 5.41164 | 37996 ft | 497 kts | 358° |
| 2026-05-05 04:22 | 58.59039 | 5.41994 | 37989 ft | 497 kts | 358° |
| 2026-05-05 04:22 | 58.65889 | 5.42821 | 37992 ft | 497 kts | 358° |
| 2026-05-05 04:23 | 58.72791 | 5.43656 | 37988 ft | 497 kts | 358° |
| 2026-05-05 04:23 | 58.79687 | 5.44493 | 37989 ft | 497 kts | 358° |
| 2026-05-05 04:24 | 58.86585 | 5.45333 | 37987 ft | 497 kts | 358° |
| 2026-05-05 04:25 | 58.96932 | 5.46611 | 37977 ft | 497 kts | 358° |
| 2026-05-05 04:25 | 59.03782 | 5.47483 | 37984 ft | 497 kts | 358° |
| 2026-05-05 04:26 | 59.10684 | 5.48365 | 37980 ft | 497 kts | 358° |
| 2026-05-05 04:26 | 59.17582 | 5.49248 | 37990 ft | 497 kts | 358° |
| 2026-05-05 04:27 | 59.24481 | 5.50143 | 37991 ft | 496 kts | 358° |
| 2026-05-05 04:27 | 59.31366 | 5.51058 | 37989 ft | 496 kts | 358° |
| 2026-05-05 04:28 | 59.38201 | 5.51971 | 37988 ft | 496 kts | 358° |
| 2026-05-05 04:28 | 59.45083 | 5.52893 | 37984 ft | 496 kts | 358° |
| 2026-05-05 04:29 | 59.51962 | 5.53810 | 37987 ft | 495 kts | 358° |
| 2026-05-05 04:29 | 59.58816 | 5.54722 | 37974 ft | 493 kts | 358° |
| 2026-05-05 04:30 | 59.65668 | 5.55637 | 37968 ft | 493 kts | 358° |
| 2026-05-05 04:30 | 59.72465 | 5.56548 | 37963 ft | 493 kts | 358° |
| 2026-05-05 04:31 | 59.79313 | 5.57462 | 37976 ft | 493 kts | 358° |
| 2026-05-05 04:31 | 59.86164 | 5.58346 | 37961 ft | 494 kts | 358° |
| 2026-05-05 04:32 | 59.92977 | 5.59225 | 37959 ft | 493 kts | 358° |
| 2026-05-05 04:32 | 59.99829 | 5.60111 | 37960 ft | 494 kts | 358° |
| 2026-05-05 04:33 | 60.06684 | 5.61000 | 37981 ft | 494 kts | 358° |
| 2026-05-05 04:33 | 60.13563 | 5.61843 | 37962 ft | 497 kts | 358° |
| 2026-05-05 04:34 | 60.20464 | 5.62679 | 37952 ft | 497 kts | 358° |
| 2026-05-05 04:34 | 60.27368 | 5.63517 | 37949 ft | 497 kts | 358° |
| 2026-05-05 04:35 | 60.34226 | 5.64352 | 37998 ft | 497 kts | 358° |
| 2026-05-05 04:35 | 60.41139 | 5.65151 | 37947 ft | 498 kts | 358° |
| 2026-05-05 04:36 | 60.48061 | 5.65935 | 37949 ft | 498 kts | 358° |
| 2026-05-05 04:36 | 60.54993 | 5.66723 | 37954 ft | 499 kts | 358° |
| 2026-05-05 04:37 | 60.61872 | 5.67501 | 37954 ft | 499 kts | 358° |
| 2026-05-05 04:37 | 60.68806 | 5.68287 | 37954 ft | 500 kts | 358° |
| 2026-05-05 04:38 | 60.75754 | 5.69074 | 37949 ft | 500 kts | 358° |
| 2026-05-05 04:38 | 60.82697 | 5.69862 | 37953 ft | 500 kts | 358° |
| 2026-05-05 04:39 | 60.89647 | 5.70656 | 37948 ft | 500 kts | 358° |
| 2026-05-05 04:39 | 60.96553 | 5.71441 | 37953 ft | 502 kts | 358° |
| 2026-05-05 04:40 | 61.03545 | 5.72225 | 37951 ft | 504 kts | 358° |
| 2026-05-05 04:40 | 61.10543 | 5.73016 | 37949 ft | 504 kts | 358° |
| 2026-05-05 04:41 | 61.17548 | 5.73810 | 37928 ft | 504 kts | 358° |
| 2026-05-05 04:41 | 61.24555 | 5.74603 | 37920 ft | 504 kts | 358° |
| 2026-05-05 04:42 | 61.31529 | 5.75384 | 37913 ft | 506 kts | 358° |
| 2026-05-05 04:42 | 61.38562 | 5.76173 | 37910 ft | 506 kts | 358° |
| 2026-05-05 04:43 | 61.45599 | 5.76964 | 37912 ft | 506 kts | 358° |
| 2026-05-05 04:43 | 61.52638 | 5.77759 | 37916 ft | 506 kts | 358° |
| 2026-05-05 04:44 | 61.59627 | 5.78550 | 37926 ft | 506 kts | 358° |
| 2026-05-05 04:44 | 61.66659 | 5.79345 | 37940 ft | 506 kts | 358° |
| 2026-05-05 04:45 | 61.73699 | 5.80145 | 37944 ft | 506 kts | 358° |
| 2026-05-05 04:45 | 61.80737 | 5.80947 | 38007 ft | 507 kts | 358° |
| 2026-05-05 04:46 | 61.87769 | 5.81720 | 37940 ft | 505 kts | 358° |
| 2026-05-05 04:46 | 61.94736 | 5.82499 | 37927 ft | 504 kts | 358° |
| 2026-05-05 04:47 | 62.01748 | 5.83280 | 37918 ft | 504 kts | 358° |
| 2026-05-05 04:47 | 62.08760 | 5.84065 | 37913 ft | 505 kts | 358° |
| 2026-05-05 04:48 | 62.15768 | 5.84856 | 37917 ft | 504 kts | 358° |
| 2026-05-05 04:48 | 62.22779 | 5.85652 | 37912 ft | 504 kts | 358° |
| 2026-05-05 04:49 | 62.29736 | 5.86447 | 37911 ft | 504 kts | 358° |
| 2026-05-05 04:49 | 62.36743 | 5.87244 | 37905 ft | 504 kts | 358° |
| 2026-05-05 04:50 | 62.43756 | 5.88042 | 37888 ft | 504 kts | 358° |
| 2026-05-05 04:50 | 62.50748 | 5.88830 | 37885 ft | 503 kts | 358° |
| 2026-05-05 04:51 | 62.57696 | 5.89604 | 37883 ft | 503 kts | 358° |
| 2026-05-05 04:51 | 62.64676 | 5.90310 | 37883 ft | 502 kts | 358° |
| 2026-05-05 04:52 | 62.71655 | 5.91009 | 37904 ft | 502 kts | 358° |
| 2026-05-05 04:52 | 62.78635 | 5.91659 | 37880 ft | 502 kts | 358° |
| 2026-05-05 04:53 | 62.85611 | 5.92303 | 37884 ft | 502 kts | 358° |
| 2026-05-05 04:53 | 62.92548 | 5.92945 | 37882 ft | 502 kts | 358° |
| 2026-05-05 04:54 | 62.99526 | 5.93593 | 37887 ft | 502 kts | 358° |
| 2026-05-05 04:54 | 63.06502 | 5.94198 | 37875 ft | 501 kts | 358° |
| 2026-05-05 04:55 | 63.13466 | 5.94769 | 37873 ft | 501 kts | 358° |
| 2026-05-05 04:55 | 63.20439 | 5.95342 | 37873 ft | 501 kts | 358° |
| 2026-05-05 04:56 | 63.27361 | 5.95914 | 37865 ft | 501 kts | 358° |
| 2026-05-05 04:56 | 63.34326 | 5.96474 | 37869 ft | 501 kts | 358° |
| 2026-05-05 04:57 | 63.41288 | 5.96984 | 37859 ft | 500 kts | 358° |
| 2026-05-05 04:57 | 63.48245 | 5.97489 | 37859 ft | 500 kts | 358° |
| 2026-05-05 04:58 | 63.55155 | 5.97992 | 37853 ft | 500 kts | 358° |
| 2026-05-05 04:58 | 63.62111 | 5.98500 | 37878 ft | 500 kts | 358° |
| 2026-05-05 04:59 | 63.69063 | 5.98948 | 37845 ft | 500 kts | 358° |
| 2026-05-05 04:59 | 63.76021 | 5.99375 | 37843 ft | 500 kts | 358° |
| 2026-05-05 05:00 | 63.82976 | 5.99804 | 37844 ft | 500 kts | 358° |
| 2026-05-05 05:00 | 63.89887 | 6.00237 | 37840 ft | 500 kts | 358° |
| 2026-05-05 05:01 | 63.96841 | 6.00648 | 37840 ft | 500 kts | 358° |
| 2026-05-05 05:01 | 64.03791 | 6.01009 | 37831 ft | 500 kts | 358° |
| 2026-05-05 05:02 | 64.10746 | 6.01369 | 37833 ft | 500 kts | 358° |
| 2026-05-05 05:02 | 64.17702 | 6.01732 | 37827 ft | 500 kts | 358° |
| 2026-05-05 05:03 | 64.24613 | 6.02092 | 37831 ft | 500 kts | 358° |
| 2026-05-05 05:03 | 64.31566 | 6.02386 | 37825 ft | 500 kts | 358° |
| 2026-05-05 05:04 | 64.38520 | 6.02668 | 37809 ft | 500 kts | 358° |
| 2026-05-05 05:04 | 64.45474 | 6.02950 | 37816 ft | 500 kts | 358° |
| 2026-05-05 05:05 | 64.52377 | 6.03233 | 37815 ft | 500 kts | 358° |
| 2026-05-05 05:05 | 64.59329 | 6.03520 | 37807 ft | 500 kts | 358° |
| 2026-05-05 05:06 | 64.66287 | 6.03809 | 37798 ft | 500 kts | 358° |
| 2026-05-05 05:06 | 64.73236 | 6.04099 | 37794 ft | 500 kts | 358° |
| 2026-05-05 05:07 | 64.80194 | 6.04391 | 37805 ft | 500 kts | 358° |
| 2026-05-05 05:07 | 64.87100 | 6.04679 | 37813 ft | 500 kts | 358° |
| 2026-05-05 05:08 | 64.94055 | 6.04924 | 37792 ft | 500 kts | 358° |
| 2026-05-05 05:08 | 65.01011 | 6.05165 | 37788 ft | 500 kts | 358° |
| 2026-05-05 05:09 | 65.07963 | 6.05408 | 37789 ft | 500 kts | 358° |
| 2026-05-05 05:09 | 65.14872 | 6.05652 | 37785 ft | 500 kts | 358° |
| 2026-05-05 05:10 | 65.21823 | 6.05873 | 37789 ft | 500 kts | 358° |
| 2026-05-05 05:10 | 65.28777 | 6.06050 | 37785 ft | 500 kts | 358° |
| 2026-05-05 05:11 | 65.35733 | 6.06228 | 37782 ft | 500 kts | 358° |
| 2026-05-05 05:11 | 65.42686 | 6.06411 | 37777 ft | 500 kts | 358° |
| 2026-05-05 05:12 | 65.49596 | 6.06595 | 37785 ft | 500 kts | 358° |
| 2026-05-05 05:12 | 65.56548 | 6.06751 | 37768 ft | 500 kts | 358° |
| 2026-05-05 05:13 | 65.63498 | 6.06896 | 37768 ft | 500 kts | 358° |
| 2026-05-05 05:13 | 65.70449 | 6.07040 | 37770 ft | 500 kts | 358° |
| 2026-05-05 05:14 | 65.77404 | 6.07185 | 37759 ft | 500 kts | 358° |
| 2026-05-05 05:14 | 65.83180 | 6.07301 | 37770 ft | 499 kts | 358° |
| 2026-05-05 05:15 | 65.91253 | 6.07425 | 37762 ft | 499 kts | 358° |
| 2026-05-05 05:15 | 65.98197 | 6.07529 | 37766 ft | 499 kts | 358° |
| 2026-05-05 05:16 | 66.03964 | 6.07615 | 37762 ft | 499 kts | 358° |
| 2026-05-05 05:16 | 66.10906 | 6.07724 | 37764 ft | 499 kts | 359° |
| 2026-05-05 05:17 | 66.18974 | 6.07813 | 37750 ft | 498 kts | 358° |
| 2026-05-05 05:17 | 66.24737 | 6.07849 | 37750 ft | 498 kts | 358° |
| 2026-05-05 05:18 | 66.31653 | 6.07859 | 37744 ft | 497 kts | 358° |
| 2026-05-05 05:18 | 66.38570 | 6.07867 | 37742 ft | 497 kts | 358° |
| 2026-05-05 05:19 | 66.45487 | 6.07879 | 37759 ft | 497 kts | 358° |
| 2026-05-05 05:19 | 66.52390 | 6.07869 | 37739 ft | 496 kts | 358° |
| 2026-05-05 05:20 | 66.59244 | 6.07854 | 37738 ft | 495 kts | 359° |
| 2026-05-05 05:20 | 66.66133 | 6.07837 | 37738 ft | 495 kts | 359° |
| 2026-05-05 05:21 | 66.73029 | 6.07815 | 37736 ft | 496 kts | 359° |
| 2026-05-05 05:21 | 66.79927 | 6.07796 | 37736 ft | 495 kts | 359° |
| 2026-05-05 05:22 | 66.86807 | 6.07761 | 37737 ft | 494 kts | 358° |
| 2026-05-05 05:22 | 66.93633 | 6.07724 | 37733 ft | 494 kts | 358° |
| 2026-05-05 05:23 | 67.00506 | 6.07673 | 37733 ft | 494 kts | 358° |
| 2026-05-05 05:23 | 67.07379 | 6.07619 | 37728 ft | 494 kts | 358° |
| 2026-05-05 05:24 | 67.14255 | 6.07567 | 37726 ft | 493 kts | 358° |
| 2026-05-05 05:24 | 67.21104 | 6.07487 | 37724 ft | 492 kts | 358° |
| 2026-05-05 05:25 | 67.27911 | 6.07394 | 37725 ft | 492 kts | 358° |
| 2026-05-05 05:25 | 67.34763 | 6.07298 | 37721 ft | 492 kts | 359° |
| 2026-05-05 05:26 | 67.41605 | 6.07208 | 37721 ft | 492 kts | 358° |
| 2026-05-05 05:26 | 67.48451 | 6.07104 | 37716 ft | 492 kts | 358° |
| 2026-05-05 05:27 | 67.55246 | 6.06980 | 37717 ft | 491 kts | 359° |
| 2026-05-05 05:27 | 67.65504 | 6.06774 | 37715 ft | 492 kts | 358° |
| 2026-05-05 05:28 | 67.72339 | 6.06655 | 37708 ft | 491 kts | 359° |
| 2026-05-05 05:28 | 67.79176 | 6.06522 | 37708 ft | 491 kts | 359° |
| 2026-05-05 05:29 | 67.85968 | 6.06383 | 37710 ft | 492 kts | 358° |
| 2026-05-05 05:29 | 67.92802 | 6.06255 | 37710 ft | 492 kts | 359° |
| 2026-05-05 05:30 | 67.99638 | 6.06135 | 37710 ft | 491 kts | 358° |
| 2026-05-05 05:30 | 68.06474 | 6.06013 | 37722 ft | 491 kts | 359° |
| 2026-05-05 05:31 | 68.13268 | 6.05842 | 37713 ft | 491 kts | 358° |
| 2026-05-05 05:31 | 68.20093 | 6.05636 | 37714 ft | 491 kts | 358° |
| 2026-05-05 05:32 | 68.26914 | 6.05434 | 37715 ft | 491 kts | 358° |
| 2026-05-05 05:32 | 68.33742 | 6.05227 | 37712 ft | 491 kts | 359° |
| 2026-05-05 05:33 | 68.40572 | 6.05016 | 37710 ft | 490 kts | 358° |
| 2026-05-05 05:33 | 68.47349 | 6.04782 | 37712 ft | 490 kts | 358° |
| 2026-05-05 05:34 | 68.54177 | 6.04522 | 37710 ft | 491 kts | 359° |
| 2026-05-05 05:34 | 68.60997 | 6.04260 | 37711 ft | 491 kts | 358° |
| 2026-05-05 05:35 | 68.67823 | 6.03998 | 37710 ft | 490 kts | 359° |
| 2026-05-05 05:35 | 68.74647 | 6.03729 | 37710 ft | 490 kts | 359° |
| 2026-05-05 05:36 | 68.81426 | 6.03427 | 37709 ft | 491 kts | 358° |
| 2026-05-05 05:36 | 68.88251 | 6.03105 | 37710 ft | 491 kts | 359° |
| 2026-05-05 05:37 | 68.95080 | 6.02785 | 37707 ft | 490 kts | 359° |
| 2026-05-05 05:37 | 69.01902 | 6.02465 | 37707 ft | 490 kts | 358° |
| 2026-05-05 05:38 | 69.08674 | 6.02145 | 37712 ft | 490 kts | 358° |
| 2026-05-05 05:38 | 69.15492 | 6.01777 | 37715 ft | 491 kts | 359° |
| 2026-05-05 05:39 | 69.22308 | 6.01377 | 37715 ft | 490 kts | 359° |
| 2026-05-05 05:39 | 69.29119 | 6.00979 | 37719 ft | 489 kts | 359° |
| 2026-05-05 05:40 | 69.35929 | 6.00575 | 37716 ft | 489 kts | 359° |
| 2026-05-05 05:40 | 69.42694 | 6.00167 | 37720 ft | 490 kts | 359° |
| 2026-05-05 05:41 | 69.49498 | 5.99709 | 37717 ft | 489 kts | 359° |
| 2026-05-05 05:41 | 69.56302 | 5.99235 | 37712 ft | 489 kts | 359° |
| 2026-05-05 05:42 | 69.63105 | 5.98761 | 37715 ft | 488 kts | 359° |
| 2026-05-05 05:42 | 69.69861 | 5.98291 | 37719 ft | 489 kts | 359° |
| 2026-05-05 05:43 | 69.76663 | 5.97818 | 37719 ft | 490 kts | 359° |
| 2026-05-05 05:43 | 69.83462 | 5.97277 | 37721 ft | 489 kts | 359° |
| 2026-05-05 05:44 | 69.90259 | 5.96718 | 37722 ft | 488 kts | 359° |
| 2026-05-05 05:44 | 69.97061 | 5.96160 | 37724 ft | 489 kts | 359° |
| 2026-05-05 05:45 | 70.03812 | 5.95609 | 37724 ft | 489 kts | 359° |
| 2026-05-05 05:45 | 70.10611 | 5.95055 | 37720 ft | 489 kts | 359° |
| 2026-05-05 05:46 | 70.17398 | 5.94406 | 37724 ft | 487 kts | 358° |
| 2026-05-05 05:46 | 70.24139 | 5.93747 | 37733 ft | 488 kts | 359° |
| 2026-05-05 05:47 | 70.30922 | 5.93090 | 37736 ft | 488 kts | 359° |
| 2026-05-05 05:47 | 70.37702 | 5.92422 | 37735 ft | 488 kts | 359° |
| 2026-05-05 05:48 | 70.44478 | 5.91748 | 37736 ft | 487 kts | 358° |
| 2026-05-05 05:48 | 70.51260 | 5.90998 | 37742 ft | 487 kts | 358° |
| 2026-05-05 05:49 | 70.57982 | 5.90231 | 37746 ft | 487 kts | 359° |
| 2026-05-05 05:49 | 70.64748 | 5.89435 | 37745 ft | 487 kts | 359° |
| 2026-05-05 05:50 | 70.71513 | 5.88629 | 37752 ft | 486 kts | 358° |
| 2026-05-05 05:50 | 70.78290 | 5.87847 | 37752 ft | 487 kts | 358° |
| 2026-05-05 05:51 | 70.85055 | 5.87006 | 37769 ft | 487 kts | 359° |
| 2026-05-05 05:51 | 70.91771 | 5.86107 | 37771 ft | 486 kts | 359° |
| 2026-05-05 05:52 | 70.98522 | 5.85182 | 37771 ft | 486 kts | 359° |
| 2026-05-05 05:52 | 71.05283 | 5.84273 | 37772 ft | 486 kts | 359° |
| 2026-05-05 05:53 | 71.12047 | 5.83376 | 37793 ft | 487 kts | 359° |
| 2026-05-05 05:53 | 71.18803 | 5.82456 | 37800 ft | 487 kts | 359° |
| 2026-05-05 05:54 | 71.25517 | 5.81520 | 37813 ft | 486 kts | 359° |
| 2026-05-05 05:54 | 71.32274 | 5.80591 | 37811 ft | 486 kts | 359° |
| 2026-05-05 05:55 | 71.39038 | 5.79680 | 37815 ft | 487 kts | 359° |
| 2026-05-05 05:55 | 71.45797 | 5.78760 | 37811 ft | 486 kts | 358° |
| 2026-05-05 05:56 | 71.52552 | 5.77771 | 37823 ft | 486 kts | 359° |
| 2026-05-05 05:56 | 71.59259 | 5.76764 | 37825 ft | 485 kts | 359° |
| 2026-05-05 05:57 | 71.66019 | 5.75772 | 37838 ft | 486 kts | 359° |
| 2026-05-05 05:57 | 71.72757 | 5.74775 | 37841 ft | 485 kts | 358° |
| 2026-05-05 05:58 | 71.79486 | 5.73744 | 37847 ft | 484 kts | 359° |
| 2026-05-05 05:58 | 71.86168 | 5.72703 | 37843 ft | 483 kts | 359° |
| 2026-05-05 05:59 | 71.92898 | 5.71641 | 37857 ft | 484 kts | 358° |
| 2026-05-05 05:59 | 71.99620 | 5.70560 | 37856 ft | 484 kts | 358° |
| 2026-05-05 06:00 | 72.06340 | 5.69438 | 37870 ft | 483 kts | 359° |
| 2026-05-05 06:00 | 72.13013 | 5.68322 | 37878 ft | 482 kts | 359° |
| 2026-05-05 06:01 | 72.19731 | 5.67231 | 37886 ft | 484 kts | 358° |
| 2026-05-05 06:01 | 72.26446 | 5.66096 | 37891 ft | 484 kts | 358° |
| 2026-05-05 06:02 | 72.33169 | 5.64926 | 37901 ft | 483 kts | 360° |
| 2026-05-05 06:02 | 72.39845 | 5.63780 | 37896 ft | 483 kts | 359° |
| 2026-05-05 06:03 | 72.46564 | 5.62655 | 37913 ft | 484 kts | 359° |
| 2026-05-05 06:03 | 72.53284 | 5.61518 | 37901 ft | 484 kts | 359° |
| 2026-05-05 06:04 | 72.60000 | 5.60301 | 37915 ft | 482 kts | 359° |
| 2026-05-05 06:04 | 72.66710 | 5.59082 | 37919 ft | 482 kts | 359° |
| 2026-05-05 06:05 | 72.73368 | 5.57904 | 37919 ft | 483 kts | 358° |
| 2026-05-05 06:05 | 72.80074 | 5.56693 | 37939 ft | 483 kts | 359° |
| 2026-05-05 06:06 | 72.86778 | 5.55441 | 37924 ft | 482 kts | 359° |
| 2026-05-05 06:06 | 72.93486 | 5.54197 | 37931 ft | 482 kts | 359° |
| 2026-05-05 06:07 | 73.00198 | 5.53000 | 37936 ft | 484 kts | 359° |
| 2026-05-05 06:07 | 73.06866 | 5.51801 | 37962 ft | 484 kts | 359° |
| 2026-05-05 06:08 | 73.13583 | 5.50548 | 37947 ft | 482 kts | 359° |
| 2026-05-05 06:08 | 73.20291 | 5.49326 | 37958 ft | 483 kts | 358° |
| 2026-05-05 06:09 | 73.27009 | 5.48141 | 37967 ft | 484 kts | 359° |
| 2026-05-05 06:09 | 73.33732 | 5.46959 | 37979 ft | 484 kts | 359° |
| 2026-05-05 06:10 | 73.40411 | 5.45744 | 37970 ft | 483 kts | 359° |
| 2026-05-05 06:10 | 73.47127 | 5.44527 | 37984 ft | 483 kts | 358° |
| 2026-05-05 06:11 | 73.53846 | 5.43344 | 37987 ft | 484 kts | 359° |
| 2026-05-05 06:11 | 73.60560 | 5.42143 | 37989 ft | 484 kts | 359° |
| 2026-05-05 06:12 | 73.67280 | 5.40938 | 37988 ft | 483 kts | 359° |
| 2026-05-05 06:12 | 73.73959 | 5.39759 | 37998 ft | 483 kts | 358° |
| 2026-05-05 06:13 | 73.80683 | 5.38608 | 38001 ft | 485 kts | 359° |
| 2026-05-05 06:13 | 73.87417 | 5.37460 | 38011 ft | 485 kts | 359° |
| 2026-05-05 06:14 | 73.94146 | 5.36281 | 38003 ft | 483 kts | 359° |
| 2026-05-05 06:14 | 74.00739 | 5.34973 | 38003 ft | 472 kts | 358° |
| 2026-05-05 06:15 | 74.07161 | 5.33536 | 38024 ft | 447 kts | 358° |
| 2026-05-05 06:15 | 74.10214 | 5.32950 | 38022 ft | 432 kts | 359° |
| 2026-05-05 06:15 | 74.13159 | 5.32419 | 38020 ft | 416 kts | 0° |
| 2026-05-05 06:16 | 74.16000 | 5.31895 | 38032 ft | 401 kts | 359° |
| 2026-05-05 06:16 | 74.18732 | 5.31346 | 38025 ft | 386 kts | 360° |
| 2026-05-05 06:16 | 74.21358 | 5.30822 | 38024 ft | 370 kts | 359° |
| 2026-05-05 06:16 | 74.23872 | 5.30321 | 38024 ft | 354 kts | 359° |
| 2026-05-05 06:17 | 74.26270 | 5.29765 | 38019 ft | 337 kts | 0° |
| 2026-05-05 06:17 | 74.28522 | 5.29259 | 38015 ft | 320 kts | 358° |
| 2026-05-05 06:17 | 74.30670 | 5.28806 | 38014 ft | 299 kts | 359° |
| 2026-05-05 06:17 | 74.32676 | 5.28351 | 38014 ft | 278 kts | 359° |
| 2026-05-05 06:18 | 74.34521 | 5.27868 | 37966 ft | 253 kts | 0° |
| 2026-05-05 06:18 | 74.36165 | 5.27435 | 37900 ft | 220 kts | 0° |
| 2026-05-05 06:18 | 74.37590 | 5.26315 | 36875 ft | 210 kts | 317° |
| 2026-05-05 06:18 | 74.38446 | 5.23402 | 31432 ft | 100 kts | 46° |
| 2026-05-05 06:19 | 74.38690 | 5.22403 | 22788 ft | 40 kts | 359° |
| 2026-05-05 06:19 | 74.38685 | 5.22398 | 14438 ft | 43 kts | 39° |
| 2026-05-05 06:19 | 74.38569 | 5.22302 | 7024 ft | 30 kts | 10° |
| 2026-05-05 06:19 | 74.38429 | 5.21983 | 419 ft | 22 kts | 354° |
| 2026-05-05 06:20 | 74.38488 | 5.22278 | 9 ft | 9 kts | 282° |
| 2026-05-05 06:20 | 74.38530 | 5.22311 | 10 ft | 4 kts | 282° |
| 2026-05-05 06:20 | 74.38548 | 5.22326 | 10 ft | 1 kts | 282° |
| 2026-05-05 06:20 | 74.38544 | 5.22322 | 10 ft | 2 kts | 282° |
| 2026-05-05 06:21 | 74.38525 | 5.22306 | 9 ft | 4 kts | 282° |
| 2026-05-05 06:21 | 74.38495 | 5.22282 | 9 ft | 5 kts | 282° |
| 2026-05-05 06:21 | 74.38456 | 5.22250 | 12 ft | 6 kts | 282° |
| 2026-05-05 06:21 | 74.38406 | 5.22207 | 13 ft | 9 kts | 283° |
| 2026-05-05 06:22 | 74.38344 | 5.22155 | 8 ft | 9 kts | 283° |
| 2026-05-05 06:22 | 74.38268 | 5.22091 | 10 ft | 12 kts | 283° |
| 2026-05-05 06:22 | 74.38181 | 5.22017 | 9 ft | 13 kts | 282° |
| 2026-05-05 06:22 | 74.38091 | 5.21943 | 10 ft | 13 kts | 283° |
| 2026-05-05 06:23 | 74.38020 | 5.21883 | 11 ft | 9 kts | 283° |
| 2026-05-05 06:23 | 74.37931 | 5.21804 | 10 ft | 17 kts | 283° |
| 2026-05-05 06:23 | 74.37819 | 5.21711 | 10 ft | 17 kts | 283° |
| 2026-05-05 06:23 | 74.37703 | 5.21608 | 10 ft | 17 kts | 283° |
| 2026-05-05 06:24 | 74.37581 | 5.21494 | 9 ft | 19 kts | 284° |
| 2026-05-05 06:24 | 74.37463 | 5.21383 | 9 ft | 18 kts | 284° |
| 2026-05-05 06:24 | 74.37335 | 5.21261 | 9 ft | 22 kts | 284° |
| 2026-05-05 06:24 | 74.37174 | 5.21101 | 10 ft | 24 kts | 285° |
| 2026-05-05 06:25 | 74.37017 | 5.20947 | 9 ft | 23 kts | 285° |
| 2026-05-05 06:25 | 74.36871 | 5.20799 | 10 ft | 21 kts | 285° |
| 2026-05-05 06:25 | 74.36728 | 5.20655 | 10 ft | 22 kts | 285° |
| 2026-05-05 06:25 | 74.36580 | 5.20501 | 10 ft | 21 kts | 285° |
| 2026-05-05 06:26 | 74.36432 | 5.20346 | 10 ft | 22 kts | 285° |
| 2026-05-05 06:26 | 74.36278 | 5.20189 | 10 ft | 23 kts | 285° |
| 2026-05-05 06:26 | 74.36115 | 5.20024 | 9 ft | 25 kts | 285° |
| 2026-05-05 06:26 | 74.35963 | 5.19869 | 10 ft | 19 kts | 285° |
| 2026-05-05 06:27 | 74.35845 | 5.19745 | 10 ft | 17 kts | 285° |
| 2026-05-05 06:27 | 74.35599 | 5.19498 | 9 ft | 18 kts | 285° |
| 2026-05-05 06:27 | 74.35492 | 5.19386 | 10 ft | 16 kts | 285° |
| 2026-05-05 06:28 | 74.35412 | 5.19307 | 9 ft | 11 kts | 285° |
| 2026-05-05 06:28 | 74.35338 | 5.19231 | 10 ft | 11 kts | 285° |
| 2026-05-05 06:28 | 74.35257 | 5.19149 | 10 ft | 11 kts | 285° |
| 2026-05-05 06:28 | 74.35181 | 5.19071 | 9 ft | 12 kts | 285° |
| 2026-05-05 06:29 | 74.35108 | 5.18994 | 10 ft | 10 kts | 286° |
| 2026-05-05 06:29 | 74.35043 | 5.18926 | 9 ft | 11 kts | 285° |
| 2026-05-05 06:29 | 74.34970 | 5.18848 | 9 ft | 9 kts | 286° |
| 2026-05-05 06:29 | 74.34896 | 5.18769 | 10 ft | 11 kts | 286° |
| 2026-05-05 06:30 | 74.34811 | 5.18674 | 10 ft | 13 kts | 287° |
| 2026-05-05 06:30 | 74.34731 | 5.18583 | 10 ft | 14 kts | 287° |
| 2026-05-05 06:30 | 74.34631 | 5.18476 | 10 ft | 14 kts | 285° |
| 2026-05-05 06:30 | 74.34546 | 5.18389 | 9 ft | 11 kts | 285° |
| 2026-05-05 06:31 | 74.34473 | 5.18312 | 12 ft | 14 kts | 286° |
| 2026-05-05 06:31 | 74.34376 | 5.18208 | 9 ft | 15 kts | 286° |
| 2026-05-05 06:31 | 74.34288 | 5.18112 | 10 ft | 12 kts | 286° |
| 2026-05-05 06:31 | 74.34209 | 5.18024 | 10 ft | 12 kts | 286° |
| 2026-05-05 06:32 | 74.34131 | 5.17938 | 9 ft | 11 kts | 287° |
| 2026-05-05 06:32 | 74.34056 | 5.17855 | 10 ft | 12 kts | 287° |
| 2026-05-05 06:32 | 74.33967 | 5.17758 | 9 ft | 15 kts | 287° |
| 2026-05-05 06:32 | 74.33867 | 5.17647 | 10 ft | 16 kts | 287° |
| 2026-05-05 06:33 | 74.33756 | 5.17516 | 10 ft | 18 kts | 287° |
| 2026-05-05 06:33 | 74.33645 | 5.17389 | 10 ft | 16 kts | 287° |
| 2026-05-05 06:33 | 74.33533 | 5.17263 | 10 ft | 17 kts | 287° |
| 2026-05-05 06:33 | 74.33399 | 5.17117 | 10 ft | 20 kts | 287° |
| 2026-05-05 06:34 | 74.33268 | 5.16973 | 9 ft | 20 kts | 287° |
| 2026-05-05 06:34 | 74.33139 | 5.16826 | 10 ft | 21 kts | 287° |
| 2026-05-05 06:34 | 74.32988 | 5.16657 | 10 ft | 24 kts | 287° |
| 2026-05-05 06:34 | 74.32834 | 5.16483 | 10 ft | 22 kts | 287° |
| 2026-05-05 06:35 | 74.32701 | 5.16336 | 9 ft | 19 kts | 286° |
| 2026-05-05 06:35 | 74.32569 | 5.16188 | 9 ft | 21 kts | 287° |
| 2026-05-05 06:35 | 74.32445 | 5.16046 | 9 ft | 16 kts | 287° |
| 2026-05-05 06:35 | 74.32358 | 5.15947 | 10 ft | 10 kts | 287° |
| 2026-05-05 06:36 | 74.32288 | 5.15863 | 11 ft | 12 kts | 288° |
| 2026-05-05 06:36 | 74.32213 | 5.15773 | 9 ft | 11 kts | 288° |
| 2026-05-05 06:36 | 74.32132 | 5.15677 | 9 ft | 14 kts | 288° |
| 2026-05-05 06:36 | 74.32063 | 5.15593 | 9 ft | 11 kts | 289° |
| 2026-05-05 06:37 | 74.31997 | 5.15510 | 10 ft | 10 kts | 289° |
| 2026-05-05 06:37 | 74.31928 | 5.15423 | 10 ft | 10 kts | 289° |
| 2026-05-05 06:37 | 74.31863 | 5.15341 | 9 ft | 8 kts | 289° |
| 2026-05-05 06:37 | 74.31796 | 5.15253 | 10 ft | 13 kts | 289° |
| 2026-05-05 06:38 | 74.31700 | 5.15126 | 10 ft | 17 kts | 290° |
| 2026-05-05 06:38 | 74.31584 | 5.14976 | 9 ft | 18 kts | 289° |
| 2026-05-05 06:38 | 74.31463 | 5.14821 | 10 ft | 18 kts | 289° |
| 2026-05-05 06:38 | 74.31326 | 5.14645 | 11 ft | 22 kts | 289° |
| 2026-05-05 06:39 | 74.31193 | 5.14473 | 9 ft | 19 kts | 289° |
| 2026-05-05 06:39 | 74.31068 | 5.14315 | 11 ft | 17 kts | 289° |
| 2026-05-05 06:39 | 74.30962 | 5.14180 | 9 ft | 18 kts | 289° |
| 2026-05-05 06:39 | 74.30835 | 5.14013 | 10 ft | 19 kts | 290° |
| 2026-05-05 06:40 | 74.30722 | 5.13860 | 10 ft | 16 kts | 290° |
| 2026-05-05 06:40 | 74.30626 | 5.13729 | 11 ft | 16 kts | 290° |
| 2026-05-05 06:40 | 74.30516 | 5.13580 | 10 ft | 18 kts | 290° |
| 2026-05-05 06:40 | 74.30386 | 5.13402 | 10 ft | 23 kts | 290° |
| 2026-05-05 06:41 | 74.30226 | 5.13182 | 10 ft | 26 kts | 291° |
| 2026-05-05 06:41 | 74.30064 | 5.12952 | 10 ft | 25 kts | 291° |
| 2026-05-05 06:41 | 74.29900 | 5.12723 | 9 ft | 27 kts | 290° |
| 2026-05-05 06:41 | 74.29732 | 5.12486 | 11 ft | 24 kts | 291° |
| 2026-05-05 06:42 | 74.29575 | 5.12268 | 9 ft | 25 kts | 291° |
| 2026-05-05 06:42 | 74.29408 | 5.12030 | 8 ft | 28 kts | 291° |
| 2026-05-05 06:42 | 74.29225 | 5.11764 | 9 ft | 29 kts | 291° |
| 2026-05-05 06:42 | 74.29054 | 5.11518 | 10 ft | 24 kts | 291° |
| 2026-05-05 06:43 | 74.28907 | 5.11309 | 10 ft | 23 kts | 291° |
| 2026-05-05 06:43 | 74.28759 | 5.11097 | 8 ft | 24 kts | 291° |
| 2026-05-05 06:43 | 74.28606 | 5.10873 | 10 ft | 23 kts | 291° |
| 2026-05-05 06:43 | 74.28462 | 5.10662 | 9 ft | 22 kts | 292° |
| 2026-05-05 06:44 | 74.28329 | 5.10462 | 8 ft | 21 kts | 292° |
| 2026-05-05 06:44 | 74.28192 | 5.10251 | 9 ft | 22 kts | 293° |
| 2026-05-05 06:44 | 74.28043 | 5.10018 | 9 ft | 26 kts | 292° |
| 2026-05-05 06:44 | 74.27893 | 5.09785 | 11 ft | 21 kts | 293° |
| 2026-05-05 06:45 | 74.27758 | 5.09574 | 11 ft | 21 kts | 293° |
| 2026-05-05 06:45 | 74.27616 | 5.09353 | 11 ft | 23 kts | 293° |
| 2026-05-05 06:45 | 74.27466 | 5.09124 | 9 ft | 23 kts | 292° |
| 2026-05-05 06:45 | 74.27316 | 5.08896 | 9 ft | 24 kts | 292° |
| 2026-05-05 06:46 | 74.27168 | 5.08667 | 10 ft | 22 kts | 292° |
| 2026-05-05 06:46 | 74.27032 | 5.08456 | 11 ft | 20 kts | 293° |
| 2026-05-05 06:46 | 74.26914 | 5.08274 | 10 ft | 17 kts | 292° |
| 2026-05-05 06:46 | 74.26781 | 5.08069 | 9 ft | 22 kts | 292° |
| 2026-05-05 06:47 | 74.26641 | 5.07853 | 11 ft | 22 kts | 292° |
| 2026-05-05 06:47 | 74.26496 | 5.07627 | 9 ft | 23 kts | 292° |
| 2026-05-05 06:47 | 74.26351 | 5.07401 | 10 ft | 22 kts | 292° |
| 2026-05-05 06:47 | 74.26220 | 5.07195 | 10 ft | 19 kts | 293° |
| 2026-05-05 06:48 | 74.26096 | 5.06998 | 11 ft | 19 kts | 293° |
| 2026-05-05 06:48 | 74.25981 | 5.06815 | 9 ft | 18 kts | 293° |
| 2026-05-05 06:48 | 74.25877 | 5.06646 | 10 ft | 18 kts | 293° |
| 2026-05-05 06:48 | 74.25746 | 5.06444 | 9 ft | 22 kts | 293° |
| 2026-05-05 06:49 | 74.25601 | 5.06217 | 10 ft | 23 kts | 293° |
| 2026-05-05 06:49 | 74.25455 | 5.05982 | 10 ft | 23 kts | 293° |
| 2026-05-05 06:49 | 74.25307 | 5.05741 | 9 ft | 23 kts | 294° |
| 2026-05-05 06:49 | 74.25149 | 5.05485 | 10 ft | 25 kts | 294° |
| 2026-05-05 06:50 | 74.24998 | 5.05241 | 10 ft | 23 kts | 293° |
| 2026-05-05 06:50 | 74.24871 | 5.05040 | 9 ft | 16 kts | 293° |
| 2026-05-05 06:50 | 74.24769 | 5.04873 | 11 ft | 17 kts | 294° |
| 2026-05-05 06:50 | 74.24668 | 5.04706 | 10 ft | 14 kts | 294° |
| 2026-05-05 06:51 | 74.24581 | 5.04555 | 10 ft | 13 kts | 295° |
| 2026-05-05 06:51 | 74.24489 | 5.04396 | 9 ft | 13 kts | 295° |
| 2026-05-05 06:51 | 74.24419 | 5.04277 | 10 ft | 10 kts | 295° |
| 2026-05-05 06:51 | 74.24349 | 5.04158 | 10 ft | 13 kts | 295° |
| 2026-05-05 06:52 | 74.24265 | 5.04011 | 10 ft | 16 kts | 295° |
| 2026-05-05 06:52 | 74.24160 | 5.03832 | 12 ft | 16 kts | 295° |
| 2026-05-05 06:52 | 74.24050 | 5.03641 | 11 ft | 18 kts | 295° |
| 2026-05-05 06:52 | 74.23929 | 5.03430 | 10 ft | 18 kts | 295° |
| 2026-05-05 06:53 | 74.23814 | 5.03226 | 10 ft | 17 kts | 295° |
| 2026-05-05 06:53 | 74.23721 | 5.03058 | 10 ft | 13 kts | 296° |
| 2026-05-05 06:53 | 74.23628 | 5.02884 | 10 ft | 17 kts | 297° |
| 2026-05-05 06:53 | 74.23541 | 5.02717 | 10 ft | 15 kts | 297° |
| 2026-05-05 06:54 | 74.23439 | 5.02522 | 10 ft | 18 kts | 297° |
| 2026-05-05 06:54 | 74.23344 | 5.02345 | 9 ft | 16 kts | 297° |
| 2026-05-05 06:54 | 74.23237 | 5.02138 | 10 ft | 18 kts | 297° |
| 2026-05-05 06:54 | 74.23127 | 5.01930 | 10 ft | 18 kts | 297° |
| 2026-05-05 06:55 | 74.23011 | 5.01699 | 10 ft | 20 kts | 299° |
| 2026-05-05 06:55 | 74.22890 | 5.01455 | 9 ft | 21 kts | 299° |
| 2026-05-05 06:55 | 74.22760 | 5.01184 | 10 ft | 22 kts | 299° |
| 2026-05-05 06:55 | 74.22634 | 5.00923 | 9 ft | 20 kts | 299° |
| 2026-05-05 06:56 | 74.22526 | 5.00693 | 11 ft | 19 kts | 300° |
| 2026-05-05 06:56 | 74.22409 | 5.00436 | 11 ft | 21 kts | 300° |
| 2026-05-05 06:56 | 74.22299 | 5.00197 | 10 ft | 20 kts | 301° |
| 2026-05-05 06:56 | 74.22171 | 4.99916 | 11 ft | 23 kts | 301° |
| 2026-05-05 06:57 | 74.22039 | 4.99623 | 10 ft | 23 kts | 301° |
| 2026-05-05 06:57 | 74.21906 | 4.99324 | 10 ft | 20 kts | 302° |
| 2026-05-05 06:57 | 74.21792 | 4.99064 | 9 ft | 20 kts | 301° |
| 2026-05-05 06:57 | 74.21680 | 4.98809 | 10 ft | 19 kts | 302° |
| 2026-05-05 06:58 | 74.21560 | 4.98531 | 11 ft | 21 kts | 302° |
| 2026-05-05 06:58 | 74.21430 | 4.98236 | 11 ft | 22 kts | 302° |
| 2026-05-05 06:58 | 74.21307 | 4.97950 | 10 ft | 19 kts | 302° |
| 2026-05-05 06:58 | 74.21202 | 4.97707 | 10 ft | 17 kts | 302° |
| 2026-05-05 06:59 | 74.21100 | 4.97468 | 10 ft | 18 kts | 303° |
| 2026-05-05 06:59 | 74.20987 | 4.97195 | 11 ft | 20 kts | 303° |
| 2026-05-05 06:59 | 74.20882 | 4.96943 | 12 ft | 18 kts | 303° |
| 2026-05-05 06:59 | 74.20780 | 4.96700 | 12 ft | 16 kts | 303° |
| 2026-05-05 07:00 | 74.20680 | 4.96457 | 12 ft | 18 kts | 303° |
| 2026-05-05 07:00 | 74.20572 | 4.96196 | 11 ft | 19 kts | 303° |
| 2026-05-05 07:00 | 74.20467 | 4.95945 | 10 ft | 16 kts | 303° |
| 2026-05-05 07:00 | 74.20375 | 4.95727 | 11 ft | 16 kts | 303° |
| 2026-05-05 07:01 | 74.20271 | 4.95481 | 11 ft | 15 kts | 303° |
| 2026-05-05 07:01 | 74.20202 | 4.95316 | 11 ft | 9 kts | 303° |
| 2026-05-05 07:01 | 74.20134 | 4.95153 | 11 ft | 15 kts | 302° |
| 2026-05-05 07:01 | 74.20040 | 4.94932 | 11 ft | 16 kts | 303° |
| 2026-05-05 07:02 | 74.19938 | 4.94689 | 10 ft | 18 kts | 303° |
| 2026-05-05 07:02 | 74.19827 | 4.94417 | 10 ft | 19 kts | 303° |
| 2026-05-05 07:02 | 74.19725 | 4.94167 | 10 ft | 17 kts | 304° |
| 2026-05-05 07:02 | 74.19625 | 4.93919 | 10 ft | 19 kts | 304° |
| 2026-05-05 07:03 | 74.19514 | 4.93639 | 9 ft | 17 kts | 305° |
| 2026-05-05 07:03 | 74.19437 | 4.93441 | 11 ft | 13 kts | 304° |
| 2026-05-05 07:03 | 74.19346 | 4.93215 | 10 ft | 18 kts | 304° |
| 2026-05-05 07:03 | 74.19239 | 4.92948 | 10 ft | 19 kts | 304° |
| 2026-05-05 07:04 | 74.19131 | 4.92680 | 9 ft | 21 kts | 304° |
| 2026-05-05 07:04 | 74.19010 | 4.92377 | 11 ft | 21 kts | 304° |
| 2026-05-05 07:04 | 74.18881 | 4.92057 | 11 ft | 20 kts | 304° |
| 2026-05-05 07:04 | 74.18759 | 4.91755 | 10 ft | 20 kts | 304° |
| 2026-05-05 07:05 | 74.18642 | 4.91465 | 10 ft | 19 kts | 304° |
| 2026-05-05 07:05 | 74.18551 | 4.91241 | 11 ft | 15 kts | 304° |
| 2026-05-05 07:05 | 74.18470 | 4.91038 | 10 ft | 15 kts | 304° |
| 2026-05-05 07:05 | 74.18378 | 4.90806 | 10 ft | 17 kts | 304° |
| 2026-05-05 07:06 | 74.18276 | 4.90546 | 9 ft | 19 kts | 305° |
| 2026-05-05 07:06 | 74.18168 | 4.90263 | 10 ft | 18 kts | 306° |
| 2026-05-05 07:06 | 74.18090 | 4.90059 | 10 ft | 14 kts | 306° |
| 2026-05-05 07:06 | 74.18015 | 4.89863 | 10 ft | 13 kts | 306° |
| 2026-05-05 07:07 | 74.17948 | 4.89684 | 11 ft | 14 kts | 306° |
| 2026-05-05 07:07 | 74.17867 | 4.89471 | 11 ft | 14 kts | 305° |
| 2026-05-05 07:07 | 74.17797 | 4.89287 | 10 ft | 14 kts | 306° |
| 2026-05-05 07:07 | 74.17711 | 4.89062 | 11 ft | 15 kts | 306° |
| 2026-05-05 07:08 | 74.17623 | 4.88828 | 11 ft | 17 kts | 306° |
| 2026-05-05 07:08 | 74.17521 | 4.88553 | 9 ft | 20 kts | 306° |
| 2026-05-05 07:08 | 74.17403 | 4.88240 | 10 ft | 22 kts | 306° |
| 2026-05-05 07:08 | 74.17278 | 4.87906 | 10 ft | 22 kts | 306° |
| 2026-05-05 07:09 | 74.17163 | 4.87601 | 9 ft | 18 kts | 306° |
| 2026-05-05 07:09 | 74.17054 | 4.87316 | 10 ft | 20 kts | 305° |
| 2026-05-05 07:09 | 74.16943 | 4.87028 | 11 ft | 18 kts | 305° |
| 2026-05-05 07:09 | 74.16833 | 4.86742 | 10 ft | 20 kts | 305° |
| 2026-05-05 07:10 | 74.16730 | 4.86470 | 9 ft | 18 kts | 306° |
| 2026-05-05 07:10 | 74.16635 | 4.86216 | 12 ft | 17 kts | 306° |
| 2026-05-05 07:10 | 74.16558 | 4.86010 | 11 ft | 13 kts | 306° |
| 2026-05-05 07:10 | 74.16485 | 4.85817 | 11 ft | 13 kts | 306° |
| 2026-05-05 07:11 | 74.16414 | 4.85628 | 12 ft | 13 kts | 306° |
| 2026-05-05 07:11 | 74.16343 | 4.85440 | 11 ft | 15 kts | 306° |
| 2026-05-05 07:11 | 74.16259 | 4.85216 | 10 ft | 17 kts | 306° |
| 2026-05-05 07:11 | 74.16171 | 4.84982 | 11 ft | 17 kts | 306° |
| 2026-05-05 07:12 | 74.16079 | 4.84732 | 9 ft | 14 kts | 307° |
| 2026-05-05 07:12 | 74.15999 | 4.84516 | 9 ft | 12 kts | 306° |
| 2026-05-05 07:12 | 74.15924 | 4.84315 | 11 ft | 14 kts | 306° |
| 2026-05-05 07:12 | 74.15850 | 4.84122 | 11 ft | 13 kts | 305° |
| 2026-05-05 07:13 | 74.15786 | 4.83956 | 12 ft | 11 kts | 305° |
| 2026-05-05 07:13 | 74.15722 | 4.83789 | 9 ft | 12 kts | 305° |
| 2026-05-05 07:13 | 74.15657 | 4.83622 | 11 ft | 10 kts | 305° |
| 2026-05-05 07:13 | 74.15606 | 4.83493 | 10 ft | 9 kts | 305° |
| 2026-05-05 07:14 | 74.15542 | 4.83329 | 11 ft | 13 kts | 305° |
| 2026-05-05 07:14 | 74.15475 | 4.83158 | 10 ft | 10 kts | 305° |
| 2026-05-05 07:14 | 74.15421 | 4.83017 | 11 ft | 9 kts | 305° |
| 2026-05-05 07:14 | 74.15360 | 4.82862 | 10 ft | 11 kts | 305° |
| 2026-05-05 07:15 | 74.15289 | 4.82680 | 10 ft | 14 kts | 304° |
| 2026-05-05 07:15 | 74.15218 | 4.82505 | 10 ft | 12 kts | 304° |
| 2026-05-05 07:15 | 74.15154 | 4.82348 | 12 ft | 11 kts | 304° |
| 2026-05-05 07:15 | 74.15080 | 4.82168 | 12 ft | 13 kts | 303° |
| 2026-05-05 07:16 | 74.15014 | 4.82011 | 9 ft | 7 kts | 303° |
| 2026-05-05 07:16 | 74.14956 | 4.81873 | 9 ft | 11 kts | 303° |
| 2026-05-05 07:16 | 74.14876 | 4.81683 | 12 ft | 13 kts | 303° |
| 2026-05-05 07:16 | 74.14806 | 4.81517 | 10 ft | 13 kts | 303° |
| 2026-05-05 07:17 | 74.14731 | 4.81340 | 11 ft | 11 kts | 303° |
| 2026-05-05 07:17 | 74.14671 | 4.81201 | 10 ft | 8 kts | 302° |
| 2026-05-05 07:17 | 74.14612 | 4.81063 | 9 ft | 13 kts | 302° |
| 2026-05-05 07:17 | 74.14545 | 4.80907 | 10 ft | 8 kts | 303° |
| 2026-05-05 07:18 | 74.14485 | 4.80767 | 9 ft | 12 kts | 302° |
| 2026-05-05 07:18 | 74.14417 | 4.80606 | 11 ft | 12 kts | 303° |
| 2026-05-05 07:18 | 74.14357 | 4.80463 | 10 ft | 10 kts | 303° |
| 2026-05-05 07:18 | 74.14297 | 4.80321 | 9 ft | 13 kts | 303° |
| 2026-05-05 07:19 | 74.14215 | 4.80126 | 10 ft | 16 kts | 303° |
| 2026-05-05 07:19 | 74.14124 | 4.79906 | 11 ft | 15 kts | 303° |
| 2026-05-05 07:19 | 74.14055 | 4.79740 | 10 ft | 11 kts | 303° |
| 2026-05-05 07:19 | 74.14000 | 4.79607 | 10 ft | 9 kts | 303° |
| 2026-05-05 07:20 | 74.13947 | 4.79477 | 9 ft | 10 kts | 303° |
| 2026-05-05 07:20 | 74.13881 | 4.79317 | 10 ft | 14 kts | 304° |
| 2026-05-05 07:20 | 74.13805 | 4.79127 | 10 ft | 12 kts | 304° |
| 2026-05-05 07:20 | 74.13715 | 4.78907 | 9 ft | 16 kts | 304° |
| 2026-05-05 07:21 | 74.13624 | 4.78681 | 10 ft | 16 kts | 304° |
| 2026-05-05 07:21 | 74.13530 | 4.78444 | 11 ft | 17 kts | 305° |
| 2026-05-05 07:21 | 74.13429 | 4.78180 | 10 ft | 19 kts | 306° |
| 2026-05-05 07:21 | 74.13317 | 4.77890 | 10 ft | 21 kts | 306° |
| 2026-05-05 07:22 | 74.13213 | 4.77614 | 10 ft | 17 kts | 306° |
| 2026-05-05 07:22 | 74.13108 | 4.77339 | 11 ft | 20 kts | 306° |
| 2026-05-05 07:22 | 74.12992 | 4.77030 | 11 ft | 22 kts | 306° |
| 2026-05-05 07:22 | 74.12869 | 4.76707 | 11 ft | 21 kts | 306° |
| 2026-05-05 07:23 | 74.12760 | 4.76421 | 10 ft | 18 kts | 306° |
| 2026-05-05 07:23 | 74.12666 | 4.76172 | 10 ft | 16 kts | 306° |
| 2026-05-05 07:23 | 74.12575 | 4.75930 | 12 ft | 16 kts | 306° |
| 2026-05-05 07:23 | 74.12489 | 4.75699 | 9 ft | 12 kts | 306° |
| 2026-05-05 07:24 | 74.12414 | 4.75500 | 12 ft | 14 kts | 306° |
| 2026-05-05 07:24 | 74.12356 | 4.75352 | 10 ft | 8 kts | 305° |
| 2026-05-05 07:24 | 74.12307 | 4.75225 | 9 ft | 10 kts | 305° |
| 2026-05-05 07:24 | 74.12244 | 4.75062 | 10 ft | 11 kts | 305° |
| 2026-05-05 07:25 | 74.12185 | 4.74912 | 12 ft | 11 kts | 305° |
| 2026-05-05 07:25 | 74.12132 | 4.74775 | 10 ft | 11 kts | 305° |
| 2026-05-05 07:25 | 74.12060 | 4.74591 | 11 ft | 13 kts | 305° |
| 2026-05-05 07:25 | 74.11980 | 4.74383 | 10 ft | 16 kts | 305° |
| 2026-05-05 07:26 | 74.11892 | 4.74163 | 9 ft | 16 kts | 304° |
| 2026-05-05 07:26 | 74.11795 | 4.73923 | 11 ft | 17 kts | 303° |
| 2026-05-05 07:26 | 74.11698 | 4.73687 | 11 ft | 17 kts | 303° |
| 2026-05-05 07:26 | 74.11615 | 4.73485 | 9 ft | 10 kts | 303° |
| 2026-05-05 07:27 | 74.11559 | 4.73351 | 13 ft | 8 kts | 303° |
| 2026-05-05 07:27 | 74.11490 | 4.73186 | 10 ft | 14 kts | 303° |
| 2026-05-05 07:27 | 74.11388 | 4.72936 | 10 ft | 20 kts | 304° |
| 2026-05-05 07:27 | 74.11287 | 4.72685 | 10 ft | 15 kts | 304° |
| 2026-05-05 07:28 | 74.11208 | 4.72489 | 11 ft | 14 kts | 304° |
| 2026-05-05 07:28 | 74.11136 | 4.72304 | 11 ft | 10 kts | 305° |
| 2026-05-05 07:28 | 74.11088 | 4.72181 | 11 ft | 9 kts | 305° |
| 2026-05-05 07:28 | 74.11026 | 4.72024 | 10 ft | 10 kts | 304° |
| 2026-05-05 07:29 | 74.10954 | 4.71842 | 11 ft | 13 kts | 305° |
| 2026-05-05 07:29 | 74.10878 | 4.71647 | 12 ft | 11 kts | 305° |
| 2026-05-05 07:29 | 74.10812 | 4.71477 | 10 ft | 11 kts | 305° |
| 2026-05-05 07:29 | 74.10752 | 4.71327 | 12 ft | 10 kts | 304° |
| 2026-05-05 07:30 | 74.10682 | 4.71151 | 12 ft | 12 kts | 304° |
| 2026-05-05 07:30 | 74.10592 | 4.70922 | 9 ft | 9 kts | 305° |
| 2026-05-05 07:30 | 74.10503 | 4.70696 | 12 ft | 14 kts | 304° |
| 2026-05-05 07:31 | 74.10443 | 4.70545 | 10 ft | 10 kts | 304° |
| 2026-05-05 07:31 | 74.10381 | 4.70391 | 11 ft | 10 kts | 304° |
| 2026-05-05 07:31 | 74.10308 | 4.70207 | 10 ft | 16 kts | 304° |
| 2026-05-05 07:31 | 74.10204 | 4.69931 | 11 ft | 19 kts | 306° |
| 2026-05-05 07:32 | 74.10086 | 4.69629 | 12 ft | 22 kts | 305° |
| 2026-05-05 07:32 | 74.10001 | 4.69413 | 11 ft | 22 kts | 304° |
| 2026-05-05 07:32 | 74.09874 | 4.69096 | 10 ft | 22 kts | 304° |
| 2026-05-05 07:32 | 74.09748 | 4.68776 | 10 ft | 21 kts | 304° |
| 2026-05-05 07:33 | 74.09640 | 4.68498 | 7 ft | 18 kts | 305° |
| 2026-05-05 07:33 | 74.09505 | 4.68146 | 11 ft | 18 kts | 305° |
| 2026-05-05 07:33 | 74.09425 | 4.67939 | 10 ft | 10 kts | 305° |
| 2026-05-05 07:33 | 74.09372 | 4.67800 | 10 ft | 9 kts | 305° |
| 2026-05-05 07:34 | 74.09305 | 4.67627 | 11 ft | 12 kts | 305° |
| 2026-05-05 07:34 | 74.09262 | 4.67515 | 12 ft | 12 kts | 305° |
| 2026-05-05 07:34 | 74.09191 | 4.67330 | 12 ft | 14 kts | 305° |
| 2026-05-05 07:34 | 74.09104 | 4.67110 | 10 ft | 16 kts | 305° |
| 2026-05-05 07:35 | 74.09008 | 4.66865 | 11 ft | 19 kts | 304° |
| 2026-05-05 07:35 | 74.08897 | 4.66587 | 10 ft | 17 kts | 304° |
| 2026-05-05 07:35 | 74.08781 | 4.66301 | 12 ft | 14 kts | 304° |
| 2026-05-05 07:35 | 74.08705 | 4.66112 | 11 ft | 14 kts | 304° |
| 2026-05-05 07:36 | 74.08609 | 4.65881 | 11 ft | 18 kts | 303° |
| 2026-05-05 07:36 | 74.08541 | 4.65716 | 11 ft | 17 kts | 303° |
| 2026-05-05 07:36 | 74.08436 | 4.65464 | 12 ft | 19 kts | 303° |
| 2026-05-05 07:36 | 74.08325 | 4.65197 | 11 ft | 19 kts | 303° |
| 2026-05-05 07:37 | 74.08201 | 4.64911 | 8 ft | 20 kts | 302° |
| 2026-05-05 07:37 | 74.08085 | 4.64650 | 10 ft | 19 kts | 301° |
| 2026-05-05 07:37 | 74.07970 | 4.64396 | 10 ft | 20 kts | 301° |
| 2026-05-05 07:37 | 74.07845 | 4.64116 | 10 ft | 21 kts | 302° |
| 2026-05-05 07:38 | 74.07729 | 4.63851 | 10 ft | 20 kts | 302° |
| 2026-05-05 07:38 | 74.07617 | 4.63591 | 11 ft | 19 kts | 302° |
| 2026-05-05 07:38 | 74.07521 | 4.63372 | 10 ft | 15 kts | 302° |
| 2026-05-05 07:38 | 74.07433 | 4.63169 | 10 ft | 15 kts | 301° |
| 2026-05-05 07:39 | 74.07369 | 4.63027 | 12 ft | 9 kts | 301° |
| 2026-05-05 07:39 | 74.07310 | 4.62895 | 10 ft | 15 kts | 301° |
| 2026-05-05 07:39 | 74.07216 | 4.62686 | 10 ft | 16 kts | 301° |
| 2026-05-05 07:39 | 74.07121 | 4.62468 | 11 ft | 18 kts | 302° |
| 2026-05-05 07:40 | 74.07020 | 4.62238 | 12 ft | 17 kts | 302° |
| 2026-05-05 07:40 | 74.06938 | 4.62044 | 9 ft | 12 kts | 303° |
| 2026-05-05 07:40 | 74.06862 | 4.61870 | 9 ft | 13 kts | 302° |
| 2026-05-05 07:40 | 74.06774 | 4.61676 | 10 ft | 17 kts | 301° |
| 2026-05-05 07:41 | 74.06675 | 4.61461 | 10 ft | 17 kts | 301° |
| 2026-05-05 07:41 | 74.06573 | 4.61240 | 12 ft | 17 kts | 301° |
| 2026-05-05 07:41 | 74.06465 | 4.61008 | 11 ft | 19 kts | 301° |
| 2026-05-05 07:41 | 74.06339 | 4.60741 | 10 ft | 23 kts | 300° |
| 2026-05-05 07:42 | 74.06201 | 4.60453 | 10 ft | 24 kts | 300° |
| 2026-05-05 07:42 | 74.06063 | 4.60164 | 10 ft | 23 kts | 300° |
| 2026-05-05 07:42 | 74.05932 | 4.59893 | 10 ft | 21 kts | 300° |
| 2026-05-05 07:42 | 74.05806 | 4.59638 | 11 ft | 20 kts | 298° |
| 2026-05-05 07:43 | 74.05687 | 4.59401 | 11 ft | 19 kts | 298° |
| 2026-05-05 07:43 | 74.05573 | 4.59174 | 10 ft | 19 kts | 299° |
| 2026-05-05 07:43 | 74.05476 | 4.58975 | 10 ft | 12 kts | 299° |
| 2026-05-05 07:43 | 74.05402 | 4.58828 | 10 ft | 15 kts | 299° |
| 2026-05-05 07:44 | 74.05311 | 4.58643 | 11 ft | 17 kts | 299° |
| 2026-05-05 07:44 | 74.05217 | 4.58450 | 11 ft | 12 kts | 300° |
| 2026-05-05 07:44 | 74.05164 | 4.58337 | 11 ft | 10 kts | 300° |
| 2026-05-05 07:44 | 74.05091 | 4.58183 | 9 ft | 11 kts | 300° |
| 2026-05-05 07:45 | 74.05031 | 4.58056 | 9 ft | 9 kts | 300° |
| 2026-05-05 07:45 | 74.04954 | 4.57897 | 10 ft | 12 kts | 300° |
| 2026-05-05 07:45 | 74.04868 | 4.57722 | 12 ft | 16 kts | 299° |
| 2026-05-05 07:45 | 74.04767 | 4.57518 | 10 ft | 19 kts | 299° |
| 2026-05-05 07:46 | 74.04648 | 4.57280 | 10 ft | 19 kts | 299° |
| 2026-05-05 07:46 | 74.04532 | 4.57051 | 11 ft | 17 kts | 298° |
| 2026-05-05 07:46 | 74.04438 | 4.56868 | 11 ft | 13 kts | 298° |
| 2026-05-05 07:46 | 74.04346 | 4.56685 | 11 ft | 16 kts | 298° |
| 2026-05-05 07:47 | 74.04244 | 4.56479 | 10 ft | 18 kts | 299° |
| 2026-05-05 07:47 | 74.04129 | 4.56244 | 10 ft | 21 kts | 298° |
| 2026-05-05 07:47 | 74.03997 | 4.55982 | 11 ft | 22 kts | 298° |
| 2026-05-05 07:47 | 74.03858 | 4.55711 | 10 ft | 22 kts | 298° |
| 2026-05-05 07:48 | 74.03727 | 4.55460 | 10 ft | 23 kts | 297° |
| 2026-05-05 07:48 | 74.03595 | 4.55209 | 9 ft | 21 kts | 297° |
| 2026-05-05 07:48 | 74.03465 | 4.54963 | 10 ft | 22 kts | 297° |
| 2026-05-05 07:48 | 74.03326 | 4.54698 | 11 ft | 23 kts | 297° |
| 2026-05-05 07:49 | 74.03208 | 4.54472 | 10 ft | 20 kts | 298° |